<?xml version="1.0" encoding="utf-8"?>
<gpx xmlns:xsi="http://www.w3.org/2001/XMLSchema-instance" xmlns:xsd="http://www.w3.org/2001/XMLSchema" version="1.1" creator="Shapelink.com" xmlns="http://www.topografix.com/GPX/1/1" xmlns:gpxtpx="http://www.garmin.com/xmlschemas/TrackPointExtension/v1">
  <metadata>
    <name>Running 6.80 km, 2015-02-16</name>
    <desc></desc>
    <author><name>Henrik Amren</name></author> 
    <time>2015-02-16T18:07:35Z</time>
  </metadata>
  <trk>
    <name>Running 6.80 km, 2015-02-16</name>
    <trkseg>
      <trkpt lat="37.413634" lon="-122.157633">
        <ele>39.2</ele>
        <time>2015-02-16T18:07:35Z</time>
      </trkpt>
      <trkpt lat="37.413611" lon="-122.157655">
        <ele>39.3</ele>
        <time>2015-02-16T18:07:37Z</time>
      </trkpt>
      <trkpt lat="37.41358" lon="-122.157683">
        <ele>39.4</ele>
        <time>2015-02-16T18:07:40Z</time>
      </trkpt>
      <trkpt lat="37.413552" lon="-122.157713">
        <ele>39.6</ele>
        <time>2015-02-16T18:07:42Z</time>
      </trkpt>
      <trkpt lat="37.413535" lon="-122.157746">
        <ele>39.6</ele>
        <time>2015-02-16T18:07:43Z</time>
      </trkpt>
      <trkpt lat="37.413508" lon="-122.157776">
        <ele>39.7</ele>
        <time>2015-02-16T18:07:45Z</time>
      </trkpt>
      <trkpt lat="37.413476" lon="-122.1578">
        <ele>39.8</ele>
        <time>2015-02-16T18:07:47Z</time>
      </trkpt>
      <trkpt lat="37.413443" lon="-122.157812">
        <ele>40</ele>
        <time>2015-02-16T18:07:49Z</time>
      </trkpt>
      <trkpt lat="37.413396" lon="-122.157834">
        <ele>40.2</ele>
        <time>2015-02-16T18:07:51Z</time>
      </trkpt>
      <trkpt lat="37.41336" lon="-122.15786">
        <ele>40.4</ele>
        <time>2015-02-16T18:07:53Z</time>
      </trkpt>
      <trkpt lat="37.41333" lon="-122.157885">
        <ele>40.7</ele>
        <time>2015-02-16T18:07:55Z</time>
      </trkpt>
      <trkpt lat="37.413297" lon="-122.157939">
        <ele>40.6</ele>
        <time>2015-02-16T18:07:57Z</time>
      </trkpt>
      <trkpt lat="37.413273" lon="-122.157995">
        <ele>40.7</ele>
        <time>2015-02-16T18:07:59Z</time>
      </trkpt>
      <trkpt lat="37.413254" lon="-122.158021">
        <ele>40.7</ele>
        <time>2015-02-16T18:08:00Z</time>
      </trkpt>
      <trkpt lat="37.413226" lon="-122.158056">
        <ele>40.9</ele>
        <time>2015-02-16T18:08:02Z</time>
      </trkpt>
      <trkpt lat="37.4132" lon="-122.158088">
        <ele>40.9</ele>
        <time>2015-02-16T18:08:05Z</time>
      </trkpt>
      <trkpt lat="37.413175" lon="-122.158102">
        <ele>41</ele>
        <time>2015-02-16T18:08:06Z</time>
      </trkpt>
      <trkpt lat="37.413147" lon="-122.158102">
        <ele>41.2</ele>
        <time>2015-02-16T18:08:09Z</time>
      </trkpt>
      <trkpt lat="37.413117" lon="-122.158133">
        <ele>41.4</ele>
        <time>2015-02-16T18:08:15Z</time>
      </trkpt>
      <trkpt lat="37.413092" lon="-122.158182">
        <ele>41.4</ele>
        <time>2015-02-16T18:08:17Z</time>
      </trkpt>
      <trkpt lat="37.41307" lon="-122.158227">
        <ele>41.4</ele>
        <time>2015-02-16T18:08:19Z</time>
      </trkpt>
      <trkpt lat="37.41304" lon="-122.158251">
        <ele>41.5</ele>
        <time>2015-02-16T18:08:21Z</time>
      </trkpt>
      <trkpt lat="37.413013" lon="-122.158267">
        <ele>41.8</ele>
        <time>2015-02-16T18:08:23Z</time>
      </trkpt>
      <trkpt lat="37.412968" lon="-122.158301">
        <ele>42.4</ele>
        <time>2015-02-16T18:08:24Z</time>
      </trkpt>
      <trkpt lat="37.412932" lon="-122.15833">
        <ele>42.8</ele>
        <time>2015-02-16T18:08:26Z</time>
      </trkpt>
      <trkpt lat="37.4129" lon="-122.158354">
        <ele>43.3</ele>
        <time>2015-02-16T18:08:28Z</time>
      </trkpt>
      <trkpt lat="37.412864" lon="-122.158376">
        <ele>43.8</ele>
        <time>2015-02-16T18:08:30Z</time>
      </trkpt>
      <trkpt lat="37.412814" lon="-122.158399">
        <ele>44.3</ele>
        <time>2015-02-16T18:08:33Z</time>
      </trkpt>
      <trkpt lat="37.412767" lon="-122.158414">
        <ele>44.9</ele>
        <time>2015-02-16T18:08:34Z</time>
      </trkpt>
      <trkpt lat="37.41274" lon="-122.158441">
        <ele>45</ele>
        <time>2015-02-16T18:08:35Z</time>
      </trkpt>
      <trkpt lat="37.412718" lon="-122.158484">
        <ele>44.6</ele>
        <time>2015-02-16T18:08:36Z</time>
      </trkpt>
      <trkpt lat="37.412704" lon="-122.158534">
        <ele>44.2</ele>
        <time>2015-02-16T18:08:37Z</time>
      </trkpt>
      <trkpt lat="37.41269" lon="-122.158577">
        <ele>43.9</ele>
        <time>2015-02-16T18:08:38Z</time>
      </trkpt>
      <trkpt lat="37.41267" lon="-122.158617">
        <ele>43.7</ele>
        <time>2015-02-16T18:08:39Z</time>
      </trkpt>
      <trkpt lat="37.412655" lon="-122.158646">
        <ele>43.4</ele>
        <time>2015-02-16T18:08:40Z</time>
      </trkpt>
      <trkpt lat="37.412639" lon="-122.158675">
        <ele>43.2</ele>
        <time>2015-02-16T18:08:41Z</time>
      </trkpt>
      <trkpt lat="37.412624" lon="-122.158704">
        <ele>43</ele>
        <time>2015-02-16T18:08:42Z</time>
      </trkpt>
      <trkpt lat="37.412591" lon="-122.158749">
        <ele>42.9</ele>
        <time>2015-02-16T18:08:45Z</time>
      </trkpt>
      <trkpt lat="37.412554" lon="-122.158769">
        <ele>43.1</ele>
        <time>2015-02-16T18:08:46Z</time>
      </trkpt>
      <trkpt lat="37.412515" lon="-122.158792">
        <ele>43.4</ele>
        <time>2015-02-16T18:08:48Z</time>
      </trkpt>
      <trkpt lat="37.412481" lon="-122.158822">
        <ele>43.7</ele>
        <time>2015-02-16T18:08:51Z</time>
      </trkpt>
      <trkpt lat="37.412457" lon="-122.158847">
        <ele>43.8</ele>
        <time>2015-02-16T18:08:52Z</time>
      </trkpt>
      <trkpt lat="37.412432" lon="-122.158879">
        <ele>43.8</ele>
        <time>2015-02-16T18:08:55Z</time>
      </trkpt>
      <trkpt lat="37.412408" lon="-122.158894">
        <ele>43.9</ele>
        <time>2015-02-16T18:08:56Z</time>
      </trkpt>
      <trkpt lat="37.41236" lon="-122.158934">
        <ele>44.1</ele>
        <time>2015-02-16T18:08:57Z</time>
      </trkpt>
      <trkpt lat="37.412342" lon="-122.158961">
        <ele>44</ele>
        <time>2015-02-16T18:08:59Z</time>
      </trkpt>
      <trkpt lat="37.412308" lon="-122.159029">
        <ele>44.2</ele>
        <time>2015-02-16T18:09:01Z</time>
      </trkpt>
      <trkpt lat="37.412295" lon="-122.159045">
        <ele>44.2</ele>
        <time>2015-02-16T18:09:03Z</time>
      </trkpt>
      <trkpt lat="37.412269" lon="-122.159074">
        <ele>44.2</ele>
        <time>2015-02-16T18:09:05Z</time>
      </trkpt>
      <trkpt lat="37.412234" lon="-122.15912">
        <ele>44.2</ele>
        <time>2015-02-16T18:09:06Z</time>
      </trkpt>
      <trkpt lat="37.412206" lon="-122.159159">
        <ele>44.3</ele>
        <time>2015-02-16T18:09:09Z</time>
      </trkpt>
      <trkpt lat="37.412178" lon="-122.159188">
        <ele>44.5</ele>
        <time>2015-02-16T18:09:10Z</time>
      </trkpt>
      <trkpt lat="37.412149" lon="-122.159205">
        <ele>44.7</ele>
        <time>2015-02-16T18:09:12Z</time>
      </trkpt>
      <trkpt lat="37.41211" lon="-122.159248">
        <ele>45</ele>
        <time>2015-02-16T18:09:14Z</time>
      </trkpt>
      <trkpt lat="37.412088" lon="-122.159274">
        <ele>45.1</ele>
        <time>2015-02-16T18:09:15Z</time>
      </trkpt>
      <trkpt lat="37.412067" lon="-122.159297">
        <ele>45.3</ele>
        <time>2015-02-16T18:09:16Z</time>
      </trkpt>
      <trkpt lat="37.412001" lon="-122.159352">
        <ele>45.6</ele>
        <time>2015-02-16T18:09:19Z</time>
      </trkpt>
      <trkpt lat="37.411975" lon="-122.159368">
        <ele>45.7</ele>
        <time>2015-02-16T18:09:20Z</time>
      </trkpt>
      <trkpt lat="37.411927" lon="-122.159392">
        <ele>45.9</ele>
        <time>2015-02-16T18:09:22Z</time>
      </trkpt>
      <trkpt lat="37.411886" lon="-122.159412">
        <ele>46.1</ele>
        <time>2015-02-16T18:09:24Z</time>
      </trkpt>
      <trkpt lat="37.411854" lon="-122.159429">
        <ele>46.3</ele>
        <time>2015-02-16T18:09:25Z</time>
      </trkpt>
      <trkpt lat="37.411816" lon="-122.159447">
        <ele>46.5</ele>
        <time>2015-02-16T18:09:26Z</time>
      </trkpt>
      <trkpt lat="37.41179" lon="-122.159458">
        <ele>46.7</ele>
        <time>2015-02-16T18:09:28Z</time>
      </trkpt>
      <trkpt lat="37.411749" lon="-122.159481">
        <ele>47</ele>
        <time>2015-02-16T18:09:29Z</time>
      </trkpt>
      <trkpt lat="37.411712" lon="-122.159514">
        <ele>47.3</ele>
        <time>2015-02-16T18:09:33Z</time>
      </trkpt>
      <trkpt lat="37.411693" lon="-122.159536">
        <ele>47.3</ele>
        <time>2015-02-16T18:09:37Z</time>
      </trkpt>
      <trkpt lat="37.411663" lon="-122.159575">
        <ele>47.3</ele>
        <time>2015-02-16T18:09:38Z</time>
      </trkpt>
      <trkpt lat="37.411639" lon="-122.159601">
        <ele>47.3</ele>
        <time>2015-02-16T18:09:40Z</time>
      </trkpt>
      <trkpt lat="37.411589" lon="-122.159652">
        <ele>47.3</ele>
        <time>2015-02-16T18:09:42Z</time>
      </trkpt>
      <trkpt lat="37.411574" lon="-122.159662">
        <ele>47.4</ele>
        <time>2015-02-16T18:09:44Z</time>
      </trkpt>
      <trkpt lat="37.411548" lon="-122.159672">
        <ele>47.5</ele>
        <time>2015-02-16T18:09:46Z</time>
      </trkpt>
      <trkpt lat="37.411509" lon="-122.159675">
        <ele>47.7</ele>
        <time>2015-02-16T18:09:47Z</time>
      </trkpt>
      <trkpt lat="37.41148" lon="-122.159677">
        <ele>47.9</ele>
        <time>2015-02-16T18:09:48Z</time>
      </trkpt>
      <trkpt lat="37.411445" lon="-122.159696">
        <ele>48.1</ele>
        <time>2015-02-16T18:09:51Z</time>
      </trkpt>
      <trkpt lat="37.411413" lon="-122.159726">
        <ele>48.2</ele>
        <time>2015-02-16T18:09:52Z</time>
      </trkpt>
      <trkpt lat="37.41136" lon="-122.15974">
        <ele>48.4</ele>
        <time>2015-02-16T18:09:56Z</time>
      </trkpt>
      <trkpt lat="37.411322" lon="-122.159744">
        <ele>48.4</ele>
        <time>2015-02-16T18:09:58Z</time>
      </trkpt>
      <trkpt lat="37.411298" lon="-122.159759">
        <ele>48.4</ele>
        <time>2015-02-16T18:09:59Z</time>
      </trkpt>
      <trkpt lat="37.411265" lon="-122.15981">
        <ele>48.5</ele>
        <time>2015-02-16T18:10:01Z</time>
      </trkpt>
      <trkpt lat="37.411237" lon="-122.159858">
        <ele>48.6</ele>
        <time>2015-02-16T18:10:03Z</time>
      </trkpt>
      <trkpt lat="37.411205" lon="-122.159898">
        <ele>48.6</ele>
        <time>2015-02-16T18:10:05Z</time>
      </trkpt>
      <trkpt lat="37.411173" lon="-122.159915">
        <ele>48.8</ele>
        <time>2015-02-16T18:10:07Z</time>
      </trkpt>
      <trkpt lat="37.411134" lon="-122.15995">
        <ele>48.9</ele>
        <time>2015-02-16T18:10:09Z</time>
      </trkpt>
      <trkpt lat="37.411106" lon="-122.159978">
        <ele>49</ele>
        <time>2015-02-16T18:10:10Z</time>
      </trkpt>
      <trkpt lat="37.411066" lon="-122.160017">
        <ele>49.1</ele>
        <time>2015-02-16T18:10:13Z</time>
      </trkpt>
      <trkpt lat="37.411028" lon="-122.160051">
        <ele>49.1</ele>
        <time>2015-02-16T18:10:14Z</time>
      </trkpt>
      <trkpt lat="37.410994" lon="-122.160078">
        <ele>49.1</ele>
        <time>2015-02-16T18:10:17Z</time>
      </trkpt>
      <trkpt lat="37.410938" lon="-122.160147">
        <ele>49.3</ele>
        <time>2015-02-16T18:10:19Z</time>
      </trkpt>
      <trkpt lat="37.41092" lon="-122.160164">
        <ele>49.3</ele>
        <time>2015-02-16T18:10:21Z</time>
      </trkpt>
      <trkpt lat="37.410872" lon="-122.160218">
        <ele>49.4</ele>
        <time>2015-02-16T18:10:23Z</time>
      </trkpt>
      <trkpt lat="37.410854" lon="-122.160239">
        <ele>49.5</ele>
        <time>2015-02-16T18:10:24Z</time>
      </trkpt>
      <trkpt lat="37.410809" lon="-122.160271">
        <ele>49.6</ele>
        <time>2015-02-16T18:10:27Z</time>
      </trkpt>
      <trkpt lat="37.410771" lon="-122.160291">
        <ele>49.9</ele>
        <time>2015-02-16T18:10:28Z</time>
      </trkpt>
      <trkpt lat="37.410734" lon="-122.160286">
        <ele>50</ele>
        <time>2015-02-16T18:10:32Z</time>
      </trkpt>
      <trkpt lat="37.410695" lon="-122.160298">
        <ele>50.1</ele>
        <time>2015-02-16T18:10:33Z</time>
      </trkpt>
      <trkpt lat="37.410664" lon="-122.160326">
        <ele>50.3</ele>
        <time>2015-02-16T18:10:35Z</time>
      </trkpt>
      <trkpt lat="37.410626" lon="-122.160362">
        <ele>50.4</ele>
        <time>2015-02-16T18:10:37Z</time>
      </trkpt>
      <trkpt lat="37.410576" lon="-122.160416">
        <ele>50.6</ele>
        <time>2015-02-16T18:10:39Z</time>
      </trkpt>
      <trkpt lat="37.41055" lon="-122.16044">
        <ele>50.7</ele>
        <time>2015-02-16T18:10:42Z</time>
      </trkpt>
      <trkpt lat="37.410525" lon="-122.160465">
        <ele>50.9</ele>
        <time>2015-02-16T18:10:43Z</time>
      </trkpt>
      <trkpt lat="37.410484" lon="-122.160489">
        <ele>51</ele>
        <time>2015-02-16T18:10:45Z</time>
      </trkpt>
      <trkpt lat="37.41045" lon="-122.160499">
        <ele>51.1</ele>
        <time>2015-02-16T18:10:47Z</time>
      </trkpt>
      <trkpt lat="37.410411" lon="-122.160499">
        <ele>51.3</ele>
        <time>2015-02-16T18:10:49Z</time>
      </trkpt>
      <trkpt lat="37.410372" lon="-122.160499">
        <ele>51.4</ele>
        <time>2015-02-16T18:10:51Z</time>
      </trkpt>
      <trkpt lat="37.410329" lon="-122.160509">
        <ele>51.5</ele>
        <time>2015-02-16T18:10:53Z</time>
      </trkpt>
      <trkpt lat="37.410294" lon="-122.160523">
        <ele>51.8</ele>
        <time>2015-02-16T18:10:55Z</time>
      </trkpt>
      <trkpt lat="37.410247" lon="-122.160531">
        <ele>52</ele>
        <time>2015-02-16T18:10:57Z</time>
      </trkpt>
      <trkpt lat="37.410175" lon="-122.160519">
        <ele>52.3</ele>
        <time>2015-02-16T18:11:00Z</time>
      </trkpt>
      <trkpt lat="37.410154" lon="-122.160514">
        <ele>52.4</ele>
        <time>2015-02-16T18:11:01Z</time>
      </trkpt>
      <trkpt lat="37.410117" lon="-122.160493">
        <ele>52.5</ele>
        <time>2015-02-16T18:11:03Z</time>
      </trkpt>
      <trkpt lat="37.410087" lon="-122.160456">
        <ele>52.7</ele>
        <time>2015-02-16T18:11:05Z</time>
      </trkpt>
      <trkpt lat="37.410056" lon="-122.160418">
        <ele>52.8</ele>
        <time>2015-02-16T18:11:07Z</time>
      </trkpt>
      <trkpt lat="37.410024" lon="-122.160375">
        <ele>52.8</ele>
        <time>2015-02-16T18:11:09Z</time>
      </trkpt>
      <trkpt lat="37.409993" lon="-122.160331">
        <ele>52.9</ele>
        <time>2015-02-16T18:11:11Z</time>
      </trkpt>
      <trkpt lat="37.409966" lon="-122.160286">
        <ele>52.9</ele>
        <time>2015-02-16T18:11:13Z</time>
      </trkpt>
      <trkpt lat="37.409941" lon="-122.160249">
        <ele>53</ele>
        <time>2015-02-16T18:11:15Z</time>
      </trkpt>
      <trkpt lat="37.409915" lon="-122.160212">
        <ele>53.2</ele>
        <time>2015-02-16T18:11:17Z</time>
      </trkpt>
      <trkpt lat="37.409887" lon="-122.160172">
        <ele>53.2</ele>
        <time>2015-02-16T18:11:19Z</time>
      </trkpt>
      <trkpt lat="37.409866" lon="-122.160134">
        <ele>53.2</ele>
        <time>2015-02-16T18:11:21Z</time>
      </trkpt>
      <trkpt lat="37.409844" lon="-122.160103">
        <ele>53.3</ele>
        <time>2015-02-16T18:11:23Z</time>
      </trkpt>
      <trkpt lat="37.409819" lon="-122.160079">
        <ele>53.4</ele>
        <time>2015-02-16T18:11:25Z</time>
      </trkpt>
      <trkpt lat="37.409801" lon="-122.160054">
        <ele>53.4</ele>
        <time>2015-02-16T18:11:27Z</time>
      </trkpt>
      <trkpt lat="37.409775" lon="-122.159988">
        <ele>53.3</ele>
        <time>2015-02-16T18:11:30Z</time>
      </trkpt>
      <trkpt lat="37.409762" lon="-122.159969">
        <ele>53.4</ele>
        <time>2015-02-16T18:11:31Z</time>
      </trkpt>
      <trkpt lat="37.40973" lon="-122.159924">
        <ele>53.5</ele>
        <time>2015-02-16T18:11:33Z</time>
      </trkpt>
      <trkpt lat="37.409709" lon="-122.159898">
        <ele>53.5</ele>
        <time>2015-02-16T18:11:34Z</time>
      </trkpt>
      <trkpt lat="37.409658" lon="-122.159821">
        <ele>53.5</ele>
        <time>2015-02-16T18:11:37Z</time>
      </trkpt>
      <trkpt lat="37.409635" lon="-122.159789">
        <ele>53.6</ele>
        <time>2015-02-16T18:11:39Z</time>
      </trkpt>
      <trkpt lat="37.409606" lon="-122.15975">
        <ele>53.6</ele>
        <time>2015-02-16T18:11:41Z</time>
      </trkpt>
      <trkpt lat="37.409577" lon="-122.159716">
        <ele>53.7</ele>
        <time>2015-02-16T18:11:43Z</time>
      </trkpt>
      <trkpt lat="37.409543" lon="-122.159672">
        <ele>53.6</ele>
        <time>2015-02-16T18:11:45Z</time>
      </trkpt>
      <trkpt lat="37.409515" lon="-122.15963">
        <ele>53.6</ele>
        <time>2015-02-16T18:11:47Z</time>
      </trkpt>
      <trkpt lat="37.409483" lon="-122.159589">
        <ele>53.7</ele>
        <time>2015-02-16T18:11:49Z</time>
      </trkpt>
      <trkpt lat="37.409449" lon="-122.159542">
        <ele>53.7</ele>
        <time>2015-02-16T18:11:51Z</time>
      </trkpt>
      <trkpt lat="37.409418" lon="-122.159504">
        <ele>53.6</ele>
        <time>2015-02-16T18:11:53Z</time>
      </trkpt>
      <trkpt lat="37.409393" lon="-122.159465">
        <ele>53.5</ele>
        <time>2015-02-16T18:11:55Z</time>
      </trkpt>
      <trkpt lat="37.409358" lon="-122.159389">
        <ele>53.2</ele>
        <time>2015-02-16T18:11:58Z</time>
      </trkpt>
      <trkpt lat="37.409346" lon="-122.159365">
        <ele>53</ele>
        <time>2015-02-16T18:11:59Z</time>
      </trkpt>
      <trkpt lat="37.40932" lon="-122.159343">
        <ele>53</ele>
        <time>2015-02-16T18:12:01Z</time>
      </trkpt>
      <trkpt lat="37.409286" lon="-122.15931">
        <ele>52.9</ele>
        <time>2015-02-16T18:12:03Z</time>
      </trkpt>
      <trkpt lat="37.409266" lon="-122.159284">
        <ele>52.9</ele>
        <time>2015-02-16T18:12:04Z</time>
      </trkpt>
      <trkpt lat="37.409239" lon="-122.159234">
        <ele>52.9</ele>
        <time>2015-02-16T18:12:06Z</time>
      </trkpt>
      <trkpt lat="37.409192" lon="-122.159199">
        <ele>52.8</ele>
        <time>2015-02-16T18:12:09Z</time>
      </trkpt>
      <trkpt lat="37.409171" lon="-122.159181">
        <ele>52.6</ele>
        <time>2015-02-16T18:12:10Z</time>
      </trkpt>
      <trkpt lat="37.409144" lon="-122.159141">
        <ele>52.7</ele>
        <time>2015-02-16T18:12:12Z</time>
      </trkpt>
      <trkpt lat="37.409121" lon="-122.15908">
        <ele>52.6</ele>
        <time>2015-02-16T18:12:15Z</time>
      </trkpt>
      <trkpt lat="37.40909" lon="-122.159031">
        <ele>52.5</ele>
        <time>2015-02-16T18:12:16Z</time>
      </trkpt>
      <trkpt lat="37.409073" lon="-122.159003">
        <ele>52.3</ele>
        <time>2015-02-16T18:12:18Z</time>
      </trkpt>
      <trkpt lat="37.409051" lon="-122.158968">
        <ele>52.2</ele>
        <time>2015-02-16T18:12:21Z</time>
      </trkpt>
      <trkpt lat="37.409021" lon="-122.158925">
        <ele>52.1</ele>
        <time>2015-02-16T18:12:22Z</time>
      </trkpt>
      <trkpt lat="37.408985" lon="-122.158881">
        <ele>52</ele>
        <time>2015-02-16T18:12:25Z</time>
      </trkpt>
      <trkpt lat="37.408941" lon="-122.158809">
        <ele>51.8</ele>
        <time>2015-02-16T18:12:27Z</time>
      </trkpt>
      <trkpt lat="37.408922" lon="-122.158784">
        <ele>51.9</ele>
        <time>2015-02-16T18:12:28Z</time>
      </trkpt>
      <trkpt lat="37.408897" lon="-122.158734">
        <ele>51.8</ele>
        <time>2015-02-16T18:12:30Z</time>
      </trkpt>
      <trkpt lat="37.408873" lon="-122.158696">
        <ele>51.7</ele>
        <time>2015-02-16T18:12:32Z</time>
      </trkpt>
      <trkpt lat="37.408849" lon="-122.15866">
        <ele>51.8</ele>
        <time>2015-02-16T18:12:35Z</time>
      </trkpt>
      <trkpt lat="37.408822" lon="-122.158626">
        <ele>51.8</ele>
        <time>2015-02-16T18:12:36Z</time>
      </trkpt>
      <trkpt lat="37.408791" lon="-122.158571">
        <ele>51.8</ele>
        <time>2015-02-16T18:12:39Z</time>
      </trkpt>
      <trkpt lat="37.408751" lon="-122.158514">
        <ele>51.9</ele>
        <time>2015-02-16T18:12:41Z</time>
      </trkpt>
      <trkpt lat="37.408738" lon="-122.158496">
        <ele>51.9</ele>
        <time>2015-02-16T18:12:42Z</time>
      </trkpt>
      <trkpt lat="37.408702" lon="-122.158455">
        <ele>52.1</ele>
        <time>2015-02-16T18:12:45Z</time>
      </trkpt>
      <trkpt lat="37.408692" lon="-122.158439">
        <ele>52.1</ele>
        <time>2015-02-16T18:12:46Z</time>
      </trkpt>
      <trkpt lat="37.408667" lon="-122.158391">
        <ele>52.2</ele>
        <time>2015-02-16T18:12:49Z</time>
      </trkpt>
      <trkpt lat="37.408635" lon="-122.158345">
        <ele>52.3</ele>
        <time>2015-02-16T18:12:50Z</time>
      </trkpt>
      <trkpt lat="37.408603" lon="-122.158299">
        <ele>52.5</ele>
        <time>2015-02-16T18:12:52Z</time>
      </trkpt>
      <trkpt lat="37.408572" lon="-122.158246">
        <ele>52.4</ele>
        <time>2015-02-16T18:12:54Z</time>
      </trkpt>
      <trkpt lat="37.408542" lon="-122.158194">
        <ele>52.5</ele>
        <time>2015-02-16T18:12:56Z</time>
      </trkpt>
      <trkpt lat="37.408511" lon="-122.158144">
        <ele>52.5</ele>
        <time>2015-02-16T18:12:59Z</time>
      </trkpt>
      <trkpt lat="37.408481" lon="-122.158102">
        <ele>52.6</ele>
        <time>2015-02-16T18:13:01Z</time>
      </trkpt>
      <trkpt lat="37.408451" lon="-122.15808">
        <ele>52.8</ele>
        <time>2015-02-16T18:13:03Z</time>
      </trkpt>
      <trkpt lat="37.408418" lon="-122.158042">
        <ele>52.9</ele>
        <time>2015-02-16T18:13:04Z</time>
      </trkpt>
      <trkpt lat="37.408376" lon="-122.157971">
        <ele>52.8</ele>
        <time>2015-02-16T18:13:07Z</time>
      </trkpt>
      <trkpt lat="37.408364" lon="-122.157952">
        <ele>52.7</ele>
        <time>2015-02-16T18:13:08Z</time>
      </trkpt>
      <trkpt lat="37.408343" lon="-122.157929">
        <ele>52.7</ele>
        <time>2015-02-16T18:13:11Z</time>
      </trkpt>
      <trkpt lat="37.408291" lon="-122.157876">
        <ele>52.9</ele>
        <time>2015-02-16T18:13:13Z</time>
      </trkpt>
      <trkpt lat="37.408252" lon="-122.157831">
        <ele>53</ele>
        <time>2015-02-16T18:13:16Z</time>
      </trkpt>
      <trkpt lat="37.408219" lon="-122.157787">
        <ele>53</ele>
        <time>2015-02-16T18:13:17Z</time>
      </trkpt>
      <trkpt lat="37.408202" lon="-122.157759">
        <ele>53</ele>
        <time>2015-02-16T18:13:19Z</time>
      </trkpt>
      <trkpt lat="37.408184" lon="-122.157731">
        <ele>53</ele>
        <time>2015-02-16T18:13:20Z</time>
      </trkpt>
      <trkpt lat="37.408123" lon="-122.157665">
        <ele>53.1</ele>
        <time>2015-02-16T18:13:22Z</time>
      </trkpt>
      <trkpt lat="37.408099" lon="-122.15764">
        <ele>53</ele>
        <time>2015-02-16T18:13:23Z</time>
      </trkpt>
      <trkpt lat="37.408043" lon="-122.157596">
        <ele>53.2</ele>
        <time>2015-02-16T18:13:26Z</time>
      </trkpt>
      <trkpt lat="37.408027" lon="-122.157582">
        <ele>53.2</ele>
        <time>2015-02-16T18:13:27Z</time>
      </trkpt>
      <trkpt lat="37.40799" lon="-122.157546">
        <ele>53.3</ele>
        <time>2015-02-16T18:13:29Z</time>
      </trkpt>
      <trkpt lat="37.40796" lon="-122.157501">
        <ele>53.3</ele>
        <time>2015-02-16T18:13:31Z</time>
      </trkpt>
      <trkpt lat="37.407934" lon="-122.15745">
        <ele>53.1</ele>
        <time>2015-02-16T18:13:33Z</time>
      </trkpt>
      <trkpt lat="37.407907" lon="-122.157408">
        <ele>53.1</ele>
        <time>2015-02-16T18:13:35Z</time>
      </trkpt>
      <trkpt lat="37.407882" lon="-122.157371">
        <ele>53.1</ele>
        <time>2015-02-16T18:13:37Z</time>
      </trkpt>
      <trkpt lat="37.407858" lon="-122.157323">
        <ele>53</ele>
        <time>2015-02-16T18:13:39Z</time>
      </trkpt>
      <trkpt lat="37.407837" lon="-122.157276">
        <ele>52.9</ele>
        <time>2015-02-16T18:13:41Z</time>
      </trkpt>
      <trkpt lat="37.407824" lon="-122.157214">
        <ele>52.7</ele>
        <time>2015-02-16T18:13:43Z</time>
      </trkpt>
      <trkpt lat="37.407813" lon="-122.15716">
        <ele>52.5</ele>
        <time>2015-02-16T18:13:45Z</time>
      </trkpt>
      <trkpt lat="37.407785" lon="-122.157108">
        <ele>52.5</ele>
        <time>2015-02-16T18:13:47Z</time>
      </trkpt>
      <trkpt lat="37.407766" lon="-122.157078">
        <ele>52.5</ele>
        <time>2015-02-16T18:13:48Z</time>
      </trkpt>
      <trkpt lat="37.407748" lon="-122.157044">
        <ele>52.6</ele>
        <time>2015-02-16T18:13:49Z</time>
      </trkpt>
      <trkpt lat="37.407732" lon="-122.156999">
        <ele>52.5</ele>
        <time>2015-02-16T18:13:52Z</time>
      </trkpt>
      <trkpt lat="37.407695" lon="-122.156954">
        <ele>52.4</ele>
        <time>2015-02-16T18:13:54Z</time>
      </trkpt>
      <trkpt lat="37.407681" lon="-122.156942">
        <ele>52.4</ele>
        <time>2015-02-16T18:13:55Z</time>
      </trkpt>
      <trkpt lat="37.407662" lon="-122.156901">
        <ele>52.1</ele>
        <time>2015-02-16T18:13:57Z</time>
      </trkpt>
      <trkpt lat="37.407621" lon="-122.156843">
        <ele>52.2</ele>
        <time>2015-02-16T18:13:59Z</time>
      </trkpt>
      <trkpt lat="37.407597" lon="-122.156823">
        <ele>52.2</ele>
        <time>2015-02-16T18:14:02Z</time>
      </trkpt>
      <trkpt lat="37.407573" lon="-122.156803">
        <ele>52.1</ele>
        <time>2015-02-16T18:14:03Z</time>
      </trkpt>
      <trkpt lat="37.407554" lon="-122.156777">
        <ele>51.8</ele>
        <time>2015-02-16T18:14:04Z</time>
      </trkpt>
      <trkpt lat="37.407537" lon="-122.156747">
        <ele>51.8</ele>
        <time>2015-02-16T18:14:05Z</time>
      </trkpt>
      <trkpt lat="37.407517" lon="-122.156711">
        <ele>51.9</ele>
        <time>2015-02-16T18:14:07Z</time>
      </trkpt>
      <trkpt lat="37.407476" lon="-122.156669">
        <ele>51.7</ele>
        <time>2015-02-16T18:14:10Z</time>
      </trkpt>
      <trkpt lat="37.40744" lon="-122.156621">
        <ele>51.6</ele>
        <time>2015-02-16T18:14:12Z</time>
      </trkpt>
      <trkpt lat="37.407416" lon="-122.156578">
        <ele>51.4</ele>
        <time>2015-02-16T18:14:14Z</time>
      </trkpt>
      <trkpt lat="37.407397" lon="-122.156527">
        <ele>51.2</ele>
        <time>2015-02-16T18:14:16Z</time>
      </trkpt>
      <trkpt lat="37.407386" lon="-122.156495">
        <ele>51</ele>
        <time>2015-02-16T18:14:17Z</time>
      </trkpt>
      <trkpt lat="37.407367" lon="-122.156444">
        <ele>50.8</ele>
        <time>2015-02-16T18:14:19Z</time>
      </trkpt>
      <trkpt lat="37.407353" lon="-122.156396">
        <ele>50.7</ele>
        <time>2015-02-16T18:14:21Z</time>
      </trkpt>
      <trkpt lat="37.407334" lon="-122.156355">
        <ele>50.6</ele>
        <time>2015-02-16T18:14:23Z</time>
      </trkpt>
      <trkpt lat="37.407297" lon="-122.156293">
        <ele>50.7</ele>
        <time>2015-02-16T18:14:26Z</time>
      </trkpt>
      <trkpt lat="37.407294" lon="-122.156258">
        <ele>50.7</ele>
        <time>2015-02-16T18:14:29Z</time>
      </trkpt>
      <trkpt lat="37.407283" lon="-122.156213">
        <ele>50.5</ele>
        <time>2015-02-16T18:14:31Z</time>
      </trkpt>
      <trkpt lat="37.407249" lon="-122.156172">
        <ele>50.2</ele>
        <time>2015-02-16T18:14:33Z</time>
      </trkpt>
      <trkpt lat="37.407224" lon="-122.156133">
        <ele>50.1</ele>
        <time>2015-02-16T18:14:35Z</time>
      </trkpt>
      <trkpt lat="37.407226" lon="-122.156088">
        <ele>50</ele>
        <time>2015-02-16T18:14:38Z</time>
      </trkpt>
      <trkpt lat="37.407225" lon="-122.15604">
        <ele>50</ele>
        <time>2015-02-16T18:14:40Z</time>
      </trkpt>
      <trkpt lat="37.407227" lon="-122.155994">
        <ele>50.1</ele>
        <time>2015-02-16T18:14:42Z</time>
      </trkpt>
      <trkpt lat="37.40722" lon="-122.155945">
        <ele>50.2</ele>
        <time>2015-02-16T18:14:44Z</time>
      </trkpt>
      <trkpt lat="37.407192" lon="-122.15587">
        <ele>50.3</ele>
        <time>2015-02-16T18:14:47Z</time>
      </trkpt>
      <trkpt lat="37.407185" lon="-122.155843">
        <ele>50.1</ele>
        <time>2015-02-16T18:14:48Z</time>
      </trkpt>
      <trkpt lat="37.407182" lon="-122.155802">
        <ele>50</ele>
        <time>2015-02-16T18:14:50Z</time>
      </trkpt>
      <trkpt lat="37.407191" lon="-122.155758">
        <ele>50</ele>
        <time>2015-02-16T18:14:52Z</time>
      </trkpt>
      <trkpt lat="37.407196" lon="-122.155725">
        <ele>49.9</ele>
        <time>2015-02-16T18:14:54Z</time>
      </trkpt>
      <trkpt lat="37.407211" lon="-122.155687">
        <ele>49.9</ele>
        <time>2015-02-16T18:14:57Z</time>
      </trkpt>
      <trkpt lat="37.407227" lon="-122.155647">
        <ele>49.8</ele>
        <time>2015-02-16T18:14:59Z</time>
      </trkpt>
      <trkpt lat="37.407257" lon="-122.155607">
        <ele>49.8</ele>
        <time>2015-02-16T18:15:01Z</time>
      </trkpt>
      <trkpt lat="37.407286" lon="-122.155574">
        <ele>50.2</ele>
        <time>2015-02-16T18:15:03Z</time>
      </trkpt>
      <trkpt lat="37.407314" lon="-122.155546">
        <ele>50.5</ele>
        <time>2015-02-16T18:15:05Z</time>
      </trkpt>
      <trkpt lat="37.407346" lon="-122.155519">
        <ele>50.9</ele>
        <time>2015-02-16T18:15:07Z</time>
      </trkpt>
      <trkpt lat="37.407371" lon="-122.155505">
        <ele>51.1</ele>
        <time>2015-02-16T18:15:08Z</time>
      </trkpt>
      <trkpt lat="37.407397" lon="-122.15549">
        <ele>51.1</ele>
        <time>2015-02-16T18:15:09Z</time>
      </trkpt>
      <trkpt lat="37.407434" lon="-122.155464">
        <ele>51</ele>
        <time>2015-02-16T18:15:11Z</time>
      </trkpt>
      <trkpt lat="37.407471" lon="-122.155425">
        <ele>51.1</ele>
        <time>2015-02-16T18:15:13Z</time>
      </trkpt>
      <trkpt lat="37.4075" lon="-122.155403">
        <ele>51.1</ele>
        <time>2015-02-16T18:15:14Z</time>
      </trkpt>
      <trkpt lat="37.40753" lon="-122.155381">
        <ele>51.1</ele>
        <time>2015-02-16T18:15:15Z</time>
      </trkpt>
      <trkpt lat="37.407555" lon="-122.155363">
        <ele>51.1</ele>
        <time>2015-02-16T18:15:16Z</time>
      </trkpt>
      <trkpt lat="37.40759" lon="-122.155334">
        <ele>51.5</ele>
        <time>2015-02-16T18:15:18Z</time>
      </trkpt>
      <trkpt lat="37.407618" lon="-122.155299">
        <ele>51.5</ele>
        <time>2015-02-16T18:15:20Z</time>
      </trkpt>
      <trkpt lat="37.40764" lon="-122.155279">
        <ele>51.5</ele>
        <time>2015-02-16T18:15:21Z</time>
      </trkpt>
      <trkpt lat="37.407665" lon="-122.155261">
        <ele>51.4</ele>
        <time>2015-02-16T18:15:22Z</time>
      </trkpt>
      <trkpt lat="37.407714" lon="-122.155236">
        <ele>51.2</ele>
        <time>2015-02-16T18:15:24Z</time>
      </trkpt>
      <trkpt lat="37.407761" lon="-122.155214">
        <ele>51.3</ele>
        <time>2015-02-16T18:15:26Z</time>
      </trkpt>
      <trkpt lat="37.407786" lon="-122.155199">
        <ele>51.4</ele>
        <time>2015-02-16T18:15:27Z</time>
      </trkpt>
      <trkpt lat="37.407812" lon="-122.155184">
        <ele>51.5</ele>
        <time>2015-02-16T18:15:28Z</time>
      </trkpt>
      <trkpt lat="37.407838" lon="-122.15517">
        <ele>51.6</ele>
        <time>2015-02-16T18:15:29Z</time>
      </trkpt>
      <trkpt lat="37.407863" lon="-122.155155">
        <ele>51.5</ele>
        <time>2015-02-16T18:15:30Z</time>
      </trkpt>
      <trkpt lat="37.407906" lon="-122.155128">
        <ele>51.1</ele>
        <time>2015-02-16T18:15:32Z</time>
      </trkpt>
      <trkpt lat="37.407956" lon="-122.15511">
        <ele>50.9</ele>
        <time>2015-02-16T18:15:34Z</time>
      </trkpt>
      <trkpt lat="37.408001" lon="-122.15509">
        <ele>51.1</ele>
        <time>2015-02-16T18:15:36Z</time>
      </trkpt>
      <trkpt lat="37.408026" lon="-122.155067">
        <ele>51.1</ele>
        <time>2015-02-16T18:15:38Z</time>
      </trkpt>
      <trkpt lat="37.408053" lon="-122.155046">
        <ele>51</ele>
        <time>2015-02-16T18:15:40Z</time>
      </trkpt>
      <trkpt lat="37.408099" lon="-122.155024">
        <ele>50.9</ele>
        <time>2015-02-16T18:15:42Z</time>
      </trkpt>
      <trkpt lat="37.408128" lon="-122.155009">
        <ele>50.9</ele>
        <time>2015-02-16T18:15:43Z</time>
      </trkpt>
      <trkpt lat="37.408158" lon="-122.154993">
        <ele>50.9</ele>
        <time>2015-02-16T18:15:44Z</time>
      </trkpt>
      <trkpt lat="37.408187" lon="-122.154979">
        <ele>50.9</ele>
        <time>2015-02-16T18:15:45Z</time>
      </trkpt>
      <trkpt lat="37.408215" lon="-122.154966">
        <ele>50.9</ele>
        <time>2015-02-16T18:15:46Z</time>
      </trkpt>
      <trkpt lat="37.408267" lon="-122.154944">
        <ele>50.9</ele>
        <time>2015-02-16T18:15:48Z</time>
      </trkpt>
      <trkpt lat="37.408296" lon="-122.154932">
        <ele>51</ele>
        <time>2015-02-16T18:15:49Z</time>
      </trkpt>
      <trkpt lat="37.408342" lon="-122.1549">
        <ele>51.1</ele>
        <time>2015-02-16T18:15:51Z</time>
      </trkpt>
      <trkpt lat="37.408365" lon="-122.154879">
        <ele>51.2</ele>
        <time>2015-02-16T18:15:52Z</time>
      </trkpt>
      <trkpt lat="37.408399" lon="-122.154841">
        <ele>51.3</ele>
        <time>2015-02-16T18:15:55Z</time>
      </trkpt>
      <trkpt lat="37.408451" lon="-122.154798">
        <ele>51.5</ele>
        <time>2015-02-16T18:15:57Z</time>
      </trkpt>
      <trkpt lat="37.408461" lon="-122.154787">
        <ele>51.6</ele>
        <time>2015-02-16T18:15:59Z</time>
      </trkpt>
      <trkpt lat="37.408528" lon="-122.154763">
        <ele>51.9</ele>
        <time>2015-02-16T18:16:01Z</time>
      </trkpt>
      <trkpt lat="37.40856" lon="-122.154748">
        <ele>52.1</ele>
        <time>2015-02-16T18:16:02Z</time>
      </trkpt>
      <trkpt lat="37.408584" lon="-122.154733">
        <ele>52.4</ele>
        <time>2015-02-16T18:16:04Z</time>
      </trkpt>
      <trkpt lat="37.408632" lon="-122.154696">
        <ele>52.6</ele>
        <time>2015-02-16T18:16:06Z</time>
      </trkpt>
      <trkpt lat="37.408646" lon="-122.154684">
        <ele>52.5</ele>
        <time>2015-02-16T18:16:08Z</time>
      </trkpt>
      <trkpt lat="37.408679" lon="-122.154654">
        <ele>52.4</ele>
        <time>2015-02-16T18:16:10Z</time>
      </trkpt>
      <trkpt lat="37.408706" lon="-122.154614">
        <ele>52.4</ele>
        <time>2015-02-16T18:16:13Z</time>
      </trkpt>
      <trkpt lat="37.408717" lon="-122.154579">
        <ele>52.4</ele>
        <time>2015-02-16T18:16:15Z</time>
      </trkpt>
      <trkpt lat="37.408729" lon="-122.154543">
        <ele>52.4</ele>
        <time>2015-02-16T18:16:17Z</time>
      </trkpt>
      <trkpt lat="37.408748" lon="-122.154514">
        <ele>52.4</ele>
        <time>2015-02-16T18:16:19Z</time>
      </trkpt>
      <trkpt lat="37.408772" lon="-122.154482">
        <ele>52.2</ele>
        <time>2015-02-16T18:16:21Z</time>
      </trkpt>
      <trkpt lat="37.408794" lon="-122.15446">
        <ele>52</ele>
        <time>2015-02-16T18:16:22Z</time>
      </trkpt>
      <trkpt lat="37.408822" lon="-122.154428">
        <ele>51.9</ele>
        <time>2015-02-16T18:16:24Z</time>
      </trkpt>
      <trkpt lat="37.408844" lon="-122.154377">
        <ele>51.7</ele>
        <time>2015-02-16T18:16:26Z</time>
      </trkpt>
      <trkpt lat="37.408874" lon="-122.154338">
        <ele>51.4</ele>
        <time>2015-02-16T18:16:28Z</time>
      </trkpt>
      <trkpt lat="37.408904" lon="-122.154306">
        <ele>51.2</ele>
        <time>2015-02-16T18:16:31Z</time>
      </trkpt>
      <trkpt lat="37.408932" lon="-122.154275">
        <ele>51</ele>
        <time>2015-02-16T18:16:32Z</time>
      </trkpt>
      <trkpt lat="37.408956" lon="-122.154232">
        <ele>50.8</ele>
        <time>2015-02-16T18:16:34Z</time>
      </trkpt>
      <trkpt lat="37.408973" lon="-122.154204">
        <ele>50.8</ele>
        <time>2015-02-16T18:16:35Z</time>
      </trkpt>
      <trkpt lat="37.409014" lon="-122.154153">
        <ele>50.6</ele>
        <time>2015-02-16T18:16:37Z</time>
      </trkpt>
      <trkpt lat="37.409037" lon="-122.154128">
        <ele>50.4</ele>
        <time>2015-02-16T18:16:38Z</time>
      </trkpt>
      <trkpt lat="37.409077" lon="-122.154093">
        <ele>49.9</ele>
        <time>2015-02-16T18:16:41Z</time>
      </trkpt>
      <trkpt lat="37.409112" lon="-122.154065">
        <ele>49.6</ele>
        <time>2015-02-16T18:16:43Z</time>
      </trkpt>
      <trkpt lat="37.409137" lon="-122.154047">
        <ele>49.6</ele>
        <time>2015-02-16T18:16:45Z</time>
      </trkpt>
      <trkpt lat="37.409161" lon="-122.154031">
        <ele>49.5</ele>
        <time>2015-02-16T18:16:46Z</time>
      </trkpt>
      <trkpt lat="37.4092" lon="-122.154002">
        <ele>49.2</ele>
        <time>2015-02-16T18:16:47Z</time>
      </trkpt>
      <trkpt lat="37.409231" lon="-122.153974">
        <ele>48.9</ele>
        <time>2015-02-16T18:16:50Z</time>
      </trkpt>
      <trkpt lat="37.409285" lon="-122.153921">
        <ele>48.5</ele>
        <time>2015-02-16T18:16:52Z</time>
      </trkpt>
      <trkpt lat="37.409301" lon="-122.153901">
        <ele>48.3</ele>
        <time>2015-02-16T18:16:53Z</time>
      </trkpt>
      <trkpt lat="37.409342" lon="-122.153872">
        <ele>47.9</ele>
        <time>2015-02-16T18:16:55Z</time>
      </trkpt>
      <trkpt lat="37.409388" lon="-122.153864">
        <ele>47.2</ele>
        <time>2015-02-16T18:16:57Z</time>
      </trkpt>
      <trkpt lat="37.409417" lon="-122.153852">
        <ele>47.1</ele>
        <time>2015-02-16T18:16:59Z</time>
      </trkpt>
      <trkpt lat="37.409432" lon="-122.153805">
        <ele>47.2</ele>
        <time>2015-02-16T18:17:01Z</time>
      </trkpt>
      <trkpt lat="37.40946" lon="-122.153755">
        <ele>47</ele>
        <time>2015-02-16T18:17:03Z</time>
      </trkpt>
      <trkpt lat="37.409489" lon="-122.153726">
        <ele>46.9</ele>
        <time>2015-02-16T18:17:05Z</time>
      </trkpt>
      <trkpt lat="37.409527" lon="-122.153708">
        <ele>46.4</ele>
        <time>2015-02-16T18:17:07Z</time>
      </trkpt>
      <trkpt lat="37.409555" lon="-122.153699">
        <ele>46</ele>
        <time>2015-02-16T18:17:08Z</time>
      </trkpt>
      <trkpt lat="37.409583" lon="-122.15369">
        <ele>46</ele>
        <time>2015-02-16T18:17:09Z</time>
      </trkpt>
      <trkpt lat="37.409617" lon="-122.153661">
        <ele>45.9</ele>
        <time>2015-02-16T18:17:11Z</time>
      </trkpt>
      <trkpt lat="37.409638" lon="-122.153627">
        <ele>46</ele>
        <time>2015-02-16T18:17:13Z</time>
      </trkpt>
      <trkpt lat="37.409668" lon="-122.153592">
        <ele>45.7</ele>
        <time>2015-02-16T18:17:15Z</time>
      </trkpt>
      <trkpt lat="37.409696" lon="-122.153577">
        <ele>45.5</ele>
        <time>2015-02-16T18:17:16Z</time>
      </trkpt>
      <trkpt lat="37.409725" lon="-122.153567">
        <ele>45.3</ele>
        <time>2015-02-16T18:17:17Z</time>
      </trkpt>
      <trkpt lat="37.409752" lon="-122.153558">
        <ele>45.2</ele>
        <time>2015-02-16T18:17:18Z</time>
      </trkpt>
      <trkpt lat="37.409796" lon="-122.15353">
        <ele>44.8</ele>
        <time>2015-02-16T18:17:20Z</time>
      </trkpt>
      <trkpt lat="37.409829" lon="-122.153499">
        <ele>44.4</ele>
        <time>2015-02-16T18:17:23Z</time>
      </trkpt>
      <trkpt lat="37.409847" lon="-122.153464">
        <ele>44.2</ele>
        <time>2015-02-16T18:17:24Z</time>
      </trkpt>
      <trkpt lat="37.409859" lon="-122.153426">
        <ele>44</ele>
        <time>2015-02-16T18:17:25Z</time>
      </trkpt>
      <trkpt lat="37.409869" lon="-122.15339">
        <ele>43.9</ele>
        <time>2015-02-16T18:17:27Z</time>
      </trkpt>
      <trkpt lat="37.409884" lon="-122.153351">
        <ele>43.9</ele>
        <time>2015-02-16T18:17:28Z</time>
      </trkpt>
      <trkpt lat="37.409921" lon="-122.153324">
        <ele>43.5</ele>
        <time>2015-02-16T18:17:31Z</time>
      </trkpt>
      <trkpt lat="37.409967" lon="-122.153315">
        <ele>43.3</ele>
        <time>2015-02-16T18:17:32Z</time>
      </trkpt>
      <trkpt lat="37.410007" lon="-122.153306">
        <ele>43.1</ele>
        <time>2015-02-16T18:17:35Z</time>
      </trkpt>
      <trkpt lat="37.410042" lon="-122.153278">
        <ele>42.7</ele>
        <time>2015-02-16T18:17:36Z</time>
      </trkpt>
      <trkpt lat="37.410066" lon="-122.153259">
        <ele>42.4</ele>
        <time>2015-02-16T18:17:38Z</time>
      </trkpt>
      <trkpt lat="37.410099" lon="-122.153239">
        <ele>42.3</ele>
        <time>2015-02-16T18:17:40Z</time>
      </trkpt>
      <trkpt lat="37.410129" lon="-122.15324">
        <ele>42.2</ele>
        <time>2015-02-16T18:17:42Z</time>
      </trkpt>
      <trkpt lat="37.410167" lon="-122.153234">
        <ele>42</ele>
        <time>2015-02-16T18:17:44Z</time>
      </trkpt>
      <trkpt lat="37.41019" lon="-122.153212">
        <ele>41.8</ele>
        <time>2015-02-16T18:17:46Z</time>
      </trkpt>
      <trkpt lat="37.410225" lon="-122.153192">
        <ele>41.5</ele>
        <time>2015-02-16T18:17:48Z</time>
      </trkpt>
      <trkpt lat="37.410264" lon="-122.153186">
        <ele>41.3</ele>
        <time>2015-02-16T18:17:49Z</time>
      </trkpt>
      <trkpt lat="37.410315" lon="-122.153179">
        <ele>41.1</ele>
        <time>2015-02-16T18:17:51Z</time>
      </trkpt>
      <trkpt lat="37.41036" lon="-122.153167">
        <ele>41.1</ele>
        <time>2015-02-16T18:17:53Z</time>
      </trkpt>
      <trkpt lat="37.410407" lon="-122.153141">
        <ele>40.7</ele>
        <time>2015-02-16T18:17:55Z</time>
      </trkpt>
      <trkpt lat="37.410441" lon="-122.1531">
        <ele>40.5</ele>
        <time>2015-02-16T18:17:57Z</time>
      </trkpt>
      <trkpt lat="37.41047" lon="-122.15307">
        <ele>40.2</ele>
        <time>2015-02-16T18:17:59Z</time>
      </trkpt>
      <trkpt lat="37.410504" lon="-122.15304">
        <ele>40</ele>
        <time>2015-02-16T18:18:01Z</time>
      </trkpt>
      <trkpt lat="37.410573" lon="-122.152986">
        <ele>39.7</ele>
        <time>2015-02-16T18:18:04Z</time>
      </trkpt>
      <trkpt lat="37.410603" lon="-122.15297">
        <ele>39.6</ele>
        <time>2015-02-16T18:18:07Z</time>
      </trkpt>
      <trkpt lat="37.410632" lon="-122.152954">
        <ele>39.4</ele>
        <time>2015-02-16T18:18:08Z</time>
      </trkpt>
      <trkpt lat="37.410667" lon="-122.152924">
        <ele>39.2</ele>
        <time>2015-02-16T18:18:10Z</time>
      </trkpt>
      <trkpt lat="37.410684" lon="-122.152885">
        <ele>39.2</ele>
        <time>2015-02-16T18:18:11Z</time>
      </trkpt>
      <trkpt lat="37.410748" lon="-122.152822">
        <ele>39.1</ele>
        <time>2015-02-16T18:18:14Z</time>
      </trkpt>
      <trkpt lat="37.410787" lon="-122.152774">
        <ele>39.2</ele>
        <time>2015-02-16T18:18:17Z</time>
      </trkpt>
      <trkpt lat="37.410839" lon="-122.15272">
        <ele>39.5</ele>
        <time>2015-02-16T18:18:19Z</time>
      </trkpt>
      <trkpt lat="37.410853" lon="-122.152704">
        <ele>39.7</ele>
        <time>2015-02-16T18:18:21Z</time>
      </trkpt>
      <trkpt lat="37.410887" lon="-122.152648">
        <ele>40</ele>
        <time>2015-02-16T18:18:23Z</time>
      </trkpt>
      <trkpt lat="37.410903" lon="-122.15263">
        <ele>40</ele>
        <time>2015-02-16T18:18:24Z</time>
      </trkpt>
      <trkpt lat="37.410942" lon="-122.152601">
        <ele>39.7</ele>
        <time>2015-02-16T18:18:27Z</time>
      </trkpt>
      <trkpt lat="37.410974" lon="-122.152578">
        <ele>39.5</ele>
        <time>2015-02-16T18:18:28Z</time>
      </trkpt>
      <trkpt lat="37.411001" lon="-122.152549">
        <ele>39.3</ele>
        <time>2015-02-16T18:18:30Z</time>
      </trkpt>
      <trkpt lat="37.411075" lon="-122.152506">
        <ele>39.1</ele>
        <time>2015-02-16T18:18:33Z</time>
      </trkpt>
      <trkpt lat="37.411101" lon="-122.152492">
        <ele>39.1</ele>
        <time>2015-02-16T18:18:34Z</time>
      </trkpt>
      <trkpt lat="37.411143" lon="-122.152457">
        <ele>39.1</ele>
        <time>2015-02-16T18:18:37Z</time>
      </trkpt>
      <trkpt lat="37.411182" lon="-122.152428">
        <ele>39.2</ele>
        <time>2015-02-16T18:18:38Z</time>
      </trkpt>
      <trkpt lat="37.411202" lon="-122.152381">
        <ele>39.3</ele>
        <time>2015-02-16T18:18:41Z</time>
      </trkpt>
      <trkpt lat="37.411226" lon="-122.152344">
        <ele>39.2</ele>
        <time>2015-02-16T18:18:44Z</time>
      </trkpt>
      <trkpt lat="37.411286" lon="-122.152304">
        <ele>39.1</ele>
        <time>2015-02-16T18:18:46Z</time>
      </trkpt>
      <trkpt lat="37.411308" lon="-122.152282">
        <ele>39.2</ele>
        <time>2015-02-16T18:18:48Z</time>
      </trkpt>
      <trkpt lat="37.411339" lon="-122.152253">
        <ele>39</ele>
        <time>2015-02-16T18:18:49Z</time>
      </trkpt>
      <trkpt lat="37.411365" lon="-122.152227">
        <ele>39.2</ele>
        <time>2015-02-16T18:18:50Z</time>
      </trkpt>
      <trkpt lat="37.411414" lon="-122.152176">
        <ele>39.4</ele>
        <time>2015-02-16T18:18:51Z</time>
      </trkpt>
      <trkpt lat="37.411454" lon="-122.152143">
        <ele>39.4</ele>
        <time>2015-02-16T18:18:53Z</time>
      </trkpt>
      <trkpt lat="37.411497" lon="-122.152131">
        <ele>39.2</ele>
        <time>2015-02-16T18:18:56Z</time>
      </trkpt>
      <trkpt lat="37.411516" lon="-122.152121">
        <ele>39.3</ele>
        <time>2015-02-16T18:18:57Z</time>
      </trkpt>
      <trkpt lat="37.411571" lon="-122.15208">
        <ele>39.4</ele>
        <time>2015-02-16T18:18:59Z</time>
      </trkpt>
      <trkpt lat="37.411599" lon="-122.152058">
        <ele>39.5</ele>
        <time>2015-02-16T18:19:00Z</time>
      </trkpt>
      <trkpt lat="37.411648" lon="-122.152035">
        <ele>39.4</ele>
        <time>2015-02-16T18:19:03Z</time>
      </trkpt>
      <trkpt lat="37.411679" lon="-122.152029">
        <ele>39.4</ele>
        <time>2015-02-16T18:19:04Z</time>
      </trkpt>
      <trkpt lat="37.41174" lon="-122.152012">
        <ele>39.3</ele>
        <time>2015-02-16T18:19:05Z</time>
      </trkpt>
      <trkpt lat="37.411782" lon="-122.151979">
        <ele>39.2</ele>
        <time>2015-02-16T18:19:07Z</time>
      </trkpt>
      <trkpt lat="37.411816" lon="-122.151951">
        <ele>39.2</ele>
        <time>2015-02-16T18:19:09Z</time>
      </trkpt>
      <trkpt lat="37.411847" lon="-122.151921">
        <ele>39.3</ele>
        <time>2015-02-16T18:19:12Z</time>
      </trkpt>
      <trkpt lat="37.411874" lon="-122.151886">
        <ele>39.4</ele>
        <time>2015-02-16T18:19:14Z</time>
      </trkpt>
      <trkpt lat="37.411911" lon="-122.151878">
        <ele>39.3</ele>
        <time>2015-02-16T18:19:17Z</time>
      </trkpt>
      <trkpt lat="37.411947" lon="-122.151883">
        <ele>39.4</ele>
        <time>2015-02-16T18:19:18Z</time>
      </trkpt>
      <trkpt lat="37.41198" lon="-122.151895">
        <ele>39.5</ele>
        <time>2015-02-16T18:19:20Z</time>
      </trkpt>
      <trkpt lat="37.412014" lon="-122.151907">
        <ele>39.5</ele>
        <time>2015-02-16T18:19:22Z</time>
      </trkpt>
      <trkpt lat="37.412053" lon="-122.151908">
        <ele>39.4</ele>
        <time>2015-02-16T18:19:26Z</time>
      </trkpt>
      <trkpt lat="37.41208" lon="-122.151911">
        <ele>39.4</ele>
        <time>2015-02-16T18:19:27Z</time>
      </trkpt>
      <trkpt lat="37.412123" lon="-122.151914">
        <ele>39.3</ele>
        <time>2015-02-16T18:19:31Z</time>
      </trkpt>
      <trkpt lat="37.412161" lon="-122.15194">
        <ele>39.2</ele>
        <time>2015-02-16T18:19:32Z</time>
      </trkpt>
      <trkpt lat="37.412191" lon="-122.151958">
        <ele>39.2</ele>
        <time>2015-02-16T18:19:35Z</time>
      </trkpt>
      <trkpt lat="37.412233" lon="-122.151979">
        <ele>39</ele>
        <time>2015-02-16T18:19:37Z</time>
      </trkpt>
      <trkpt lat="37.412251" lon="-122.151992">
        <ele>39</ele>
        <time>2015-02-16T18:19:39Z</time>
      </trkpt>
      <trkpt lat="37.412306" lon="-122.152029">
        <ele>38.9</ele>
        <time>2015-02-16T18:19:41Z</time>
      </trkpt>
      <trkpt lat="37.412321" lon="-122.15205">
        <ele>38.9</ele>
        <time>2015-02-16T18:19:43Z</time>
      </trkpt>
      <trkpt lat="37.412353" lon="-122.152105">
        <ele>38.9</ele>
        <time>2015-02-16T18:19:45Z</time>
      </trkpt>
      <trkpt lat="37.412375" lon="-122.152139">
        <ele>39</ele>
        <time>2015-02-16T18:19:46Z</time>
      </trkpt>
      <trkpt lat="37.412398" lon="-122.152169">
        <ele>39</ele>
        <time>2015-02-16T18:19:49Z</time>
      </trkpt>
      <trkpt lat="37.412419" lon="-122.152208">
        <ele>39.1</ele>
        <time>2015-02-16T18:19:50Z</time>
      </trkpt>
      <trkpt lat="37.41244" lon="-122.152263">
        <ele>39.1</ele>
        <time>2015-02-16T18:19:52Z</time>
      </trkpt>
      <trkpt lat="37.41248" lon="-122.152341">
        <ele>39.1</ele>
        <time>2015-02-16T18:19:55Z</time>
      </trkpt>
      <trkpt lat="37.412491" lon="-122.152366">
        <ele>39.1</ele>
        <time>2015-02-16T18:19:56Z</time>
      </trkpt>
      <trkpt lat="37.412519" lon="-122.152408">
        <ele>39.2</ele>
        <time>2015-02-16T18:19:59Z</time>
      </trkpt>
      <trkpt lat="37.412539" lon="-122.152437">
        <ele>39.3</ele>
        <time>2015-02-16T18:20:00Z</time>
      </trkpt>
      <trkpt lat="37.412559" lon="-122.152475">
        <ele>39.3</ele>
        <time>2015-02-16T18:20:02Z</time>
      </trkpt>
      <trkpt lat="37.412585" lon="-122.152506">
        <ele>39.3</ele>
        <time>2015-02-16T18:20:04Z</time>
      </trkpt>
      <trkpt lat="37.412612" lon="-122.152548">
        <ele>39.4</ele>
        <time>2015-02-16T18:20:06Z</time>
      </trkpt>
      <trkpt lat="37.412648" lon="-122.152615">
        <ele>39.5</ele>
        <time>2015-02-16T18:20:09Z</time>
      </trkpt>
      <trkpt lat="37.412656" lon="-122.152629">
        <ele>39.5</ele>
        <time>2015-02-16T18:20:10Z</time>
      </trkpt>
      <trkpt lat="37.412684" lon="-122.152717">
        <ele>39.7</ele>
        <time>2015-02-16T18:20:13Z</time>
      </trkpt>
      <trkpt lat="37.412708" lon="-122.152772">
        <ele>39.7</ele>
        <time>2015-02-16T18:20:16Z</time>
      </trkpt>
      <trkpt lat="37.412742" lon="-122.152846">
        <ele>39.9</ele>
        <time>2015-02-16T18:20:18Z</time>
      </trkpt>
      <trkpt lat="37.41275" lon="-122.152855">
        <ele>39.9</ele>
        <time>2015-02-16T18:20:19Z</time>
      </trkpt>
      <trkpt lat="37.412812" lon="-122.152907">
        <ele>39.9</ele>
        <time>2015-02-16T18:20:22Z</time>
      </trkpt>
      <trkpt lat="37.412822" lon="-122.152916">
        <ele>39.9</ele>
        <time>2015-02-16T18:20:23Z</time>
      </trkpt>
      <trkpt lat="37.412852" lon="-122.152949">
        <ele>39.9</ele>
        <time>2015-02-16T18:20:26Z</time>
      </trkpt>
      <trkpt lat="37.412877" lon="-122.152989">
        <ele>40</ele>
        <time>2015-02-16T18:20:27Z</time>
      </trkpt>
      <trkpt lat="37.412906" lon="-122.153022">
        <ele>40.1</ele>
        <time>2015-02-16T18:20:30Z</time>
      </trkpt>
      <trkpt lat="37.412954" lon="-122.153052">
        <ele>40.1</ele>
        <time>2015-02-16T18:20:32Z</time>
      </trkpt>
      <trkpt lat="37.412968" lon="-122.153064">
        <ele>40.1</ele>
        <time>2015-02-16T18:20:33Z</time>
      </trkpt>
      <trkpt lat="37.413007" lon="-122.153096">
        <ele>40.1</ele>
        <time>2015-02-16T18:20:35Z</time>
      </trkpt>
      <trkpt lat="37.413029" lon="-122.153118">
        <ele>40.2</ele>
        <time>2015-02-16T18:20:36Z</time>
      </trkpt>
      <trkpt lat="37.413051" lon="-122.153146">
        <ele>40.2</ele>
        <time>2015-02-16T18:20:37Z</time>
      </trkpt>
      <trkpt lat="37.41307" lon="-122.153171">
        <ele>40.3</ele>
        <time>2015-02-16T18:20:38Z</time>
      </trkpt>
      <trkpt lat="37.413127" lon="-122.153228">
        <ele>40.3</ele>
        <time>2015-02-16T18:20:41Z</time>
      </trkpt>
      <trkpt lat="37.413149" lon="-122.153247">
        <ele>40.4</ele>
        <time>2015-02-16T18:20:42Z</time>
      </trkpt>
      <trkpt lat="37.413171" lon="-122.153268">
        <ele>40.4</ele>
        <time>2015-02-16T18:20:43Z</time>
      </trkpt>
      <trkpt lat="37.413192" lon="-122.153294">
        <ele>40.4</ele>
        <time>2015-02-16T18:20:44Z</time>
      </trkpt>
      <trkpt lat="37.413214" lon="-122.153316">
        <ele>40.4</ele>
        <time>2015-02-16T18:20:45Z</time>
      </trkpt>
      <trkpt lat="37.41327" lon="-122.153386">
        <ele>40.6</ele>
        <time>2015-02-16T18:20:49Z</time>
      </trkpt>
      <trkpt lat="37.413283" lon="-122.153407">
        <ele>40.7</ele>
        <time>2015-02-16T18:20:50Z</time>
      </trkpt>
      <trkpt lat="37.413318" lon="-122.153444">
        <ele>40.6</ele>
        <time>2015-02-16T18:20:52Z</time>
      </trkpt>
      <trkpt lat="37.413377" lon="-122.153486">
        <ele>40.6</ele>
        <time>2015-02-16T18:20:54Z</time>
      </trkpt>
      <trkpt lat="37.413391" lon="-122.153497">
        <ele>40.6</ele>
        <time>2015-02-16T18:20:55Z</time>
      </trkpt>
      <trkpt lat="37.413444" lon="-122.153535">
        <ele>40.7</ele>
        <time>2015-02-16T18:20:58Z</time>
      </trkpt>
      <trkpt lat="37.413466" lon="-122.153549">
        <ele>40.7</ele>
        <time>2015-02-16T18:20:59Z</time>
      </trkpt>
      <trkpt lat="37.413506" lon="-122.153569">
        <ele>40.8</ele>
        <time>2015-02-16T18:21:03Z</time>
      </trkpt>
      <trkpt lat="37.41355" lon="-122.153567">
        <ele>40.8</ele>
        <time>2015-02-16T18:21:04Z</time>
      </trkpt>
      <trkpt lat="37.41358" lon="-122.15356">
        <ele>40.9</ele>
        <time>2015-02-16T18:21:07Z</time>
      </trkpt>
      <trkpt lat="37.413609" lon="-122.153554">
        <ele>40.9</ele>
        <time>2015-02-16T18:21:08Z</time>
      </trkpt>
      <trkpt lat="37.413659" lon="-122.153552">
        <ele>41</ele>
        <time>2015-02-16T18:21:11Z</time>
      </trkpt>
      <trkpt lat="37.413703" lon="-122.153573">
        <ele>41</ele>
        <time>2015-02-16T18:21:13Z</time>
      </trkpt>
      <trkpt lat="37.413728" lon="-122.153586">
        <ele>41</ele>
        <time>2015-02-16T18:21:16Z</time>
      </trkpt>
      <trkpt lat="37.413773" lon="-122.153611">
        <ele>41.1</ele>
        <time>2015-02-16T18:21:17Z</time>
      </trkpt>
      <trkpt lat="37.413803" lon="-122.153631">
        <ele>41.1</ele>
        <time>2015-02-16T18:21:18Z</time>
      </trkpt>
      <trkpt lat="37.41383" lon="-122.15365">
        <ele>41</ele>
        <time>2015-02-16T18:21:19Z</time>
      </trkpt>
      <trkpt lat="37.413854" lon="-122.153665">
        <ele>41</ele>
        <time>2015-02-16T18:21:20Z</time>
      </trkpt>
      <trkpt lat="37.413896" lon="-122.153681">
        <ele>41</ele>
        <time>2015-02-16T18:21:22Z</time>
      </trkpt>
      <trkpt lat="37.413939" lon="-122.1537">
        <ele>40.9</ele>
        <time>2015-02-16T18:21:24Z</time>
      </trkpt>
      <trkpt lat="37.413985" lon="-122.153717">
        <ele>40.9</ele>
        <time>2015-02-16T18:21:26Z</time>
      </trkpt>
      <trkpt lat="37.414033" lon="-122.153731">
        <ele>40.8</ele>
        <time>2015-02-16T18:21:28Z</time>
      </trkpt>
      <trkpt lat="37.414074" lon="-122.153745">
        <ele>40.8</ele>
        <time>2015-02-16T18:21:30Z</time>
      </trkpt>
      <trkpt lat="37.414116" lon="-122.153761">
        <ele>40.8</ele>
        <time>2015-02-16T18:21:32Z</time>
      </trkpt>
      <trkpt lat="37.414156" lon="-122.153778">
        <ele>40.8</ele>
        <time>2015-02-16T18:21:34Z</time>
      </trkpt>
      <trkpt lat="37.414193" lon="-122.15379">
        <ele>40.7</ele>
        <time>2015-02-16T18:21:36Z</time>
      </trkpt>
      <trkpt lat="37.41423" lon="-122.153806">
        <ele>40.7</ele>
        <time>2015-02-16T18:21:38Z</time>
      </trkpt>
      <trkpt lat="37.414276" lon="-122.15381">
        <ele>40.6</ele>
        <time>2015-02-16T18:21:40Z</time>
      </trkpt>
      <trkpt lat="37.41431" lon="-122.153778">
        <ele>40.5</ele>
        <time>2015-02-16T18:21:43Z</time>
      </trkpt>
      <trkpt lat="37.414339" lon="-122.153703">
        <ele>41.3</ele>
        <time>2015-02-16T18:21:45Z</time>
      </trkpt>
      <trkpt lat="37.41435" lon="-122.153673">
        <ele>41.7</ele>
        <time>2015-02-16T18:21:46Z</time>
      </trkpt>
      <trkpt lat="37.41439" lon="-122.153608">
        <ele>42.7</ele>
        <time>2015-02-16T18:21:49Z</time>
      </trkpt>
      <trkpt lat="37.41441" lon="-122.153593">
        <ele>42.9</ele>
        <time>2015-02-16T18:21:51Z</time>
      </trkpt>
      <trkpt lat="37.414437" lon="-122.153561">
        <ele>43.4</ele>
        <time>2015-02-16T18:21:53Z</time>
      </trkpt>
      <trkpt lat="37.414492" lon="-122.153511">
        <ele>44.3</ele>
        <time>2015-02-16T18:21:54Z</time>
      </trkpt>
      <trkpt lat="37.41453" lon="-122.153481">
        <ele>44.4</ele>
        <time>2015-02-16T18:21:57Z</time>
      </trkpt>
      <trkpt lat="37.414562" lon="-122.153466">
        <ele>44.3</ele>
        <time>2015-02-16T18:21:58Z</time>
      </trkpt>
      <trkpt lat="37.414598" lon="-122.153466">
        <ele>44.2</ele>
        <time>2015-02-16T18:22:00Z</time>
      </trkpt>
      <trkpt lat="37.414629" lon="-122.153504">
        <ele>43.9</ele>
        <time>2015-02-16T18:22:03Z</time>
      </trkpt>
      <trkpt lat="37.414661" lon="-122.153532">
        <ele>43.6</ele>
        <time>2015-02-16T18:22:05Z</time>
      </trkpt>
      <trkpt lat="37.414696" lon="-122.153557">
        <ele>43.4</ele>
        <time>2015-02-16T18:22:07Z</time>
      </trkpt>
      <trkpt lat="37.414731" lon="-122.153574">
        <ele>43.2</ele>
        <time>2015-02-16T18:22:09Z</time>
      </trkpt>
      <trkpt lat="37.414768" lon="-122.153586">
        <ele>43</ele>
        <time>2015-02-16T18:22:11Z</time>
      </trkpt>
      <trkpt lat="37.414798" lon="-122.153602">
        <ele>42.9</ele>
        <time>2015-02-16T18:22:14Z</time>
      </trkpt>
      <trkpt lat="37.414831" lon="-122.153608">
        <ele>42.8</ele>
        <time>2015-02-16T18:22:15Z</time>
      </trkpt>
      <trkpt lat="37.414869" lon="-122.15361">
        <ele>42.6</ele>
        <time>2015-02-16T18:22:17Z</time>
      </trkpt>
      <trkpt lat="37.414909" lon="-122.15362">
        <ele>42.3</ele>
        <time>2015-02-16T18:22:20Z</time>
      </trkpt>
      <trkpt lat="37.414955" lon="-122.153623">
        <ele>41.8</ele>
        <time>2015-02-16T18:22:21Z</time>
      </trkpt>
      <trkpt lat="37.414999" lon="-122.153614">
        <ele>41.6</ele>
        <time>2015-02-16T18:22:24Z</time>
      </trkpt>
      <trkpt lat="37.415067" lon="-122.153602">
        <ele>41.4</ele>
        <time>2015-02-16T18:22:26Z</time>
      </trkpt>
      <trkpt lat="37.415089" lon="-122.153601">
        <ele>41.3</ele>
        <time>2015-02-16T18:22:27Z</time>
      </trkpt>
      <trkpt lat="37.415157" lon="-122.1536">
        <ele>41</ele>
        <time>2015-02-16T18:22:30Z</time>
      </trkpt>
      <trkpt lat="37.415179" lon="-122.153596">
        <ele>40.9</ele>
        <time>2015-02-16T18:22:32Z</time>
      </trkpt>
      <trkpt lat="37.415214" lon="-122.153586">
        <ele>41</ele>
        <time>2015-02-16T18:22:34Z</time>
      </trkpt>
      <trkpt lat="37.415253" lon="-122.153574">
        <ele>41.1</ele>
        <time>2015-02-16T18:22:36Z</time>
      </trkpt>
      <trkpt lat="37.415319" lon="-122.153583">
        <ele>41</ele>
        <time>2015-02-16T18:22:38Z</time>
      </trkpt>
      <trkpt lat="37.415354" lon="-122.153596">
        <ele>41</ele>
        <time>2015-02-16T18:22:41Z</time>
      </trkpt>
      <trkpt lat="37.41539" lon="-122.153609">
        <ele>40.9</ele>
        <time>2015-02-16T18:22:42Z</time>
      </trkpt>
      <trkpt lat="37.415427" lon="-122.153639">
        <ele>40.6</ele>
        <time>2015-02-16T18:22:44Z</time>
      </trkpt>
      <trkpt lat="37.415468" lon="-122.153646">
        <ele>40.6</ele>
        <time>2015-02-16T18:22:46Z</time>
      </trkpt>
      <trkpt lat="37.4155" lon="-122.153633">
        <ele>40.9</ele>
        <time>2015-02-16T18:22:49Z</time>
      </trkpt>
      <trkpt lat="37.415528" lon="-122.153651">
        <ele>40.6</ele>
        <time>2015-02-16T18:22:51Z</time>
      </trkpt>
      <trkpt lat="37.41556" lon="-122.15366">
        <ele>40.4</ele>
        <time>2015-02-16T18:22:53Z</time>
      </trkpt>
      <trkpt lat="37.415591" lon="-122.153646">
        <ele>40.9</ele>
        <time>2015-02-16T18:22:55Z</time>
      </trkpt>
      <trkpt lat="37.415611" lon="-122.153622">
        <ele>41.4</ele>
        <time>2015-02-16T18:22:56Z</time>
      </trkpt>
      <trkpt lat="37.415643" lon="-122.153593">
        <ele>41.5</ele>
        <time>2015-02-16T18:22:58Z</time>
      </trkpt>
      <trkpt lat="37.415679" lon="-122.153575">
        <ele>41.5</ele>
        <time>2015-02-16T18:23:01Z</time>
      </trkpt>
      <trkpt lat="37.415724" lon="-122.153578">
        <ele>41.3</ele>
        <time>2015-02-16T18:23:02Z</time>
      </trkpt>
      <trkpt lat="37.415758" lon="-122.153587">
        <ele>41.3</ele>
        <time>2015-02-16T18:23:04Z</time>
      </trkpt>
      <trkpt lat="37.415796" lon="-122.153591">
        <ele>41</ele>
        <time>2015-02-16T18:23:05Z</time>
      </trkpt>
      <trkpt lat="37.415829" lon="-122.153597">
        <ele>40.7</ele>
        <time>2015-02-16T18:23:06Z</time>
      </trkpt>
      <trkpt lat="37.415881" lon="-122.153626">
        <ele>40.3</ele>
        <time>2015-02-16T18:23:07Z</time>
      </trkpt>
      <trkpt lat="37.415913" lon="-122.153667">
        <ele>40</ele>
        <time>2015-02-16T18:23:10Z</time>
      </trkpt>
      <trkpt lat="37.415933" lon="-122.153695">
        <ele>39.8</ele>
        <time>2015-02-16T18:23:11Z</time>
      </trkpt>
      <trkpt lat="37.415971" lon="-122.153748">
        <ele>39.3</ele>
        <time>2015-02-16T18:23:12Z</time>
      </trkpt>
      <trkpt lat="37.415985" lon="-122.153764">
        <ele>39.2</ele>
        <time>2015-02-16T18:23:14Z</time>
      </trkpt>
      <trkpt lat="37.416034" lon="-122.153791">
        <ele>38.6</ele>
        <time>2015-02-16T18:23:16Z</time>
      </trkpt>
      <trkpt lat="37.416051" lon="-122.153809">
        <ele>38.6</ele>
        <time>2015-02-16T18:23:18Z</time>
      </trkpt>
      <trkpt lat="37.416086" lon="-122.153851">
        <ele>38.4</ele>
        <time>2015-02-16T18:23:20Z</time>
      </trkpt>
      <trkpt lat="37.416127" lon="-122.153877">
        <ele>38</ele>
        <time>2015-02-16T18:23:21Z</time>
      </trkpt>
      <trkpt lat="37.416189" lon="-122.153931">
        <ele>37.8</ele>
        <time>2015-02-16T18:23:24Z</time>
      </trkpt>
      <trkpt lat="37.41621" lon="-122.153955">
        <ele>37.7</ele>
        <time>2015-02-16T18:23:25Z</time>
      </trkpt>
      <trkpt lat="37.416245" lon="-122.153991">
        <ele>37.4</ele>
        <time>2015-02-16T18:23:27Z</time>
      </trkpt>
      <trkpt lat="37.41627" lon="-122.154019">
        <ele>37</ele>
        <time>2015-02-16T18:23:30Z</time>
      </trkpt>
      <trkpt lat="37.416271" lon="-122.154059">
        <ele>37.4</ele>
        <time>2015-02-16T18:23:33Z</time>
      </trkpt>
      <trkpt lat="37.416288" lon="-122.154107">
        <ele>37.5</ele>
        <time>2015-02-16T18:23:35Z</time>
      </trkpt>
      <trkpt lat="37.416322" lon="-122.154155">
        <ele>37.3</ele>
        <time>2015-02-16T18:23:37Z</time>
      </trkpt>
      <trkpt lat="37.416358" lon="-122.154203">
        <ele>37</ele>
        <time>2015-02-16T18:23:39Z</time>
      </trkpt>
      <trkpt lat="37.416378" lon="-122.154231">
        <ele>36.9</ele>
        <time>2015-02-16T18:23:40Z</time>
      </trkpt>
      <trkpt lat="37.416397" lon="-122.154258">
        <ele>36.6</ele>
        <time>2015-02-16T18:23:41Z</time>
      </trkpt>
      <trkpt lat="37.416425" lon="-122.154304">
        <ele>36.4</ele>
        <time>2015-02-16T18:23:43Z</time>
      </trkpt>
      <trkpt lat="37.41645" lon="-122.154347">
        <ele>35.9</ele>
        <time>2015-02-16T18:23:45Z</time>
      </trkpt>
      <trkpt lat="37.416479" lon="-122.154392">
        <ele>35.8</ele>
        <time>2015-02-16T18:23:47Z</time>
      </trkpt>
      <trkpt lat="37.416508" lon="-122.154436">
        <ele>35.5</ele>
        <time>2015-02-16T18:23:49Z</time>
      </trkpt>
      <trkpt lat="37.416534" lon="-122.154471">
        <ele>35</ele>
        <time>2015-02-16T18:23:51Z</time>
      </trkpt>
      <trkpt lat="37.416555" lon="-122.154511">
        <ele>34.8</ele>
        <time>2015-02-16T18:23:53Z</time>
      </trkpt>
      <trkpt lat="37.416578" lon="-122.154562">
        <ele>34.8</ele>
        <time>2015-02-16T18:23:56Z</time>
      </trkpt>
      <trkpt lat="37.416592" lon="-122.154607">
        <ele>34.8</ele>
        <time>2015-02-16T18:23:57Z</time>
      </trkpt>
      <trkpt lat="37.416605" lon="-122.154648">
        <ele>34.9</ele>
        <time>2015-02-16T18:23:59Z</time>
      </trkpt>
      <trkpt lat="37.416635" lon="-122.154701">
        <ele>34.6</ele>
        <time>2015-02-16T18:24:02Z</time>
      </trkpt>
      <trkpt lat="37.416643" lon="-122.154715">
        <ele>34.5</ele>
        <time>2015-02-16T18:24:03Z</time>
      </trkpt>
      <trkpt lat="37.416657" lon="-122.154751">
        <ele>34.4</ele>
        <time>2015-02-16T18:24:05Z</time>
      </trkpt>
      <trkpt lat="37.41669" lon="-122.154807">
        <ele>34</ele>
        <time>2015-02-16T18:24:07Z</time>
      </trkpt>
      <trkpt lat="37.416733" lon="-122.154866">
        <ele>33.3</ele>
        <time>2015-02-16T18:24:11Z</time>
      </trkpt>
      <trkpt lat="37.416745" lon="-122.154884">
        <ele>33.2</ele>
        <time>2015-02-16T18:24:12Z</time>
      </trkpt>
      <trkpt lat="37.416777" lon="-122.154939">
        <ele>32.5</ele>
        <time>2015-02-16T18:24:15Z</time>
      </trkpt>
      <trkpt lat="37.416814" lon="-122.155015">
        <ele>31.9</ele>
        <time>2015-02-16T18:24:16Z</time>
      </trkpt>
      <trkpt lat="37.416822" lon="-122.155061">
        <ele>31.9</ele>
        <time>2015-02-16T18:24:19Z</time>
      </trkpt>
      <trkpt lat="37.416831" lon="-122.155098">
        <ele>31.9</ele>
        <time>2015-02-16T18:24:20Z</time>
      </trkpt>
      <trkpt lat="37.416854" lon="-122.155118">
        <ele>31.4</ele>
        <time>2015-02-16T18:24:22Z</time>
      </trkpt>
      <trkpt lat="37.41689" lon="-122.155154">
        <ele>30.4</ele>
        <time>2015-02-16T18:24:24Z</time>
      </trkpt>
      <trkpt lat="37.416916" lon="-122.155181">
        <ele>29.9</ele>
        <time>2015-02-16T18:24:27Z</time>
      </trkpt>
      <trkpt lat="37.416946" lon="-122.155232">
        <ele>29.3</ele>
        <time>2015-02-16T18:24:29Z</time>
      </trkpt>
      <trkpt lat="37.416957" lon="-122.155255">
        <ele>29.3</ele>
        <time>2015-02-16T18:24:31Z</time>
      </trkpt>
      <trkpt lat="37.416978" lon="-122.155302">
        <ele>29.3</ele>
        <time>2015-02-16T18:24:33Z</time>
      </trkpt>
      <trkpt lat="37.417" lon="-122.15537">
        <ele>29.1</ele>
        <time>2015-02-16T18:24:36Z</time>
      </trkpt>
      <trkpt lat="37.417014" lon="-122.155391">
        <ele>28.9</ele>
        <time>2015-02-16T18:24:37Z</time>
      </trkpt>
      <trkpt lat="37.417032" lon="-122.155429">
        <ele>28.9</ele>
        <time>2015-02-16T18:24:38Z</time>
      </trkpt>
      <trkpt lat="37.417043" lon="-122.155483">
        <ele>29</ele>
        <time>2015-02-16T18:24:41Z</time>
      </trkpt>
      <trkpt lat="37.417053" lon="-122.155567">
        <ele>29.1</ele>
        <time>2015-02-16T18:24:43Z</time>
      </trkpt>
      <trkpt lat="37.417058" lon="-122.155583">
        <ele>29.1</ele>
        <time>2015-02-16T18:24:44Z</time>
      </trkpt>
      <trkpt lat="37.417065" lon="-122.155622">
        <ele>29.2</ele>
        <time>2015-02-16T18:24:45Z</time>
      </trkpt>
      <trkpt lat="37.417073" lon="-122.155681">
        <ele>29.2</ele>
        <time>2015-02-16T18:24:47Z</time>
      </trkpt>
      <trkpt lat="37.417081" lon="-122.155742">
        <ele>29.4</ele>
        <time>2015-02-16T18:24:48Z</time>
      </trkpt>
      <trkpt lat="37.417088" lon="-122.155759">
        <ele>29.4</ele>
        <time>2015-02-16T18:24:49Z</time>
      </trkpt>
      <trkpt lat="37.417115" lon="-122.155823">
        <ele>29.2</ele>
        <time>2015-02-16T18:24:52Z</time>
      </trkpt>
      <trkpt lat="37.41712" lon="-122.15584">
        <ele>29.1</ele>
        <time>2015-02-16T18:24:53Z</time>
      </trkpt>
      <trkpt lat="37.417161" lon="-122.155852">
        <ele>28.4</ele>
        <time>2015-02-16T18:24:56Z</time>
      </trkpt>
      <trkpt lat="37.417185" lon="-122.155829">
        <ele>28.3</ele>
        <time>2015-02-16T18:24:58Z</time>
      </trkpt>
      <trkpt lat="37.417211" lon="-122.155876">
        <ele>28.3</ele>
        <time>2015-02-16T18:25:02Z</time>
      </trkpt>
      <trkpt lat="37.417224" lon="-122.155921">
        <ele>28.4</ele>
        <time>2015-02-16T18:25:05Z</time>
      </trkpt>
      <trkpt lat="37.417231" lon="-122.155976">
        <ele>28.5</ele>
        <time>2015-02-16T18:25:06Z</time>
      </trkpt>
      <trkpt lat="37.417238" lon="-122.156034">
        <ele>28.5</ele>
        <time>2015-02-16T18:25:08Z</time>
      </trkpt>
      <trkpt lat="37.41724" lon="-122.156073">
        <ele>28.6</ele>
        <time>2015-02-16T18:25:09Z</time>
      </trkpt>
      <trkpt lat="37.417245" lon="-122.156117">
        <ele>28.6</ele>
        <time>2015-02-16T18:25:10Z</time>
      </trkpt>
      <trkpt lat="37.41725" lon="-122.15616">
        <ele>28.8</ele>
        <time>2015-02-16T18:25:11Z</time>
      </trkpt>
      <trkpt lat="37.417254" lon="-122.156195">
        <ele>29</ele>
        <time>2015-02-16T18:25:13Z</time>
      </trkpt>
      <trkpt lat="37.417256" lon="-122.156236">
        <ele>29</ele>
        <time>2015-02-16T18:25:14Z</time>
      </trkpt>
      <trkpt lat="37.417259" lon="-122.156295">
        <ele>29</ele>
        <time>2015-02-16T18:25:15Z</time>
      </trkpt>
      <trkpt lat="37.417283" lon="-122.156317">
        <ele>28.7</ele>
        <time>2015-02-16T18:25:18Z</time>
      </trkpt>
      <trkpt lat="37.417326" lon="-122.156353">
        <ele>28.8</ele>
        <time>2015-02-16T18:25:20Z</time>
      </trkpt>
      <trkpt lat="37.417338" lon="-122.156364">
        <ele>28.9</ele>
        <time>2015-02-16T18:25:21Z</time>
      </trkpt>
      <trkpt lat="37.417366" lon="-122.156411">
        <ele>28.9</ele>
        <time>2015-02-16T18:25:24Z</time>
      </trkpt>
      <trkpt lat="37.41737" lon="-122.156467">
        <ele>28.9</ele>
        <time>2015-02-16T18:25:26Z</time>
      </trkpt>
      <trkpt lat="37.41735" lon="-122.156552">
        <ele>28.7</ele>
        <time>2015-02-16T18:25:29Z</time>
      </trkpt>
      <trkpt lat="37.417336" lon="-122.156597">
        <ele>28.5</ele>
        <time>2015-02-16T18:25:32Z</time>
      </trkpt>
      <trkpt lat="37.417323" lon="-122.156642">
        <ele>28.4</ele>
        <time>2015-02-16T18:25:33Z</time>
      </trkpt>
      <trkpt lat="37.417311" lon="-122.156678">
        <ele>28.3</ele>
        <time>2015-02-16T18:25:34Z</time>
      </trkpt>
      <trkpt lat="37.417304" lon="-122.156714">
        <ele>28.2</ele>
        <time>2015-02-16T18:25:36Z</time>
      </trkpt>
      <trkpt lat="37.417306" lon="-122.156779">
        <ele>28.1</ele>
        <time>2015-02-16T18:25:38Z</time>
      </trkpt>
      <trkpt lat="37.417307" lon="-122.156839">
        <ele>28</ele>
        <time>2015-02-16T18:25:40Z</time>
      </trkpt>
      <trkpt lat="37.417309" lon="-122.156877">
        <ele>27.9</ele>
        <time>2015-02-16T18:25:41Z</time>
      </trkpt>
      <trkpt lat="37.417312" lon="-122.156919">
        <ele>27.9</ele>
        <time>2015-02-16T18:25:42Z</time>
      </trkpt>
      <trkpt lat="37.417317" lon="-122.156961">
        <ele>27.8</ele>
        <time>2015-02-16T18:25:43Z</time>
      </trkpt>
      <trkpt lat="37.417323" lon="-122.157001">
        <ele>27.8</ele>
        <time>2015-02-16T18:25:44Z</time>
      </trkpt>
      <trkpt lat="37.417335" lon="-122.157036">
        <ele>27.8</ele>
        <time>2015-02-16T18:25:45Z</time>
      </trkpt>
      <trkpt lat="37.417351" lon="-122.157073">
        <ele>27.8</ele>
        <time>2015-02-16T18:25:47Z</time>
      </trkpt>
      <trkpt lat="37.417356" lon="-122.157112">
        <ele>27.9</ele>
        <time>2015-02-16T18:25:48Z</time>
      </trkpt>
      <trkpt lat="37.417359" lon="-122.157159">
        <ele>27.8</ele>
        <time>2015-02-16T18:25:50Z</time>
      </trkpt>
      <trkpt lat="37.417369" lon="-122.157244">
        <ele>27.7</ele>
        <time>2015-02-16T18:25:52Z</time>
      </trkpt>
      <trkpt lat="37.417374" lon="-122.157272">
        <ele>27.7</ele>
        <time>2015-02-16T18:25:53Z</time>
      </trkpt>
      <trkpt lat="37.417391" lon="-122.157354">
        <ele>27.6</ele>
        <time>2015-02-16T18:25:56Z</time>
      </trkpt>
      <trkpt lat="37.417396" lon="-122.157381">
        <ele>27.6</ele>
        <time>2015-02-16T18:25:58Z</time>
      </trkpt>
      <trkpt lat="37.417407" lon="-122.157427">
        <ele>27.6</ele>
        <time>2015-02-16T18:26:00Z</time>
      </trkpt>
      <trkpt lat="37.417433" lon="-122.157446">
        <ele>27.6</ele>
        <time>2015-02-16T18:26:01Z</time>
      </trkpt>
      <trkpt lat="37.417469" lon="-122.157453">
        <ele>27.5</ele>
        <time>2015-02-16T18:26:04Z</time>
      </trkpt>
      <trkpt lat="37.417504" lon="-122.157437">
        <ele>27.3</ele>
        <time>2015-02-16T18:26:05Z</time>
      </trkpt>
      <trkpt lat="37.417527" lon="-122.157419">
        <ele>27.3</ele>
        <time>2015-02-16T18:26:06Z</time>
      </trkpt>
      <trkpt lat="37.41757" lon="-122.157391">
        <ele>27.3</ele>
        <time>2015-02-16T18:26:09Z</time>
      </trkpt>
      <trkpt lat="37.417597" lon="-122.157377">
        <ele>27.2</ele>
        <time>2015-02-16T18:26:12Z</time>
      </trkpt>
      <trkpt lat="37.417645" lon="-122.157355">
        <ele>27.2</ele>
        <time>2015-02-16T18:26:14Z</time>
      </trkpt>
      <trkpt lat="37.417664" lon="-122.157356">
        <ele>27.1</ele>
        <time>2015-02-16T18:26:15Z</time>
      </trkpt>
      <trkpt lat="37.417699" lon="-122.157344">
        <ele>27</ele>
        <time>2015-02-16T18:26:18Z</time>
      </trkpt>
      <trkpt lat="37.417736" lon="-122.157345">
        <ele>26.8</ele>
        <time>2015-02-16T18:26:19Z</time>
      </trkpt>
      <trkpt lat="37.41777" lon="-122.157361">
        <ele>26.6</ele>
        <time>2015-02-16T18:26:21Z</time>
      </trkpt>
      <trkpt lat="37.417821" lon="-122.157353">
        <ele>26.6</ele>
        <time>2015-02-16T18:26:24Z</time>
      </trkpt>
      <trkpt lat="37.417844" lon="-122.157354">
        <ele>26.6</ele>
        <time>2015-02-16T18:26:25Z</time>
      </trkpt>
      <trkpt lat="37.417883" lon="-122.157353">
        <ele>26.5</ele>
        <time>2015-02-16T18:26:28Z</time>
      </trkpt>
      <trkpt lat="37.417927" lon="-122.15735">
        <ele>26.4</ele>
        <time>2015-02-16T18:26:30Z</time>
      </trkpt>
      <trkpt lat="37.417977" lon="-122.157343">
        <ele>26.4</ele>
        <time>2015-02-16T18:26:32Z</time>
      </trkpt>
      <trkpt lat="37.418012" lon="-122.157332">
        <ele>26.3</ele>
        <time>2015-02-16T18:26:34Z</time>
      </trkpt>
      <trkpt lat="37.418057" lon="-122.157319">
        <ele>26.1</ele>
        <time>2015-02-16T18:26:37Z</time>
      </trkpt>
      <trkpt lat="37.418111" lon="-122.1573">
        <ele>26</ele>
        <time>2015-02-16T18:26:38Z</time>
      </trkpt>
      <trkpt lat="37.418135" lon="-122.157284">
        <ele>26</ele>
        <time>2015-02-16T18:26:40Z</time>
      </trkpt>
      <trkpt lat="37.41819" lon="-122.15723">
        <ele>25.8</ele>
        <time>2015-02-16T18:26:42Z</time>
      </trkpt>
      <trkpt lat="37.41821" lon="-122.157217">
        <ele>25.8</ele>
        <time>2015-02-16T18:26:43Z</time>
      </trkpt>
      <trkpt lat="37.41824" lon="-122.157186">
        <ele>25.7</ele>
        <time>2015-02-16T18:26:45Z</time>
      </trkpt>
      <trkpt lat="37.418283" lon="-122.157164">
        <ele>25.6</ele>
        <time>2015-02-16T18:26:47Z</time>
      </trkpt>
      <trkpt lat="37.418328" lon="-122.15717">
        <ele>25.6</ele>
        <time>2015-02-16T18:26:49Z</time>
      </trkpt>
      <trkpt lat="37.418362" lon="-122.157183">
        <ele>25.7</ele>
        <time>2015-02-16T18:26:51Z</time>
      </trkpt>
      <trkpt lat="37.418396" lon="-122.157194">
        <ele>25.8</ele>
        <time>2015-02-16T18:26:53Z</time>
      </trkpt>
      <trkpt lat="37.418444" lon="-122.157194">
        <ele>25.7</ele>
        <time>2015-02-16T18:26:55Z</time>
      </trkpt>
      <trkpt lat="37.418482" lon="-122.157178">
        <ele>25.6</ele>
        <time>2015-02-16T18:26:57Z</time>
      </trkpt>
      <trkpt lat="37.418526" lon="-122.157156">
        <ele>25.5</ele>
        <time>2015-02-16T18:26:59Z</time>
      </trkpt>
      <trkpt lat="37.418561" lon="-122.157137">
        <ele>25.5</ele>
        <time>2015-02-16T18:27:01Z</time>
      </trkpt>
      <trkpt lat="37.41859" lon="-122.157112">
        <ele>25.4</ele>
        <time>2015-02-16T18:27:03Z</time>
      </trkpt>
      <trkpt lat="37.418637" lon="-122.157089">
        <ele>25.2</ele>
        <time>2015-02-16T18:27:05Z</time>
      </trkpt>
      <trkpt lat="37.418683" lon="-122.157073">
        <ele>25.1</ele>
        <time>2015-02-16T18:27:07Z</time>
      </trkpt>
      <trkpt lat="37.418717" lon="-122.157054">
        <ele>25.1</ele>
        <time>2015-02-16T18:27:09Z</time>
      </trkpt>
      <trkpt lat="37.418751" lon="-122.157032">
        <ele>24.9</ele>
        <time>2015-02-16T18:27:11Z</time>
      </trkpt>
      <trkpt lat="37.418797" lon="-122.157004">
        <ele>24.8</ele>
        <time>2015-02-16T18:27:14Z</time>
      </trkpt>
      <trkpt lat="37.418824" lon="-122.156989">
        <ele>24.7</ele>
        <time>2015-02-16T18:27:15Z</time>
      </trkpt>
      <trkpt lat="37.418878" lon="-122.156961">
        <ele>24.5</ele>
        <time>2015-02-16T18:27:16Z</time>
      </trkpt>
      <trkpt lat="37.418912" lon="-122.156931">
        <ele>24.4</ele>
        <time>2015-02-16T18:27:18Z</time>
      </trkpt>
      <trkpt lat="37.41893" lon="-122.156905">
        <ele>24.3</ele>
        <time>2015-02-16T18:27:20Z</time>
      </trkpt>
      <trkpt lat="37.418961" lon="-122.156869">
        <ele>24.3</ele>
        <time>2015-02-16T18:27:23Z</time>
      </trkpt>
      <trkpt lat="37.419009" lon="-122.156818">
        <ele>24.1</ele>
        <time>2015-02-16T18:27:25Z</time>
      </trkpt>
      <trkpt lat="37.419023" lon="-122.156802">
        <ele>24</ele>
        <time>2015-02-16T18:27:27Z</time>
      </trkpt>
      <trkpt lat="37.419043" lon="-122.156774">
        <ele>23.9</ele>
        <time>2015-02-16T18:27:28Z</time>
      </trkpt>
      <trkpt lat="37.419067" lon="-122.156738">
        <ele>23.8</ele>
        <time>2015-02-16T18:27:30Z</time>
      </trkpt>
      <trkpt lat="37.419089" lon="-122.156695">
        <ele>23.6</ele>
        <time>2015-02-16T18:27:32Z</time>
      </trkpt>
      <trkpt lat="37.419129" lon="-122.156655">
        <ele>23.3</ele>
        <time>2015-02-16T18:27:35Z</time>
      </trkpt>
      <trkpt lat="37.419177" lon="-122.156651">
        <ele>23.1</ele>
        <time>2015-02-16T18:27:36Z</time>
      </trkpt>
      <trkpt lat="37.419192" lon="-122.156662">
        <ele>23</ele>
        <time>2015-02-16T18:27:37Z</time>
      </trkpt>
      <trkpt lat="37.419228" lon="-122.15671">
        <ele>23</ele>
        <time>2015-02-16T18:27:39Z</time>
      </trkpt>
      <trkpt lat="37.419253" lon="-122.156765">
        <ele>23</ele>
        <time>2015-02-16T18:27:41Z</time>
      </trkpt>
      <trkpt lat="37.419276" lon="-122.156828">
        <ele>23</ele>
        <time>2015-02-16T18:27:43Z</time>
      </trkpt>
      <trkpt lat="37.419294" lon="-122.156874">
        <ele>23</ele>
        <time>2015-02-16T18:27:45Z</time>
      </trkpt>
      <trkpt lat="37.419314" lon="-122.15691">
        <ele>23.1</ele>
        <time>2015-02-16T18:27:47Z</time>
      </trkpt>
      <trkpt lat="37.419339" lon="-122.156947">
        <ele>23.1</ele>
        <time>2015-02-16T18:27:49Z</time>
      </trkpt>
      <trkpt lat="37.419369" lon="-122.156988">
        <ele>23</ele>
        <time>2015-02-16T18:27:52Z</time>
      </trkpt>
      <trkpt lat="37.419391" lon="-122.157009">
        <ele>23</ele>
        <time>2015-02-16T18:27:53Z</time>
      </trkpt>
      <trkpt lat="37.419419" lon="-122.157047">
        <ele>23</ele>
        <time>2015-02-16T18:27:55Z</time>
      </trkpt>
      <trkpt lat="37.419441" lon="-122.15707">
        <ele>23.1</ele>
        <time>2015-02-16T18:27:57Z</time>
      </trkpt>
      <trkpt lat="37.419457" lon="-122.157103">
        <ele>23.1</ele>
        <time>2015-02-16T18:27:59Z</time>
      </trkpt>
      <trkpt lat="37.419483" lon="-122.157134">
        <ele>23.1</ele>
        <time>2015-02-16T18:28:01Z</time>
      </trkpt>
      <trkpt lat="37.419518" lon="-122.157169">
        <ele>23.1</ele>
        <time>2015-02-16T18:28:03Z</time>
      </trkpt>
      <trkpt lat="37.419536" lon="-122.157202">
        <ele>23.1</ele>
        <time>2015-02-16T18:28:05Z</time>
      </trkpt>
      <trkpt lat="37.419549" lon="-122.157234">
        <ele>23.2</ele>
        <time>2015-02-16T18:28:07Z</time>
      </trkpt>
      <trkpt lat="37.419587" lon="-122.157295">
        <ele>23.2</ele>
        <time>2015-02-16T18:28:11Z</time>
      </trkpt>
      <trkpt lat="37.419598" lon="-122.157311">
        <ele>23.2</ele>
        <time>2015-02-16T18:28:12Z</time>
      </trkpt>
      <trkpt lat="37.419619" lon="-122.157357">
        <ele>23.2</ele>
        <time>2015-02-16T18:28:15Z</time>
      </trkpt>
      <trkpt lat="37.419635" lon="-122.157412">
        <ele>23.2</ele>
        <time>2015-02-16T18:28:17Z</time>
      </trkpt>
      <trkpt lat="37.419653" lon="-122.157462">
        <ele>23.3</ele>
        <time>2015-02-16T18:28:18Z</time>
      </trkpt>
      <trkpt lat="37.41968" lon="-122.157498">
        <ele>23.2</ele>
        <time>2015-02-16T18:28:21Z</time>
      </trkpt>
      <trkpt lat="37.419706" lon="-122.157531">
        <ele>23.3</ele>
        <time>2015-02-16T18:28:22Z</time>
      </trkpt>
      <trkpt lat="37.419716" lon="-122.157573">
        <ele>23.3</ele>
        <time>2015-02-16T18:28:24Z</time>
      </trkpt>
      <trkpt lat="37.419747" lon="-122.157654">
        <ele>23.3</ele>
        <time>2015-02-16T18:28:27Z</time>
      </trkpt>
      <trkpt lat="37.419762" lon="-122.157686">
        <ele>23.3</ele>
        <time>2015-02-16T18:28:28Z</time>
      </trkpt>
      <trkpt lat="37.419778" lon="-122.157719">
        <ele>23.3</ele>
        <time>2015-02-16T18:28:29Z</time>
      </trkpt>
      <trkpt lat="37.419811" lon="-122.157793">
        <ele>23.3</ele>
        <time>2015-02-16T18:28:32Z</time>
      </trkpt>
      <trkpt lat="37.419819" lon="-122.157815">
        <ele>23.4</ele>
        <time>2015-02-16T18:28:33Z</time>
      </trkpt>
      <trkpt lat="37.419835" lon="-122.157863">
        <ele>23.4</ele>
        <time>2015-02-16T18:28:35Z</time>
      </trkpt>
      <trkpt lat="37.419854" lon="-122.157907">
        <ele>23.5</ele>
        <time>2015-02-16T18:28:37Z</time>
      </trkpt>
      <trkpt lat="37.419873" lon="-122.157958">
        <ele>23.7</ele>
        <time>2015-02-16T18:28:39Z</time>
      </trkpt>
      <trkpt lat="37.419888" lon="-122.158005">
        <ele>23.7</ele>
        <time>2015-02-16T18:28:41Z</time>
      </trkpt>
      <trkpt lat="37.419906" lon="-122.158052">
        <ele>23.9</ele>
        <time>2015-02-16T18:28:43Z</time>
      </trkpt>
      <trkpt lat="37.419929" lon="-122.158097">
        <ele>23.8</ele>
        <time>2015-02-16T18:28:45Z</time>
      </trkpt>
      <trkpt lat="37.419955" lon="-122.158145">
        <ele>24</ele>
        <time>2015-02-16T18:28:47Z</time>
      </trkpt>
      <trkpt lat="37.419983" lon="-122.158182">
        <ele>23.9</ele>
        <time>2015-02-16T18:28:49Z</time>
      </trkpt>
      <trkpt lat="37.420022" lon="-122.158219">
        <ele>23.9</ele>
        <time>2015-02-16T18:28:51Z</time>
      </trkpt>
      <trkpt lat="37.420054" lon="-122.158258">
        <ele>24</ele>
        <time>2015-02-16T18:28:53Z</time>
      </trkpt>
      <trkpt lat="37.420075" lon="-122.158301">
        <ele>24.1</ele>
        <time>2015-02-16T18:28:55Z</time>
      </trkpt>
      <trkpt lat="37.420095" lon="-122.15837">
        <ele>24.2</ele>
        <time>2015-02-16T18:28:59Z</time>
      </trkpt>
      <trkpt lat="37.420106" lon="-122.15839">
        <ele>24.1</ele>
        <time>2015-02-16T18:29:01Z</time>
      </trkpt>
      <trkpt lat="37.42012" lon="-122.158445">
        <ele>24.3</ele>
        <time>2015-02-16T18:29:03Z</time>
      </trkpt>
      <trkpt lat="37.420128" lon="-122.158498">
        <ele>24.4</ele>
        <time>2015-02-16T18:29:04Z</time>
      </trkpt>
      <trkpt lat="37.420139" lon="-122.15857">
        <ele>24.6</ele>
        <time>2015-02-16T18:29:08Z</time>
      </trkpt>
      <trkpt lat="37.420151" lon="-122.158593">
        <ele>24.7</ele>
        <time>2015-02-16T18:29:09Z</time>
      </trkpt>
      <trkpt lat="37.420179" lon="-122.158637">
        <ele>24.7</ele>
        <time>2015-02-16T18:29:12Z</time>
      </trkpt>
      <trkpt lat="37.420209" lon="-122.158674">
        <ele>24.6</ele>
        <time>2015-02-16T18:29:13Z</time>
      </trkpt>
      <trkpt lat="37.420238" lon="-122.158721">
        <ele>24.7</ele>
        <time>2015-02-16T18:29:15Z</time>
      </trkpt>
      <trkpt lat="37.420263" lon="-122.158762">
        <ele>24.8</ele>
        <time>2015-02-16T18:29:17Z</time>
      </trkpt>
      <trkpt lat="37.420288" lon="-122.158809">
        <ele>24.9</ele>
        <time>2015-02-16T18:29:19Z</time>
      </trkpt>
      <trkpt lat="37.420327" lon="-122.158858">
        <ele>24.9</ele>
        <time>2015-02-16T18:29:21Z</time>
      </trkpt>
      <trkpt lat="37.420349" lon="-122.158879">
        <ele>24.9</ele>
        <time>2015-02-16T18:29:22Z</time>
      </trkpt>
      <trkpt lat="37.42039" lon="-122.15892">
        <ele>24.9</ele>
        <time>2015-02-16T18:29:25Z</time>
      </trkpt>
      <trkpt lat="37.420425" lon="-122.158948">
        <ele>24.9</ele>
        <time>2015-02-16T18:29:26Z</time>
      </trkpt>
      <trkpt lat="37.420456" lon="-122.158975">
        <ele>24.9</ele>
        <time>2015-02-16T18:29:29Z</time>
      </trkpt>
      <trkpt lat="37.420491" lon="-122.159016">
        <ele>25</ele>
        <time>2015-02-16T18:29:31Z</time>
      </trkpt>
      <trkpt lat="37.420506" lon="-122.159036">
        <ele>25</ele>
        <time>2015-02-16T18:29:33Z</time>
      </trkpt>
      <trkpt lat="37.420535" lon="-122.159074">
        <ele>25.1</ele>
        <time>2015-02-16T18:29:35Z</time>
      </trkpt>
      <trkpt lat="37.420568" lon="-122.159133">
        <ele>25.1</ele>
        <time>2015-02-16T18:29:36Z</time>
      </trkpt>
      <trkpt lat="37.420591" lon="-122.159175">
        <ele>25.2</ele>
        <time>2015-02-16T18:29:39Z</time>
      </trkpt>
      <trkpt lat="37.420621" lon="-122.159219">
        <ele>25.2</ele>
        <time>2015-02-16T18:29:40Z</time>
      </trkpt>
      <trkpt lat="37.42065" lon="-122.159259">
        <ele>25.4</ele>
        <time>2015-02-16T18:29:43Z</time>
      </trkpt>
      <trkpt lat="37.420698" lon="-122.159294">
        <ele>25.4</ele>
        <time>2015-02-16T18:29:45Z</time>
      </trkpt>
      <trkpt lat="37.420739" lon="-122.159344">
        <ele>25.4</ele>
        <time>2015-02-16T18:29:48Z</time>
      </trkpt>
      <trkpt lat="37.420766" lon="-122.159366">
        <ele>25.4</ele>
        <time>2015-02-16T18:29:50Z</time>
      </trkpt>
      <trkpt lat="37.420794" lon="-122.159389">
        <ele>25.5</ele>
        <time>2015-02-16T18:29:53Z</time>
      </trkpt>
      <trkpt lat="37.420821" lon="-122.159412">
        <ele>25.5</ele>
        <time>2015-02-16T18:29:54Z</time>
      </trkpt>
      <trkpt lat="37.420845" lon="-122.159432">
        <ele>25.6</ele>
        <time>2015-02-16T18:29:55Z</time>
      </trkpt>
      <trkpt lat="37.420884" lon="-122.159473">
        <ele>25.7</ele>
        <time>2015-02-16T18:29:57Z</time>
      </trkpt>
      <trkpt lat="37.420915" lon="-122.159518">
        <ele>25.7</ele>
        <time>2015-02-16T18:30:00Z</time>
      </trkpt>
      <trkpt lat="37.420926" lon="-122.15957">
        <ele>25.6</ele>
        <time>2015-02-16T18:30:01Z</time>
      </trkpt>
      <trkpt lat="37.420942" lon="-122.159617">
        <ele>25.6</ele>
        <time>2015-02-16T18:30:03Z</time>
      </trkpt>
      <trkpt lat="37.420958" lon="-122.159669">
        <ele>25.7</ele>
        <time>2015-02-16T18:30:06Z</time>
      </trkpt>
      <trkpt lat="37.420976" lon="-122.159715">
        <ele>25.7</ele>
        <time>2015-02-16T18:30:07Z</time>
      </trkpt>
      <trkpt lat="37.421" lon="-122.15976">
        <ele>25.8</ele>
        <time>2015-02-16T18:30:10Z</time>
      </trkpt>
      <trkpt lat="37.421027" lon="-122.159799">
        <ele>25.9</ele>
        <time>2015-02-16T18:30:12Z</time>
      </trkpt>
      <trkpt lat="37.421056" lon="-122.159826">
        <ele>25.9</ele>
        <time>2015-02-16T18:30:15Z</time>
      </trkpt>
      <trkpt lat="37.42109" lon="-122.159857">
        <ele>25.8</ele>
        <time>2015-02-16T18:30:16Z</time>
      </trkpt>
      <trkpt lat="37.421117" lon="-122.159879">
        <ele>25.8</ele>
        <time>2015-02-16T18:30:18Z</time>
      </trkpt>
      <trkpt lat="37.421148" lon="-122.159905">
        <ele>25.8</ele>
        <time>2015-02-16T18:30:19Z</time>
      </trkpt>
      <trkpt lat="37.421169" lon="-122.159934">
        <ele>25.8</ele>
        <time>2015-02-16T18:30:20Z</time>
      </trkpt>
      <trkpt lat="37.42119" lon="-122.159974">
        <ele>25.8</ele>
        <time>2015-02-16T18:30:21Z</time>
      </trkpt>
      <trkpt lat="37.421217" lon="-122.160018">
        <ele>25.9</ele>
        <time>2015-02-16T18:30:24Z</time>
      </trkpt>
      <trkpt lat="37.421274" lon="-122.160066">
        <ele>25.9</ele>
        <time>2015-02-16T18:30:26Z</time>
      </trkpt>
      <trkpt lat="37.421284" lon="-122.160086">
        <ele>25.9</ele>
        <time>2015-02-16T18:30:28Z</time>
      </trkpt>
      <trkpt lat="37.421313" lon="-122.160149">
        <ele>25.9</ele>
        <time>2015-02-16T18:30:30Z</time>
      </trkpt>
      <trkpt lat="37.421325" lon="-122.160164">
        <ele>26</ele>
        <time>2015-02-16T18:30:31Z</time>
      </trkpt>
      <trkpt lat="37.421357" lon="-122.160204">
        <ele>26</ele>
        <time>2015-02-16T18:30:33Z</time>
      </trkpt>
      <trkpt lat="37.421376" lon="-122.160231">
        <ele>26</ele>
        <time>2015-02-16T18:30:34Z</time>
      </trkpt>
      <trkpt lat="37.421395" lon="-122.160261">
        <ele>26</ele>
        <time>2015-02-16T18:30:35Z</time>
      </trkpt>
      <trkpt lat="37.421415" lon="-122.160285">
        <ele>26</ele>
        <time>2015-02-16T18:30:36Z</time>
      </trkpt>
      <trkpt lat="37.421454" lon="-122.160323">
        <ele>26</ele>
        <time>2015-02-16T18:30:39Z</time>
      </trkpt>
      <trkpt lat="37.421492" lon="-122.16036">
        <ele>26</ele>
        <time>2015-02-16T18:30:40Z</time>
      </trkpt>
      <trkpt lat="37.421519" lon="-122.160397">
        <ele>26.1</ele>
        <time>2015-02-16T18:30:42Z</time>
      </trkpt>
      <trkpt lat="37.421538" lon="-122.160425">
        <ele>26.1</ele>
        <time>2015-02-16T18:30:44Z</time>
      </trkpt>
      <trkpt lat="37.421578" lon="-122.160462">
        <ele>26.1</ele>
        <time>2015-02-16T18:30:47Z</time>
      </trkpt>
      <trkpt lat="37.421593" lon="-122.160475">
        <ele>26.1</ele>
        <time>2015-02-16T18:30:48Z</time>
      </trkpt>
      <trkpt lat="37.421611" lon="-122.160509">
        <ele>26.1</ele>
        <time>2015-02-16T18:30:51Z</time>
      </trkpt>
      <trkpt lat="37.421655" lon="-122.160563">
        <ele>26.2</ele>
        <time>2015-02-16T18:30:53Z</time>
      </trkpt>
      <trkpt lat="37.421672" lon="-122.16058">
        <ele>26.1</ele>
        <time>2015-02-16T18:30:55Z</time>
      </trkpt>
      <trkpt lat="37.421705" lon="-122.160614">
        <ele>26.2</ele>
        <time>2015-02-16T18:30:57Z</time>
      </trkpt>
      <trkpt lat="37.421729" lon="-122.160648">
        <ele>26.2</ele>
        <time>2015-02-16T18:30:58Z</time>
      </trkpt>
      <trkpt lat="37.421747" lon="-122.160675">
        <ele>26.2</ele>
        <time>2015-02-16T18:31:00Z</time>
      </trkpt>
      <trkpt lat="37.421766" lon="-122.160701">
        <ele>26.2</ele>
        <time>2015-02-16T18:31:01Z</time>
      </trkpt>
      <trkpt lat="37.421801" lon="-122.160736">
        <ele>26.2</ele>
        <time>2015-02-16T18:31:02Z</time>
      </trkpt>
      <trkpt lat="37.421848" lon="-122.160769">
        <ele>26.2</ele>
        <time>2015-02-16T18:31:05Z</time>
      </trkpt>
      <trkpt lat="37.421898" lon="-122.160822">
        <ele>26.2</ele>
        <time>2015-02-16T18:31:07Z</time>
      </trkpt>
      <trkpt lat="37.421914" lon="-122.160844">
        <ele>26.3</ele>
        <time>2015-02-16T18:31:09Z</time>
      </trkpt>
      <trkpt lat="37.421951" lon="-122.160883">
        <ele>26.3</ele>
        <time>2015-02-16T18:31:11Z</time>
      </trkpt>
      <trkpt lat="37.422001" lon="-122.160911">
        <ele>26.3</ele>
        <time>2015-02-16T18:31:12Z</time>
      </trkpt>
      <trkpt lat="37.422027" lon="-122.160926">
        <ele>26.3</ele>
        <time>2015-02-16T18:31:13Z</time>
      </trkpt>
      <trkpt lat="37.422067" lon="-122.160957">
        <ele>26.3</ele>
        <time>2015-02-16T18:31:15Z</time>
      </trkpt>
      <trkpt lat="37.422093" lon="-122.160998">
        <ele>26.3</ele>
        <time>2015-02-16T18:31:17Z</time>
      </trkpt>
      <trkpt lat="37.422145" lon="-122.161047">
        <ele>26.3</ele>
        <time>2015-02-16T18:31:21Z</time>
      </trkpt>
      <trkpt lat="37.42216" lon="-122.161062">
        <ele>26.3</ele>
        <time>2015-02-16T18:31:22Z</time>
      </trkpt>
      <trkpt lat="37.422183" lon="-122.161107">
        <ele>26.3</ele>
        <time>2015-02-16T18:31:24Z</time>
      </trkpt>
      <trkpt lat="37.422206" lon="-122.161148">
        <ele>26.3</ele>
        <time>2015-02-16T18:31:27Z</time>
      </trkpt>
      <trkpt lat="37.42223" lon="-122.161178">
        <ele>26.2</ele>
        <time>2015-02-16T18:31:28Z</time>
      </trkpt>
      <trkpt lat="37.422257" lon="-122.161217">
        <ele>26.3</ele>
        <time>2015-02-16T18:31:30Z</time>
      </trkpt>
      <trkpt lat="37.42228" lon="-122.161243">
        <ele>26.2</ele>
        <time>2015-02-16T18:31:33Z</time>
      </trkpt>
      <trkpt lat="37.422297" lon="-122.161285">
        <ele>26.2</ele>
        <time>2015-02-16T18:31:34Z</time>
      </trkpt>
      <trkpt lat="37.422318" lon="-122.16132">
        <ele>26.3</ele>
        <time>2015-02-16T18:31:37Z</time>
      </trkpt>
      <trkpt lat="37.422371" lon="-122.161367">
        <ele>26.3</ele>
        <time>2015-02-16T18:31:39Z</time>
      </trkpt>
      <trkpt lat="37.42239" lon="-122.161384">
        <ele>26.3</ele>
        <time>2015-02-16T18:31:41Z</time>
      </trkpt>
      <trkpt lat="37.422433" lon="-122.161419">
        <ele>26.2</ele>
        <time>2015-02-16T18:31:43Z</time>
      </trkpt>
      <trkpt lat="37.422453" lon="-122.161462">
        <ele>26.3</ele>
        <time>2015-02-16T18:31:44Z</time>
      </trkpt>
      <trkpt lat="37.42245" lon="-122.161499">
        <ele>26.3</ele>
        <time>2015-02-16T18:31:47Z</time>
      </trkpt>
      <trkpt lat="37.422436" lon="-122.161563">
        <ele>26.3</ele>
        <time>2015-02-16T18:31:49Z</time>
      </trkpt>
      <trkpt lat="37.422423" lon="-122.16159">
        <ele>26.4</ele>
        <time>2015-02-16T18:31:51Z</time>
      </trkpt>
      <trkpt lat="37.422406" lon="-122.161632">
        <ele>26.5</ele>
        <time>2015-02-16T18:31:52Z</time>
      </trkpt>
      <trkpt lat="37.422386" lon="-122.161698">
        <ele>26.6</ele>
        <time>2015-02-16T18:31:55Z</time>
      </trkpt>
      <trkpt lat="37.42236" lon="-122.161786">
        <ele>26.7</ele>
        <time>2015-02-16T18:31:57Z</time>
      </trkpt>
      <trkpt lat="37.42235" lon="-122.161822">
        <ele>26.7</ele>
        <time>2015-02-16T18:31:58Z</time>
      </trkpt>
      <trkpt lat="37.422337" lon="-122.161868">
        <ele>26.8</ele>
        <time>2015-02-16T18:32:01Z</time>
      </trkpt>
      <trkpt lat="37.422322" lon="-122.161907">
        <ele>26.9</ele>
        <time>2015-02-16T18:32:02Z</time>
      </trkpt>
      <trkpt lat="37.422305" lon="-122.161943">
        <ele>27</ele>
        <time>2015-02-16T18:32:04Z</time>
      </trkpt>
      <trkpt lat="37.42228" lon="-122.162003">
        <ele>27.1</ele>
        <time>2015-02-16T18:32:06Z</time>
      </trkpt>
      <trkpt lat="37.422267" lon="-122.162035">
        <ele>27.2</ele>
        <time>2015-02-16T18:32:08Z</time>
      </trkpt>
      <trkpt lat="37.422252" lon="-122.162096">
        <ele>27.3</ele>
        <time>2015-02-16T18:32:09Z</time>
      </trkpt>
      <trkpt lat="37.422249" lon="-122.162126">
        <ele>27.4</ele>
        <time>2015-02-16T18:32:10Z</time>
      </trkpt>
      <trkpt lat="37.422249" lon="-122.162183">
        <ele>27.5</ele>
        <time>2015-02-16T18:32:13Z</time>
      </trkpt>
      <trkpt lat="37.422238" lon="-122.162274">
        <ele>27.6</ele>
        <time>2015-02-16T18:32:15Z</time>
      </trkpt>
      <trkpt lat="37.422235" lon="-122.162299">
        <ele>27.6</ele>
        <time>2015-02-16T18:32:16Z</time>
      </trkpt>
      <trkpt lat="37.42223" lon="-122.162351">
        <ele>27.7</ele>
        <time>2015-02-16T18:32:19Z</time>
      </trkpt>
      <trkpt lat="37.42223" lon="-122.162403">
        <ele>27.7</ele>
        <time>2015-02-16T18:32:20Z</time>
      </trkpt>
      <trkpt lat="37.422232" lon="-122.162437">
        <ele>27.8</ele>
        <time>2015-02-16T18:32:22Z</time>
      </trkpt>
      <trkpt lat="37.422233" lon="-122.162477">
        <ele>27.7</ele>
        <time>2015-02-16T18:32:23Z</time>
      </trkpt>
      <trkpt lat="37.422235" lon="-122.162517">
        <ele>27.8</ele>
        <time>2015-02-16T18:32:24Z</time>
      </trkpt>
      <trkpt lat="37.422232" lon="-122.162592">
        <ele>27.9</ele>
        <time>2015-02-16T18:32:25Z</time>
      </trkpt>
      <trkpt lat="37.422233" lon="-122.162655">
        <ele>28</ele>
        <time>2015-02-16T18:32:29Z</time>
      </trkpt>
      <trkpt lat="37.422231" lon="-122.162686">
        <ele>28</ele>
        <time>2015-02-16T18:32:31Z</time>
      </trkpt>
      <trkpt lat="37.422224" lon="-122.16272">
        <ele>28.1</ele>
        <time>2015-02-16T18:32:32Z</time>
      </trkpt>
      <trkpt lat="37.422216" lon="-122.162755">
        <ele>28.1</ele>
        <time>2015-02-16T18:32:33Z</time>
      </trkpt>
      <trkpt lat="37.422216" lon="-122.162798">
        <ele>28.2</ele>
        <time>2015-02-16T18:32:34Z</time>
      </trkpt>
      <trkpt lat="37.422218" lon="-122.162849">
        <ele>28.3</ele>
        <time>2015-02-16T18:32:37Z</time>
      </trkpt>
      <trkpt lat="37.422218" lon="-122.162889">
        <ele>28.4</ele>
        <time>2015-02-16T18:32:38Z</time>
      </trkpt>
      <trkpt lat="37.422214" lon="-122.162934">
        <ele>28.4</ele>
        <time>2015-02-16T18:32:40Z</time>
      </trkpt>
      <trkpt lat="37.422227" lon="-122.163027">
        <ele>28.5</ele>
        <time>2015-02-16T18:32:43Z</time>
      </trkpt>
      <trkpt lat="37.42223" lon="-122.163043">
        <ele>28.5</ele>
        <time>2015-02-16T18:32:44Z</time>
      </trkpt>
      <trkpt lat="37.422238" lon="-122.163102">
        <ele>28.7</ele>
        <time>2015-02-16T18:32:46Z</time>
      </trkpt>
      <trkpt lat="37.422238" lon="-122.16314">
        <ele>28.7</ele>
        <time>2015-02-16T18:32:48Z</time>
      </trkpt>
      <trkpt lat="37.42224" lon="-122.163203">
        <ele>28.8</ele>
        <time>2015-02-16T18:32:50Z</time>
      </trkpt>
      <trkpt lat="37.422249" lon="-122.163242">
        <ele>28.9</ele>
        <time>2015-02-16T18:32:51Z</time>
      </trkpt>
      <trkpt lat="37.42226" lon="-122.163289">
        <ele>28.9</ele>
        <time>2015-02-16T18:32:54Z</time>
      </trkpt>
      <trkpt lat="37.422271" lon="-122.163349">
        <ele>29</ele>
        <time>2015-02-16T18:32:56Z</time>
      </trkpt>
      <trkpt lat="37.422276" lon="-122.163399">
        <ele>29</ele>
        <time>2015-02-16T18:32:57Z</time>
      </trkpt>
      <trkpt lat="37.422272" lon="-122.16344">
        <ele>29.1</ele>
        <time>2015-02-16T18:33:00Z</time>
      </trkpt>
      <trkpt lat="37.422268" lon="-122.163475">
        <ele>29.2</ele>
        <time>2015-02-16T18:33:01Z</time>
      </trkpt>
      <trkpt lat="37.42227" lon="-122.163515">
        <ele>29.2</ele>
        <time>2015-02-16T18:33:04Z</time>
      </trkpt>
      <trkpt lat="37.422269" lon="-122.163561">
        <ele>29.3</ele>
        <time>2015-02-16T18:33:05Z</time>
      </trkpt>
      <trkpt lat="37.422275" lon="-122.163619">
        <ele>29.4</ele>
        <time>2015-02-16T18:33:08Z</time>
      </trkpt>
      <trkpt lat="37.422281" lon="-122.163658">
        <ele>29.4</ele>
        <time>2015-02-16T18:33:09Z</time>
      </trkpt>
      <trkpt lat="37.422304" lon="-122.163729">
        <ele>29.4</ele>
        <time>2015-02-16T18:33:10Z</time>
      </trkpt>
      <trkpt lat="37.422319" lon="-122.16376">
        <ele>29.4</ele>
        <time>2015-02-16T18:33:12Z</time>
      </trkpt>
      <trkpt lat="37.422332" lon="-122.16379">
        <ele>29.3</ele>
        <time>2015-02-16T18:33:13Z</time>
      </trkpt>
      <trkpt lat="37.422366" lon="-122.163863">
        <ele>29.1</ele>
        <time>2015-02-16T18:33:15Z</time>
      </trkpt>
      <trkpt lat="37.422381" lon="-122.163894">
        <ele>29.1</ele>
        <time>2015-02-16T18:33:17Z</time>
      </trkpt>
      <trkpt lat="37.422392" lon="-122.163959">
        <ele>29.4</ele>
        <time>2015-02-16T18:33:19Z</time>
      </trkpt>
      <trkpt lat="37.422406" lon="-122.164019">
        <ele>29.6</ele>
        <time>2015-02-16T18:33:20Z</time>
      </trkpt>
      <trkpt lat="37.422425" lon="-122.16407">
        <ele>29.6</ele>
        <time>2015-02-16T18:33:23Z</time>
      </trkpt>
      <trkpt lat="37.422442" lon="-122.164122">
        <ele>29.6</ele>
        <time>2015-02-16T18:33:24Z</time>
      </trkpt>
      <trkpt lat="37.422448" lon="-122.16417">
        <ele>29.6</ele>
        <time>2015-02-16T18:33:26Z</time>
      </trkpt>
      <trkpt lat="37.42246" lon="-122.164248">
        <ele>29.6</ele>
        <time>2015-02-16T18:33:29Z</time>
      </trkpt>
      <trkpt lat="37.422468" lon="-122.164271">
        <ele>29.7</ele>
        <time>2015-02-16T18:33:30Z</time>
      </trkpt>
      <trkpt lat="37.422485" lon="-122.164329">
        <ele>29.6</ele>
        <time>2015-02-16T18:33:32Z</time>
      </trkpt>
      <trkpt lat="37.422501" lon="-122.164386">
        <ele>29.6</ele>
        <time>2015-02-16T18:33:35Z</time>
      </trkpt>
      <trkpt lat="37.422525" lon="-122.16444">
        <ele>29.7</ele>
        <time>2015-02-16T18:33:37Z</time>
      </trkpt>
      <trkpt lat="37.422545" lon="-122.164487">
        <ele>29.6</ele>
        <time>2015-02-16T18:33:38Z</time>
      </trkpt>
      <trkpt lat="37.422579" lon="-122.164566">
        <ele>29.7</ele>
        <time>2015-02-16T18:33:41Z</time>
      </trkpt>
      <trkpt lat="37.422594" lon="-122.164595">
        <ele>29.7</ele>
        <time>2015-02-16T18:33:42Z</time>
      </trkpt>
      <trkpt lat="37.42261" lon="-122.164623">
        <ele>29.7</ele>
        <time>2015-02-16T18:33:44Z</time>
      </trkpt>
      <trkpt lat="37.422629" lon="-122.164674">
        <ele>29.7</ele>
        <time>2015-02-16T18:33:46Z</time>
      </trkpt>
      <trkpt lat="37.422626" lon="-122.164708">
        <ele>29.8</ele>
        <time>2015-02-16T18:33:47Z</time>
      </trkpt>
      <trkpt lat="37.422629" lon="-122.164745">
        <ele>29.8</ele>
        <time>2015-02-16T18:33:50Z</time>
      </trkpt>
      <trkpt lat="37.422646" lon="-122.164789">
        <ele>29.8</ele>
        <time>2015-02-16T18:33:52Z</time>
      </trkpt>
      <trkpt lat="37.422655" lon="-122.164834">
        <ele>29.8</ele>
        <time>2015-02-16T18:33:55Z</time>
      </trkpt>
      <trkpt lat="37.422658" lon="-122.164889">
        <ele>29.9</ele>
        <time>2015-02-16T18:33:56Z</time>
      </trkpt>
      <trkpt lat="37.422678" lon="-122.164943">
        <ele>29.9</ele>
        <time>2015-02-16T18:33:59Z</time>
      </trkpt>
      <trkpt lat="37.422743" lon="-122.165007">
        <ele>29.9</ele>
        <time>2015-02-16T18:34:01Z</time>
      </trkpt>
      <trkpt lat="37.422782" lon="-122.165049">
        <ele>29.8</ele>
        <time>2015-02-16T18:34:04Z</time>
      </trkpt>
      <trkpt lat="37.4228" lon="-122.165098">
        <ele>29.9</ele>
        <time>2015-02-16T18:34:05Z</time>
      </trkpt>
      <trkpt lat="37.42282" lon="-122.165143">
        <ele>30.1</ele>
        <time>2015-02-16T18:34:07Z</time>
      </trkpt>
      <trkpt lat="37.422848" lon="-122.165212">
        <ele>30.2</ele>
        <time>2015-02-16T18:34:10Z</time>
      </trkpt>
      <trkpt lat="37.422848" lon="-122.165232">
        <ele>30.3</ele>
        <time>2015-02-16T18:34:11Z</time>
      </trkpt>
      <trkpt lat="37.422829" lon="-122.165309">
        <ele>30.4</ele>
        <time>2015-02-16T18:34:13Z</time>
      </trkpt>
      <trkpt lat="37.422823" lon="-122.16535">
        <ele>30.5</ele>
        <time>2015-02-16T18:34:16Z</time>
      </trkpt>
      <trkpt lat="37.422817" lon="-122.165392">
        <ele>30.7</ele>
        <time>2015-02-16T18:34:17Z</time>
      </trkpt>
      <trkpt lat="37.422819" lon="-122.165446">
        <ele>30.7</ele>
        <time>2015-02-16T18:34:19Z</time>
      </trkpt>
      <trkpt lat="37.422829" lon="-122.1655">
        <ele>30.7</ele>
        <time>2015-02-16T18:34:22Z</time>
      </trkpt>
      <trkpt lat="37.422815" lon="-122.165593">
        <ele>30.9</ele>
        <time>2015-02-16T18:34:24Z</time>
      </trkpt>
      <trkpt lat="37.422812" lon="-122.165621">
        <ele>30.9</ele>
        <time>2015-02-16T18:34:26Z</time>
      </trkpt>
      <trkpt lat="37.422793" lon="-122.165695">
        <ele>31.1</ele>
        <time>2015-02-16T18:34:28Z</time>
      </trkpt>
      <trkpt lat="37.422783" lon="-122.165717">
        <ele>31.1</ele>
        <time>2015-02-16T18:34:29Z</time>
      </trkpt>
      <trkpt lat="37.422764" lon="-122.165757">
        <ele>31.2</ele>
        <time>2015-02-16T18:34:32Z</time>
      </trkpt>
      <trkpt lat="37.42274" lon="-122.165797">
        <ele>31.3</ele>
        <time>2015-02-16T18:34:35Z</time>
      </trkpt>
      <trkpt lat="37.422725" lon="-122.165838">
        <ele>31.4</ele>
        <time>2015-02-16T18:34:36Z</time>
      </trkpt>
      <trkpt lat="37.422721" lon="-122.165882">
        <ele>31.4</ele>
        <time>2015-02-16T18:34:38Z</time>
      </trkpt>
      <trkpt lat="37.422714" lon="-122.165929">
        <ele>31.5</ele>
        <time>2015-02-16T18:34:41Z</time>
      </trkpt>
      <trkpt lat="37.422708" lon="-122.165974">
        <ele>31.5</ele>
        <time>2015-02-16T18:34:42Z</time>
      </trkpt>
      <trkpt lat="37.422685" lon="-122.16601">
        <ele>31.7</ele>
        <time>2015-02-16T18:34:45Z</time>
      </trkpt>
      <trkpt lat="37.422652" lon="-122.166044">
        <ele>31.8</ele>
        <time>2015-02-16T18:34:47Z</time>
      </trkpt>
      <trkpt lat="37.422621" lon="-122.166081">
        <ele>31.8</ele>
        <time>2015-02-16T18:34:50Z</time>
      </trkpt>
      <trkpt lat="37.422603" lon="-122.166124">
        <ele>31.9</ele>
        <time>2015-02-16T18:34:51Z</time>
      </trkpt>
      <trkpt lat="37.422583" lon="-122.166172">
        <ele>32</ele>
        <time>2015-02-16T18:34:53Z</time>
      </trkpt>
      <trkpt lat="37.422539" lon="-122.16622">
        <ele>32</ele>
        <time>2015-02-16T18:34:56Z</time>
      </trkpt>
      <trkpt lat="37.422524" lon="-122.166242">
        <ele>32</ele>
        <time>2015-02-16T18:34:57Z</time>
      </trkpt>
      <trkpt lat="37.422502" lon="-122.166299">
        <ele>32.1</ele>
        <time>2015-02-16T18:34:59Z</time>
      </trkpt>
      <trkpt lat="37.422493" lon="-122.166331">
        <ele>32.2</ele>
        <time>2015-02-16T18:35:00Z</time>
      </trkpt>
      <trkpt lat="37.422465" lon="-122.166411">
        <ele>32.4</ele>
        <time>2015-02-16T18:35:03Z</time>
      </trkpt>
      <trkpt lat="37.422459" lon="-122.166439">
        <ele>32.4</ele>
        <time>2015-02-16T18:35:04Z</time>
      </trkpt>
      <trkpt lat="37.422445" lon="-122.166495">
        <ele>32.5</ele>
        <time>2015-02-16T18:35:07Z</time>
      </trkpt>
      <trkpt lat="37.422417" lon="-122.166572">
        <ele>32.7</ele>
        <time>2015-02-16T18:35:09Z</time>
      </trkpt>
      <trkpt lat="37.422405" lon="-122.1666">
        <ele>32.7</ele>
        <time>2015-02-16T18:35:11Z</time>
      </trkpt>
      <trkpt lat="37.422376" lon="-122.166647">
        <ele>32.8</ele>
        <time>2015-02-16T18:35:13Z</time>
      </trkpt>
      <trkpt lat="37.422347" lon="-122.166693">
        <ele>32.9</ele>
        <time>2015-02-16T18:35:14Z</time>
      </trkpt>
      <trkpt lat="37.422312" lon="-122.166765">
        <ele>33</ele>
        <time>2015-02-16T18:35:17Z</time>
      </trkpt>
      <trkpt lat="37.422299" lon="-122.166796">
        <ele>33</ele>
        <time>2015-02-16T18:35:18Z</time>
      </trkpt>
      <trkpt lat="37.422271" lon="-122.166845">
        <ele>33.1</ele>
        <time>2015-02-16T18:35:21Z</time>
      </trkpt>
      <trkpt lat="37.422235" lon="-122.166911">
        <ele>33.2</ele>
        <time>2015-02-16T18:35:23Z</time>
      </trkpt>
      <trkpt lat="37.422225" lon="-122.166931">
        <ele>33.3</ele>
        <time>2015-02-16T18:35:25Z</time>
      </trkpt>
      <trkpt lat="37.422198" lon="-122.16697">
        <ele>33.2</ele>
        <time>2015-02-16T18:35:27Z</time>
      </trkpt>
      <trkpt lat="37.422168" lon="-122.167006">
        <ele>33.3</ele>
        <time>2015-02-16T18:35:28Z</time>
      </trkpt>
      <trkpt lat="37.422129" lon="-122.16706">
        <ele>33.4</ele>
        <time>2015-02-16T18:35:30Z</time>
      </trkpt>
      <trkpt lat="37.422094" lon="-122.167095">
        <ele>33.5</ele>
        <time>2015-02-16T18:35:32Z</time>
      </trkpt>
      <trkpt lat="37.422074" lon="-122.167151">
        <ele>33.6</ele>
        <time>2015-02-16T18:35:34Z</time>
      </trkpt>
      <trkpt lat="37.422061" lon="-122.167187">
        <ele>33.7</ele>
        <time>2015-02-16T18:35:37Z</time>
      </trkpt>
      <trkpt lat="37.422034" lon="-122.167221">
        <ele>33.8</ele>
        <time>2015-02-16T18:35:40Z</time>
      </trkpt>
      <trkpt lat="37.422014" lon="-122.16727">
        <ele>33.8</ele>
        <time>2015-02-16T18:35:42Z</time>
      </trkpt>
      <trkpt lat="37.421987" lon="-122.167319">
        <ele>33.9</ele>
        <time>2015-02-16T18:35:44Z</time>
      </trkpt>
      <trkpt lat="37.421976" lon="-122.167353">
        <ele>34</ele>
        <time>2015-02-16T18:35:45Z</time>
      </trkpt>
      <trkpt lat="37.421971" lon="-122.167387">
        <ele>34</ele>
        <time>2015-02-16T18:35:46Z</time>
      </trkpt>
      <trkpt lat="37.421959" lon="-122.16745">
        <ele>34.1</ele>
        <time>2015-02-16T18:35:48Z</time>
      </trkpt>
      <trkpt lat="37.421953" lon="-122.167489">
        <ele>34.2</ele>
        <time>2015-02-16T18:35:49Z</time>
      </trkpt>
      <trkpt lat="37.421947" lon="-122.167523">
        <ele>34.2</ele>
        <time>2015-02-16T18:35:50Z</time>
      </trkpt>
      <trkpt lat="37.421929" lon="-122.167577">
        <ele>34.3</ele>
        <time>2015-02-16T18:35:52Z</time>
      </trkpt>
      <trkpt lat="37.421905" lon="-122.167623">
        <ele>34.5</ele>
        <time>2015-02-16T18:35:54Z</time>
      </trkpt>
      <trkpt lat="37.421881" lon="-122.167665">
        <ele>34.5</ele>
        <time>2015-02-16T18:35:56Z</time>
      </trkpt>
      <trkpt lat="37.421855" lon="-122.167706">
        <ele>34.6</ele>
        <time>2015-02-16T18:35:58Z</time>
      </trkpt>
      <trkpt lat="37.421824" lon="-122.167749">
        <ele>34.8</ele>
        <time>2015-02-16T18:36:00Z</time>
      </trkpt>
      <trkpt lat="37.421804" lon="-122.167779">
        <ele>34.8</ele>
        <time>2015-02-16T18:36:02Z</time>
      </trkpt>
      <trkpt lat="37.421768" lon="-122.167854">
        <ele>35</ele>
        <time>2015-02-16T18:36:05Z</time>
      </trkpt>
      <trkpt lat="37.421755" lon="-122.167876">
        <ele>35.1</ele>
        <time>2015-02-16T18:36:07Z</time>
      </trkpt>
      <trkpt lat="37.421714" lon="-122.167916">
        <ele>35.2</ele>
        <time>2015-02-16T18:36:09Z</time>
      </trkpt>
      <trkpt lat="37.421699" lon="-122.167929">
        <ele>35.2</ele>
        <time>2015-02-16T18:36:10Z</time>
      </trkpt>
      <trkpt lat="37.421663" lon="-122.167968">
        <ele>35.4</ele>
        <time>2015-02-16T18:36:12Z</time>
      </trkpt>
      <trkpt lat="37.421633" lon="-122.168011">
        <ele>35.5</ele>
        <time>2015-02-16T18:36:14Z</time>
      </trkpt>
      <trkpt lat="37.421607" lon="-122.168055">
        <ele>35.7</ele>
        <time>2015-02-16T18:36:17Z</time>
      </trkpt>
      <trkpt lat="37.421579" lon="-122.168102">
        <ele>35.8</ele>
        <time>2015-02-16T18:36:18Z</time>
      </trkpt>
      <trkpt lat="37.421559" lon="-122.168129">
        <ele>35.8</ele>
        <time>2015-02-16T18:36:19Z</time>
      </trkpt>
      <trkpt lat="37.421526" lon="-122.168175">
        <ele>36</ele>
        <time>2015-02-16T18:36:21Z</time>
      </trkpt>
      <trkpt lat="37.421496" lon="-122.168219">
        <ele>36.1</ele>
        <time>2015-02-16T18:36:23Z</time>
      </trkpt>
      <trkpt lat="37.421466" lon="-122.168244">
        <ele>36.1</ele>
        <time>2015-02-16T18:36:25Z</time>
      </trkpt>
      <trkpt lat="37.421424" lon="-122.16829">
        <ele>36.3</ele>
        <time>2015-02-16T18:36:27Z</time>
      </trkpt>
      <trkpt lat="37.421403" lon="-122.168311">
        <ele>36.3</ele>
        <time>2015-02-16T18:36:28Z</time>
      </trkpt>
      <trkpt lat="37.421374" lon="-122.168329">
        <ele>36.4</ele>
        <time>2015-02-16T18:36:30Z</time>
      </trkpt>
      <trkpt lat="37.42135" lon="-122.16837">
        <ele>36.4</ele>
        <time>2015-02-16T18:36:34Z</time>
      </trkpt>
      <trkpt lat="37.421321" lon="-122.168449">
        <ele>36.5</ele>
        <time>2015-02-16T18:36:36Z</time>
      </trkpt>
      <trkpt lat="37.421314" lon="-122.168473">
        <ele>36.5</ele>
        <time>2015-02-16T18:36:38Z</time>
      </trkpt>
      <trkpt lat="37.421286" lon="-122.168536">
        <ele>36.7</ele>
        <time>2015-02-16T18:36:40Z</time>
      </trkpt>
      <trkpt lat="37.421249" lon="-122.168598">
        <ele>36.8</ele>
        <time>2015-02-16T18:36:41Z</time>
      </trkpt>
      <trkpt lat="37.421214" lon="-122.168626">
        <ele>37</ele>
        <time>2015-02-16T18:36:44Z</time>
      </trkpt>
      <trkpt lat="37.421177" lon="-122.168646">
        <ele>37.1</ele>
        <time>2015-02-16T18:36:45Z</time>
      </trkpt>
      <trkpt lat="37.42114" lon="-122.168674">
        <ele>37.2</ele>
        <time>2015-02-16T18:36:48Z</time>
      </trkpt>
      <trkpt lat="37.421091" lon="-122.168696">
        <ele>37.3</ele>
        <time>2015-02-16T18:36:50Z</time>
      </trkpt>
      <trkpt lat="37.421072" lon="-122.168705">
        <ele>37.5</ele>
        <time>2015-02-16T18:36:51Z</time>
      </trkpt>
      <trkpt lat="37.421034" lon="-122.168708">
        <ele>37.6</ele>
        <time>2015-02-16T18:36:54Z</time>
      </trkpt>
      <trkpt lat="37.421005" lon="-122.168711">
        <ele>37.7</ele>
        <time>2015-02-16T18:36:56Z</time>
      </trkpt>
      <trkpt lat="37.420968" lon="-122.16871">
        <ele>37.8</ele>
        <time>2015-02-16T18:36:59Z</time>
      </trkpt>
      <trkpt lat="37.420924" lon="-122.16874">
        <ele>38</ele>
        <time>2015-02-16T18:37:01Z</time>
      </trkpt>
      <trkpt lat="37.420895" lon="-122.168769">
        <ele>38.1</ele>
        <time>2015-02-16T18:37:03Z</time>
      </trkpt>
      <trkpt lat="37.420881" lon="-122.1688">
        <ele>38.1</ele>
        <time>2015-02-16T18:37:04Z</time>
      </trkpt>
      <trkpt lat="37.420873" lon="-122.168836">
        <ele>38.1</ele>
        <time>2015-02-16T18:37:05Z</time>
      </trkpt>
      <trkpt lat="37.420868" lon="-122.168875">
        <ele>38.1</ele>
        <time>2015-02-16T18:37:06Z</time>
      </trkpt>
      <trkpt lat="37.420864" lon="-122.168916">
        <ele>38</ele>
        <time>2015-02-16T18:37:07Z</time>
      </trkpt>
      <trkpt lat="37.420858" lon="-122.168953">
        <ele>38</ele>
        <time>2015-02-16T18:37:08Z</time>
      </trkpt>
      <trkpt lat="37.420852" lon="-122.169014">
        <ele>38</ele>
        <time>2015-02-16T18:37:10Z</time>
      </trkpt>
      <trkpt lat="37.420836" lon="-122.169071">
        <ele>38.1</ele>
        <time>2015-02-16T18:37:12Z</time>
      </trkpt>
      <trkpt lat="37.420799" lon="-122.16913">
        <ele>38.1</ele>
        <time>2015-02-16T18:37:14Z</time>
      </trkpt>
      <trkpt lat="37.420778" lon="-122.169161">
        <ele>38.2</ele>
        <time>2015-02-16T18:37:15Z</time>
      </trkpt>
      <trkpt lat="37.420757" lon="-122.169194">
        <ele>40</ele>
        <time>2015-02-16T18:37:16Z</time>
      </trkpt>
      <trkpt lat="37.420725" lon="-122.16922">
        <ele>38</ele>
        <time>2015-02-16T18:37:19Z</time>
      </trkpt>
      <trkpt lat="37.420674" lon="-122.169244">
        <ele>38.2</ele>
        <time>2015-02-16T18:37:22Z</time>
      </trkpt>
      <trkpt lat="37.420664" lon="-122.169264">
        <ele>38.2</ele>
        <time>2015-02-16T18:37:23Z</time>
      </trkpt>
      <trkpt lat="37.420645" lon="-122.169309">
        <ele>38.2</ele>
        <time>2015-02-16T18:37:25Z</time>
      </trkpt>
      <trkpt lat="37.420619" lon="-122.169367">
        <ele>38.4</ele>
        <time>2015-02-16T18:37:28Z</time>
      </trkpt>
      <trkpt lat="37.420588" lon="-122.169421">
        <ele>38.6</ele>
        <time>2015-02-16T18:37:30Z</time>
      </trkpt>
      <trkpt lat="37.420546" lon="-122.169477">
        <ele>38.7</ele>
        <time>2015-02-16T18:37:31Z</time>
      </trkpt>
      <trkpt lat="37.420519" lon="-122.169512">
        <ele>38.9</ele>
        <time>2015-02-16T18:37:34Z</time>
      </trkpt>
      <trkpt lat="37.420472" lon="-122.16957">
        <ele>39.1</ele>
        <time>2015-02-16T18:37:36Z</time>
      </trkpt>
      <trkpt lat="37.42046" lon="-122.169586">
        <ele>39.2</ele>
        <time>2015-02-16T18:37:37Z</time>
      </trkpt>
      <trkpt lat="37.420437" lon="-122.169622">
        <ele>39.3</ele>
        <time>2015-02-16T18:37:39Z</time>
      </trkpt>
      <trkpt lat="37.420409" lon="-122.169668">
        <ele>39.4</ele>
        <time>2015-02-16T18:37:41Z</time>
      </trkpt>
      <trkpt lat="37.420379" lon="-122.169696">
        <ele>39.4</ele>
        <time>2015-02-16T18:37:43Z</time>
      </trkpt>
      <trkpt lat="37.420349" lon="-122.16973">
        <ele>39.5</ele>
        <time>2015-02-16T18:37:45Z</time>
      </trkpt>
      <trkpt lat="37.420315" lon="-122.169767">
        <ele>39.7</ele>
        <time>2015-02-16T18:37:47Z</time>
      </trkpt>
      <trkpt lat="37.420289" lon="-122.169795">
        <ele>39.9</ele>
        <time>2015-02-16T18:37:49Z</time>
      </trkpt>
      <trkpt lat="37.420253" lon="-122.16983">
        <ele>40</ele>
        <time>2015-02-16T18:37:51Z</time>
      </trkpt>
      <trkpt lat="37.42022" lon="-122.169876">
        <ele>40</ele>
        <time>2015-02-16T18:37:53Z</time>
      </trkpt>
      <trkpt lat="37.420192" lon="-122.169909">
        <ele>39.9</ele>
        <time>2015-02-16T18:37:55Z</time>
      </trkpt>
      <trkpt lat="37.420138" lon="-122.169943">
        <ele>39.6</ele>
        <time>2015-02-16T18:37:58Z</time>
      </trkpt>
      <trkpt lat="37.420125" lon="-122.169952">
        <ele>39.6</ele>
        <time>2015-02-16T18:37:59Z</time>
      </trkpt>
      <trkpt lat="37.420085" lon="-122.169989">
        <ele>39.6</ele>
        <time>2015-02-16T18:38:02Z</time>
      </trkpt>
      <trkpt lat="37.420059" lon="-122.170031">
        <ele>39.8</ele>
        <time>2015-02-16T18:38:05Z</time>
      </trkpt>
      <trkpt lat="37.420041" lon="-122.170069">
        <ele>40.1</ele>
        <time>2015-02-16T18:38:06Z</time>
      </trkpt>
      <trkpt lat="37.42001" lon="-122.170142">
        <ele>40.3</ele>
        <time>2015-02-16T18:38:08Z</time>
      </trkpt>
      <trkpt lat="37.419994" lon="-122.170178">
        <ele>40.4</ele>
        <time>2015-02-16T18:38:11Z</time>
      </trkpt>
      <trkpt lat="37.419977" lon="-122.170214">
        <ele>40.6</ele>
        <time>2015-02-16T18:38:12Z</time>
      </trkpt>
      <trkpt lat="37.419961" lon="-122.170245">
        <ele>40.7</ele>
        <time>2015-02-16T18:38:13Z</time>
      </trkpt>
      <trkpt lat="37.419946" lon="-122.170274">
        <ele>40.9</ele>
        <time>2015-02-16T18:38:15Z</time>
      </trkpt>
      <trkpt lat="37.419914" lon="-122.170331">
        <ele>41.2</ele>
        <time>2015-02-16T18:38:17Z</time>
      </trkpt>
      <trkpt lat="37.419897" lon="-122.170351">
        <ele>41.2</ele>
        <time>2015-02-16T18:38:18Z</time>
      </trkpt>
      <trkpt lat="37.419871" lon="-122.170381">
        <ele>41.3</ele>
        <time>2015-02-16T18:38:20Z</time>
      </trkpt>
      <trkpt lat="37.419851" lon="-122.170422">
        <ele>41.5</ele>
        <time>2015-02-16T18:38:22Z</time>
      </trkpt>
      <trkpt lat="37.419828" lon="-122.170473">
        <ele>41.7</ele>
        <time>2015-02-16T18:38:24Z</time>
      </trkpt>
      <trkpt lat="37.419799" lon="-122.170525">
        <ele>41.2</ele>
        <time>2015-02-16T18:38:26Z</time>
      </trkpt>
      <trkpt lat="37.419766" lon="-122.170566">
        <ele>40.2</ele>
        <time>2015-02-16T18:38:28Z</time>
      </trkpt>
      <trkpt lat="37.419735" lon="-122.170622">
        <ele>39.8</ele>
        <time>2015-02-16T18:38:30Z</time>
      </trkpt>
      <trkpt lat="37.419715" lon="-122.170683">
        <ele>39.9</ele>
        <time>2015-02-16T18:38:32Z</time>
      </trkpt>
      <trkpt lat="37.419701" lon="-122.170727">
        <ele>40</ele>
        <time>2015-02-16T18:38:33Z</time>
      </trkpt>
      <trkpt lat="37.419686" lon="-122.170782">
        <ele>39.9</ele>
        <time>2015-02-16T18:38:35Z</time>
      </trkpt>
      <trkpt lat="37.419672" lon="-122.170832">
        <ele>40</ele>
        <time>2015-02-16T18:38:38Z</time>
      </trkpt>
      <trkpt lat="37.419656" lon="-122.170863">
        <ele>40.1</ele>
        <time>2015-02-16T18:38:39Z</time>
      </trkpt>
      <trkpt lat="37.419629" lon="-122.1709">
        <ele>40.2</ele>
        <time>2015-02-16T18:38:41Z</time>
      </trkpt>
      <trkpt lat="37.419608" lon="-122.170937">
        <ele>40.3</ele>
        <time>2015-02-16T18:38:44Z</time>
      </trkpt>
      <trkpt lat="37.419595" lon="-122.171015">
        <ele>40.4</ele>
        <time>2015-02-16T18:38:48Z</time>
      </trkpt>
      <trkpt lat="37.419585" lon="-122.171046">
        <ele>40.5</ele>
        <time>2015-02-16T18:38:50Z</time>
      </trkpt>
      <trkpt lat="37.419573" lon="-122.171079">
        <ele>40.5</ele>
        <time>2015-02-16T18:38:51Z</time>
      </trkpt>
      <trkpt lat="37.419558" lon="-122.171131">
        <ele>40.6</ele>
        <time>2015-02-16T18:38:53Z</time>
      </trkpt>
      <trkpt lat="37.419553" lon="-122.171154">
        <ele>40.7</ele>
        <time>2015-02-16T18:38:54Z</time>
      </trkpt>
      <trkpt lat="37.41954" lon="-122.17121">
        <ele>40.8</ele>
        <time>2015-02-16T18:38:57Z</time>
      </trkpt>
      <trkpt lat="37.419529" lon="-122.171261">
        <ele>41.1</ele>
        <time>2015-02-16T18:38:58Z</time>
      </trkpt>
      <trkpt lat="37.419524" lon="-122.171295">
        <ele>41.2</ele>
        <time>2015-02-16T18:39:01Z</time>
      </trkpt>
      <trkpt lat="37.419515" lon="-122.17136">
        <ele>41.4</ele>
        <time>2015-02-16T18:39:03Z</time>
      </trkpt>
      <trkpt lat="37.419512" lon="-122.171394">
        <ele>41.5</ele>
        <time>2015-02-16T18:39:04Z</time>
      </trkpt>
      <trkpt lat="37.419508" lon="-122.171455">
        <ele>41.8</ele>
        <time>2015-02-16T18:39:06Z</time>
      </trkpt>
      <trkpt lat="37.4195" lon="-122.171502">
        <ele>42.1</ele>
        <time>2015-02-16T18:39:08Z</time>
      </trkpt>
      <trkpt lat="37.419487" lon="-122.17156">
        <ele>42.3</ele>
        <time>2015-02-16T18:39:10Z</time>
      </trkpt>
      <trkpt lat="37.419474" lon="-122.171596">
        <ele>42.5</ele>
        <time>2015-02-16T18:39:11Z</time>
      </trkpt>
      <trkpt lat="37.419457" lon="-122.171654">
        <ele>42.5</ele>
        <time>2015-02-16T18:39:13Z</time>
      </trkpt>
      <trkpt lat="37.419448" lon="-122.171715">
        <ele>42.6</ele>
        <time>2015-02-16T18:39:15Z</time>
      </trkpt>
      <trkpt lat="37.419444" lon="-122.171768">
        <ele>42.7</ele>
        <time>2015-02-16T18:39:17Z</time>
      </trkpt>
      <trkpt lat="37.419439" lon="-122.171815">
        <ele>42.8</ele>
        <time>2015-02-16T18:39:19Z</time>
      </trkpt>
      <trkpt lat="37.419428" lon="-122.171872">
        <ele>42.8</ele>
        <time>2015-02-16T18:39:21Z</time>
      </trkpt>
      <trkpt lat="37.419415" lon="-122.171938">
        <ele>42.8</ele>
        <time>2015-02-16T18:39:23Z</time>
      </trkpt>
      <trkpt lat="37.419402" lon="-122.172002">
        <ele>42.7</ele>
        <time>2015-02-16T18:39:25Z</time>
      </trkpt>
      <trkpt lat="37.419394" lon="-122.172038">
        <ele>42.8</ele>
        <time>2015-02-16T18:39:26Z</time>
      </trkpt>
      <trkpt lat="37.419386" lon="-122.172073">
        <ele>43</ele>
        <time>2015-02-16T18:39:27Z</time>
      </trkpt>
      <trkpt lat="37.41937" lon="-122.172126">
        <ele>43.3</ele>
        <time>2015-02-16T18:39:29Z</time>
      </trkpt>
      <trkpt lat="37.419356" lon="-122.172178">
        <ele>43.7</ele>
        <time>2015-02-16T18:39:32Z</time>
      </trkpt>
      <trkpt lat="37.419342" lon="-122.172227">
        <ele>43.9</ele>
        <time>2015-02-16T18:39:34Z</time>
      </trkpt>
      <trkpt lat="37.419328" lon="-122.172278">
        <ele>43.9</ele>
        <time>2015-02-16T18:39:35Z</time>
      </trkpt>
      <trkpt lat="37.419317" lon="-122.172335">
        <ele>43.8</ele>
        <time>2015-02-16T18:39:37Z</time>
      </trkpt>
      <trkpt lat="37.419307" lon="-122.172396">
        <ele>43.9</ele>
        <time>2015-02-16T18:39:39Z</time>
      </trkpt>
      <trkpt lat="37.419297" lon="-122.17246">
        <ele>44</ele>
        <time>2015-02-16T18:39:41Z</time>
      </trkpt>
      <trkpt lat="37.419283" lon="-122.172533">
        <ele>44.1</ele>
        <time>2015-02-16T18:39:44Z</time>
      </trkpt>
      <trkpt lat="37.419277" lon="-122.172567">
        <ele>44.3</ele>
        <time>2015-02-16T18:39:45Z</time>
      </trkpt>
      <trkpt lat="37.419272" lon="-122.172602">
        <ele>44.5</ele>
        <time>2015-02-16T18:39:47Z</time>
      </trkpt>
      <trkpt lat="37.419255" lon="-122.172687">
        <ele>44.6</ele>
        <time>2015-02-16T18:39:49Z</time>
      </trkpt>
      <trkpt lat="37.41925" lon="-122.172721">
        <ele>44.6</ele>
        <time>2015-02-16T18:39:51Z</time>
      </trkpt>
      <trkpt lat="37.419241" lon="-122.172777">
        <ele>44.8</ele>
        <time>2015-02-16T18:39:53Z</time>
      </trkpt>
      <trkpt lat="37.419229" lon="-122.172842">
        <ele>45.1</ele>
        <time>2015-02-16T18:39:55Z</time>
      </trkpt>
      <trkpt lat="37.419224" lon="-122.172869">
        <ele>45.1</ele>
        <time>2015-02-16T18:39:56Z</time>
      </trkpt>
      <trkpt lat="37.419213" lon="-122.172921">
        <ele>45.2</ele>
        <time>2015-02-16T18:39:59Z</time>
      </trkpt>
      <trkpt lat="37.419201" lon="-122.17298">
        <ele>45.4</ele>
        <time>2015-02-16T18:40:00Z</time>
      </trkpt>
      <trkpt lat="37.419207" lon="-122.173034">
        <ele>45.6</ele>
        <time>2015-02-16T18:40:02Z</time>
      </trkpt>
      <trkpt lat="37.419212" lon="-122.173069">
        <ele>45.5</ele>
        <time>2015-02-16T18:40:05Z</time>
      </trkpt>
      <trkpt lat="37.419214" lon="-122.173123">
        <ele>45.7</ele>
        <time>2015-02-16T18:40:06Z</time>
      </trkpt>
      <trkpt lat="37.419215" lon="-122.173178">
        <ele>46</ele>
        <time>2015-02-16T18:40:09Z</time>
      </trkpt>
      <trkpt lat="37.419203" lon="-122.173266">
        <ele>46.3</ele>
        <time>2015-02-16T18:40:11Z</time>
      </trkpt>
      <trkpt lat="37.419199" lon="-122.173317">
        <ele>46.4</ele>
        <time>2015-02-16T18:40:14Z</time>
      </trkpt>
      <trkpt lat="37.419195" lon="-122.173383">
        <ele>46.6</ele>
        <time>2015-02-16T18:40:16Z</time>
      </trkpt>
      <trkpt lat="37.419193" lon="-122.173413">
        <ele>46.7</ele>
        <time>2015-02-16T18:40:18Z</time>
      </trkpt>
      <trkpt lat="37.419172" lon="-122.173479">
        <ele>46.6</ele>
        <time>2015-02-16T18:40:20Z</time>
      </trkpt>
      <trkpt lat="37.419158" lon="-122.1735">
        <ele>46.6</ele>
        <time>2015-02-16T18:40:22Z</time>
      </trkpt>
      <trkpt lat="37.419101" lon="-122.17356">
        <ele>46.5</ele>
        <time>2015-02-16T18:40:24Z</time>
      </trkpt>
      <trkpt lat="37.419079" lon="-122.17357">
        <ele>46.5</ele>
        <time>2015-02-16T18:40:25Z</time>
      </trkpt>
      <trkpt lat="37.41906" lon="-122.173575">
        <ele>46.6</ele>
        <time>2015-02-16T18:40:27Z</time>
      </trkpt>
      <trkpt lat="37.419025" lon="-122.173575">
        <ele>46.5</ele>
        <time>2015-02-16T18:40:29Z</time>
      </trkpt>
      <trkpt lat="37.418987" lon="-122.173579">
        <ele>46.5</ele>
        <time>2015-02-16T18:40:31Z</time>
      </trkpt>
      <trkpt lat="37.418946" lon="-122.173586">
        <ele>46.7</ele>
        <time>2015-02-16T18:40:33Z</time>
      </trkpt>
      <trkpt lat="37.418907" lon="-122.173591">
        <ele>47</ele>
        <time>2015-02-16T18:40:35Z</time>
      </trkpt>
      <trkpt lat="37.418868" lon="-122.173611">
        <ele>47</ele>
        <time>2015-02-16T18:40:37Z</time>
      </trkpt>
      <trkpt lat="37.418826" lon="-122.173621">
        <ele>47</ele>
        <time>2015-02-16T18:40:39Z</time>
      </trkpt>
      <trkpt lat="37.418793" lon="-122.173619">
        <ele>47</ele>
        <time>2015-02-16T18:40:40Z</time>
      </trkpt>
      <trkpt lat="37.418765" lon="-122.173618">
        <ele>47</ele>
        <time>2015-02-16T18:40:41Z</time>
      </trkpt>
      <trkpt lat="37.418721" lon="-122.173626">
        <ele>46.9</ele>
        <time>2015-02-16T18:40:43Z</time>
      </trkpt>
      <trkpt lat="37.418674" lon="-122.17365">
        <ele>46.9</ele>
        <time>2015-02-16T18:40:46Z</time>
      </trkpt>
      <trkpt lat="37.418618" lon="-122.173669">
        <ele>46.9</ele>
        <time>2015-02-16T18:40:48Z</time>
      </trkpt>
      <trkpt lat="37.418602" lon="-122.173676">
        <ele>46.9</ele>
        <time>2015-02-16T18:40:50Z</time>
      </trkpt>
      <trkpt lat="37.418558" lon="-122.173695">
        <ele>46.9</ele>
        <time>2015-02-16T18:40:52Z</time>
      </trkpt>
      <trkpt lat="37.418542" lon="-122.173703">
        <ele>47</ele>
        <time>2015-02-16T18:40:54Z</time>
      </trkpt>
      <trkpt lat="37.418503" lon="-122.17372">
        <ele>47.1</ele>
        <time>2015-02-16T18:40:56Z</time>
      </trkpt>
      <trkpt lat="37.41846" lon="-122.173739">
        <ele>47.2</ele>
        <time>2015-02-16T18:40:57Z</time>
      </trkpt>
      <trkpt lat="37.418414" lon="-122.173764">
        <ele>47.4</ele>
        <time>2015-02-16T18:41:00Z</time>
      </trkpt>
      <trkpt lat="37.418375" lon="-122.173793">
        <ele>47.6</ele>
        <time>2015-02-16T18:41:01Z</time>
      </trkpt>
      <trkpt lat="37.418333" lon="-122.173816">
        <ele>47.7</ele>
        <time>2015-02-16T18:41:04Z</time>
      </trkpt>
      <trkpt lat="37.418307" lon="-122.173832">
        <ele>47.7</ele>
        <time>2015-02-16T18:41:05Z</time>
      </trkpt>
      <trkpt lat="37.418266" lon="-122.173866">
        <ele>48</ele>
        <time>2015-02-16T18:41:06Z</time>
      </trkpt>
      <trkpt lat="37.418248" lon="-122.173885">
        <ele>48.1</ele>
        <time>2015-02-16T18:41:07Z</time>
      </trkpt>
      <trkpt lat="37.418189" lon="-122.173927">
        <ele>48.1</ele>
        <time>2015-02-16T18:41:10Z</time>
      </trkpt>
      <trkpt lat="37.418171" lon="-122.173943">
        <ele>48.2</ele>
        <time>2015-02-16T18:41:11Z</time>
      </trkpt>
      <trkpt lat="37.418135" lon="-122.173967">
        <ele>48.3</ele>
        <time>2015-02-16T18:41:14Z</time>
      </trkpt>
      <trkpt lat="37.41809" lon="-122.173984">
        <ele>48.4</ele>
        <time>2015-02-16T18:41:15Z</time>
      </trkpt>
      <trkpt lat="37.418047" lon="-122.173997">
        <ele>48.5</ele>
        <time>2015-02-16T18:41:17Z</time>
      </trkpt>
      <trkpt lat="37.418005" lon="-122.174026">
        <ele>48.6</ele>
        <time>2015-02-16T18:41:20Z</time>
      </trkpt>
      <trkpt lat="37.417992" lon="-122.174034">
        <ele>48.7</ele>
        <time>2015-02-16T18:41:21Z</time>
      </trkpt>
      <trkpt lat="37.417945" lon="-122.174069">
        <ele>48.7</ele>
        <time>2015-02-16T18:41:24Z</time>
      </trkpt>
      <trkpt lat="37.417932" lon="-122.174078">
        <ele>48.8</ele>
        <time>2015-02-16T18:41:26Z</time>
      </trkpt>
      <trkpt lat="37.417894" lon="-122.174098">
        <ele>48.8</ele>
        <time>2015-02-16T18:41:27Z</time>
      </trkpt>
      <trkpt lat="37.41786" lon="-122.174106">
        <ele>48.8</ele>
        <time>2015-02-16T18:41:30Z</time>
      </trkpt>
      <trkpt lat="37.417824" lon="-122.174108">
        <ele>49</ele>
        <time>2015-02-16T18:41:32Z</time>
      </trkpt>
      <trkpt lat="37.41778" lon="-122.17412">
        <ele>49</ele>
        <time>2015-02-16T18:41:33Z</time>
      </trkpt>
      <trkpt lat="37.417743" lon="-122.174127">
        <ele>48.9</ele>
        <time>2015-02-16T18:41:36Z</time>
      </trkpt>
      <trkpt lat="37.417716" lon="-122.17414">
        <ele>49</ele>
        <time>2015-02-16T18:41:37Z</time>
      </trkpt>
      <trkpt lat="37.417671" lon="-122.174164">
        <ele>49.1</ele>
        <time>2015-02-16T18:41:38Z</time>
      </trkpt>
      <trkpt lat="37.417611" lon="-122.174167">
        <ele>49.3</ele>
        <time>2015-02-16T18:41:41Z</time>
      </trkpt>
      <trkpt lat="37.417587" lon="-122.17416">
        <ele>49.3</ele>
        <time>2015-02-16T18:41:42Z</time>
      </trkpt>
      <trkpt lat="37.417543" lon="-122.174144">
        <ele>49.4</ele>
        <time>2015-02-16T18:41:45Z</time>
      </trkpt>
      <trkpt lat="37.417508" lon="-122.174138">
        <ele>49.6</ele>
        <time>2015-02-16T18:41:47Z</time>
      </trkpt>
      <trkpt lat="37.417465" lon="-122.174129">
        <ele>49.8</ele>
        <time>2015-02-16T18:41:48Z</time>
      </trkpt>
      <trkpt lat="37.417435" lon="-122.174132">
        <ele>49.9</ele>
        <time>2015-02-16T18:41:49Z</time>
      </trkpt>
      <trkpt lat="37.4174" lon="-122.174152">
        <ele>50.1</ele>
        <time>2015-02-16T18:41:52Z</time>
      </trkpt>
      <trkpt lat="37.417359" lon="-122.17417">
        <ele>50.7</ele>
        <time>2015-02-16T18:41:54Z</time>
      </trkpt>
      <trkpt lat="37.417316" lon="-122.174195">
        <ele>51.5</ele>
        <time>2015-02-16T18:41:56Z</time>
      </trkpt>
      <trkpt lat="37.417273" lon="-122.174214">
        <ele>52.1</ele>
        <time>2015-02-16T18:41:58Z</time>
      </trkpt>
      <trkpt lat="37.417218" lon="-122.174195">
        <ele>52.5</ele>
        <time>2015-02-16T18:42:01Z</time>
      </trkpt>
      <trkpt lat="37.417202" lon="-122.174176">
        <ele>52.5</ele>
        <time>2015-02-16T18:42:02Z</time>
      </trkpt>
      <trkpt lat="37.417179" lon="-122.174129">
        <ele>52.6</ele>
        <time>2015-02-16T18:42:04Z</time>
      </trkpt>
      <trkpt lat="37.41716" lon="-122.174072">
        <ele>52.6</ele>
        <time>2015-02-16T18:42:06Z</time>
      </trkpt>
      <trkpt lat="37.417145" lon="-122.174037">
        <ele>52.6</ele>
        <time>2015-02-16T18:42:09Z</time>
      </trkpt>
      <trkpt lat="37.417118" lon="-122.174004">
        <ele>52.7</ele>
        <time>2015-02-16T18:42:10Z</time>
      </trkpt>
      <trkpt lat="37.41708" lon="-122.173934">
        <ele>53</ele>
        <time>2015-02-16T18:42:13Z</time>
      </trkpt>
      <trkpt lat="37.417069" lon="-122.173905">
        <ele>53.1</ele>
        <time>2015-02-16T18:42:14Z</time>
      </trkpt>
      <trkpt lat="37.417041" lon="-122.173855">
        <ele>53.4</ele>
        <time>2015-02-16T18:42:17Z</time>
      </trkpt>
      <trkpt lat="37.416982" lon="-122.173786">
        <ele>53.8</ele>
        <time>2015-02-16T18:42:19Z</time>
      </trkpt>
      <trkpt lat="37.416949" lon="-122.173761">
        <ele>54.3</ele>
        <time>2015-02-16T18:42:22Z</time>
      </trkpt>
      <trkpt lat="37.416902" lon="-122.173706">
        <ele>54.8</ele>
        <time>2015-02-16T18:42:24Z</time>
      </trkpt>
      <trkpt lat="37.416892" lon="-122.173684">
        <ele>54.8</ele>
        <time>2015-02-16T18:42:26Z</time>
      </trkpt>
      <trkpt lat="37.416865" lon="-122.173637">
        <ele>55.1</ele>
        <time>2015-02-16T18:42:28Z</time>
      </trkpt>
      <trkpt lat="37.416842" lon="-122.173597">
        <ele>55.2</ele>
        <time>2015-02-16T18:42:29Z</time>
      </trkpt>
      <trkpt lat="37.416828" lon="-122.173536">
        <ele>55.3</ele>
        <time>2015-02-16T18:42:32Z</time>
      </trkpt>
      <trkpt lat="37.41682" lon="-122.173512">
        <ele>55.3</ele>
        <time>2015-02-16T18:42:33Z</time>
      </trkpt>
      <trkpt lat="37.416771" lon="-122.173462">
        <ele>55.6</ele>
        <time>2015-02-16T18:42:37Z</time>
      </trkpt>
      <trkpt lat="37.416755" lon="-122.173453">
        <ele>55.8</ele>
        <time>2015-02-16T18:42:38Z</time>
      </trkpt>
      <trkpt lat="37.416699" lon="-122.173402">
        <ele>56.6</ele>
        <time>2015-02-16T18:42:41Z</time>
      </trkpt>
      <trkpt lat="37.41668" lon="-122.17338">
        <ele>56.8</ele>
        <time>2015-02-16T18:42:42Z</time>
      </trkpt>
      <trkpt lat="37.416663" lon="-122.173353">
        <ele>56.9</ele>
        <time>2015-02-16T18:42:43Z</time>
      </trkpt>
      <trkpt lat="37.416635" lon="-122.173295">
        <ele>57.2</ele>
        <time>2015-02-16T18:42:46Z</time>
      </trkpt>
      <trkpt lat="37.416609" lon="-122.17324">
        <ele>57.8</ele>
        <time>2015-02-16T18:42:47Z</time>
      </trkpt>
      <trkpt lat="37.416595" lon="-122.173216">
        <ele>58.1</ele>
        <time>2015-02-16T18:42:48Z</time>
      </trkpt>
      <trkpt lat="37.416563" lon="-122.173183">
        <ele>58.2</ele>
        <time>2015-02-16T18:42:50Z</time>
      </trkpt>
      <trkpt lat="37.41653" lon="-122.173138">
        <ele>58.5</ele>
        <time>2015-02-16T18:42:53Z</time>
      </trkpt>
      <trkpt lat="37.416495" lon="-122.173096">
        <ele>58.7</ele>
        <time>2015-02-16T18:42:54Z</time>
      </trkpt>
      <trkpt lat="37.416459" lon="-122.173063">
        <ele>58.2</ele>
        <time>2015-02-16T18:42:56Z</time>
      </trkpt>
      <trkpt lat="37.41642" lon="-122.173022">
        <ele>58.3</ele>
        <time>2015-02-16T18:42:58Z</time>
      </trkpt>
      <trkpt lat="37.416378" lon="-122.172977">
        <ele>58.4</ele>
        <time>2015-02-16T18:43:00Z</time>
      </trkpt>
      <trkpt lat="37.416351" lon="-122.172956">
        <ele>58.2</ele>
        <time>2015-02-16T18:43:01Z</time>
      </trkpt>
      <trkpt lat="37.416318" lon="-122.172939">
        <ele>58.3</ele>
        <time>2015-02-16T18:43:02Z</time>
      </trkpt>
      <trkpt lat="37.41628" lon="-122.172887">
        <ele>58.3</ele>
        <time>2015-02-16T18:43:04Z</time>
      </trkpt>
      <trkpt lat="37.416258" lon="-122.172837">
        <ele>58.3</ele>
        <time>2015-02-16T18:43:06Z</time>
      </trkpt>
      <trkpt lat="37.416232" lon="-122.172792">
        <ele>58.3</ele>
        <time>2015-02-16T18:43:08Z</time>
      </trkpt>
      <trkpt lat="37.416206" lon="-122.17275">
        <ele>58.2</ele>
        <time>2015-02-16T18:43:10Z</time>
      </trkpt>
      <trkpt lat="37.416183" lon="-122.172711">
        <ele>58.2</ele>
        <time>2015-02-16T18:43:12Z</time>
      </trkpt>
      <trkpt lat="37.416153" lon="-122.172671">
        <ele>58.1</ele>
        <time>2015-02-16T18:43:14Z</time>
      </trkpt>
      <trkpt lat="37.416123" lon="-122.172635">
        <ele>58.2</ele>
        <time>2015-02-16T18:43:16Z</time>
      </trkpt>
      <trkpt lat="37.416095" lon="-122.172599">
        <ele>58.1</ele>
        <time>2015-02-16T18:43:18Z</time>
      </trkpt>
      <trkpt lat="37.41607" lon="-122.172563">
        <ele>58.1</ele>
        <time>2015-02-16T18:43:20Z</time>
      </trkpt>
      <trkpt lat="37.416043" lon="-122.172525">
        <ele>58</ele>
        <time>2015-02-16T18:43:22Z</time>
      </trkpt>
      <trkpt lat="37.416025" lon="-122.172497">
        <ele>58</ele>
        <time>2015-02-16T18:43:24Z</time>
      </trkpt>
      <trkpt lat="37.416003" lon="-122.172458">
        <ele>58</ele>
        <time>2015-02-16T18:43:27Z</time>
      </trkpt>
      <trkpt lat="37.41598" lon="-122.172427">
        <ele>57.8</ele>
        <time>2015-02-16T18:43:28Z</time>
      </trkpt>
      <trkpt lat="37.415956" lon="-122.172398">
        <ele>57.6</ele>
        <time>2015-02-16T18:43:30Z</time>
      </trkpt>
      <trkpt lat="37.415934" lon="-122.17237">
        <ele>57.4</ele>
        <time>2015-02-16T18:43:32Z</time>
      </trkpt>
      <trkpt lat="37.415914" lon="-122.172339">
        <ele>57.3</ele>
        <time>2015-02-16T18:43:34Z</time>
      </trkpt>
      <trkpt lat="37.415884" lon="-122.172306">
        <ele>57.3</ele>
        <time>2015-02-16T18:43:36Z</time>
      </trkpt>
      <trkpt lat="37.415863" lon="-122.172275">
        <ele>57.3</ele>
        <time>2015-02-16T18:43:38Z</time>
      </trkpt>
      <trkpt lat="37.415823" lon="-122.172232">
        <ele>57.2</ele>
        <time>2015-02-16T18:43:41Z</time>
      </trkpt>
      <trkpt lat="37.415813" lon="-122.172216">
        <ele>57.2</ele>
        <time>2015-02-16T18:43:43Z</time>
      </trkpt>
      <trkpt lat="37.415789" lon="-122.172174">
        <ele>57</ele>
        <time>2015-02-16T18:43:45Z</time>
      </trkpt>
      <trkpt lat="37.415772" lon="-122.172137">
        <ele>56.6</ele>
        <time>2015-02-16T18:43:47Z</time>
      </trkpt>
      <trkpt lat="37.415747" lon="-122.172101">
        <ele>56.3</ele>
        <time>2015-02-16T18:43:49Z</time>
      </trkpt>
      <trkpt lat="37.415712" lon="-122.172062">
        <ele>56.2</ele>
        <time>2015-02-16T18:43:50Z</time>
      </trkpt>
      <trkpt lat="37.415684" lon="-122.172034">
        <ele>56.4</ele>
        <time>2015-02-16T18:43:53Z</time>
      </trkpt>
      <trkpt lat="37.415656" lon="-122.171981">
        <ele>56.6</ele>
        <time>2015-02-16T18:43:56Z</time>
      </trkpt>
      <trkpt lat="37.41565" lon="-122.171966">
        <ele>56.6</ele>
        <time>2015-02-16T18:43:57Z</time>
      </trkpt>
      <trkpt lat="37.415609" lon="-122.171922">
        <ele>56.6</ele>
        <time>2015-02-16T18:44:00Z</time>
      </trkpt>
      <trkpt lat="37.415592" lon="-122.1719">
        <ele>56.6</ele>
        <time>2015-02-16T18:44:01Z</time>
      </trkpt>
      <trkpt lat="37.415565" lon="-122.171861">
        <ele>56.6</ele>
        <time>2015-02-16T18:44:03Z</time>
      </trkpt>
      <trkpt lat="37.415537" lon="-122.171821">
        <ele>56.5</ele>
        <time>2015-02-16T18:44:06Z</time>
      </trkpt>
      <trkpt lat="37.415521" lon="-122.171786">
        <ele>56.4</ele>
        <time>2015-02-16T18:44:07Z</time>
      </trkpt>
      <trkpt lat="37.4155" lon="-122.171747">
        <ele>56.2</ele>
        <time>2015-02-16T18:44:09Z</time>
      </trkpt>
      <trkpt lat="37.415485" lon="-122.171718">
        <ele>56.1</ele>
        <time>2015-02-16T18:44:11Z</time>
      </trkpt>
      <trkpt lat="37.415452" lon="-122.171679">
        <ele>56.1</ele>
        <time>2015-02-16T18:44:13Z</time>
      </trkpt>
      <trkpt lat="37.415426" lon="-122.171644">
        <ele>56.1</ele>
        <time>2015-02-16T18:44:16Z</time>
      </trkpt>
      <trkpt lat="37.415407" lon="-122.171594">
        <ele>56</ele>
        <time>2015-02-16T18:44:17Z</time>
      </trkpt>
      <trkpt lat="37.415383" lon="-122.171548">
        <ele>56</ele>
        <time>2015-02-16T18:44:20Z</time>
      </trkpt>
      <trkpt lat="37.415359" lon="-122.171507">
        <ele>55.9</ele>
        <time>2015-02-16T18:44:21Z</time>
      </trkpt>
      <trkpt lat="37.415322" lon="-122.171456">
        <ele>56</ele>
        <time>2015-02-16T18:44:24Z</time>
      </trkpt>
      <trkpt lat="37.415287" lon="-122.171415">
        <ele>56.3</ele>
        <time>2015-02-16T18:44:26Z</time>
      </trkpt>
      <trkpt lat="37.415245" lon="-122.171364">
        <ele>56.3</ele>
        <time>2015-02-16T18:44:28Z</time>
      </trkpt>
      <trkpt lat="37.415233" lon="-122.171351">
        <ele>56.3</ele>
        <time>2015-02-16T18:44:30Z</time>
      </trkpt>
      <trkpt lat="37.415211" lon="-122.171327">
        <ele>56.3</ele>
        <time>2015-02-16T18:44:31Z</time>
      </trkpt>
      <trkpt lat="37.415193" lon="-122.171277">
        <ele>56.1</ele>
        <time>2015-02-16T18:44:33Z</time>
      </trkpt>
      <trkpt lat="37.415156" lon="-122.171197">
        <ele>56.2</ele>
        <time>2015-02-16T18:44:36Z</time>
      </trkpt>
      <trkpt lat="37.415141" lon="-122.171171">
        <ele>56.3</ele>
        <time>2015-02-16T18:44:37Z</time>
      </trkpt>
      <trkpt lat="37.415107" lon="-122.171119">
        <ele>56.4</ele>
        <time>2015-02-16T18:44:40Z</time>
      </trkpt>
      <trkpt lat="37.415061" lon="-122.17107">
        <ele>56.5</ele>
        <time>2015-02-16T18:44:41Z</time>
      </trkpt>
      <trkpt lat="37.415038" lon="-122.171046">
        <ele>56.5</ele>
        <time>2015-02-16T18:44:43Z</time>
      </trkpt>
      <trkpt lat="37.41501" lon="-122.171005">
        <ele>56.6</ele>
        <time>2015-02-16T18:44:45Z</time>
      </trkpt>
      <trkpt lat="37.414989" lon="-122.170979">
        <ele>56.5</ele>
        <time>2015-02-16T18:44:47Z</time>
      </trkpt>
      <trkpt lat="37.414932" lon="-122.170927">
        <ele>56.8</ele>
        <time>2015-02-16T18:44:50Z</time>
      </trkpt>
      <trkpt lat="37.414917" lon="-122.170906">
        <ele>56.7</ele>
        <time>2015-02-16T18:44:51Z</time>
      </trkpt>
      <trkpt lat="37.414889" lon="-122.170862">
        <ele>56.7</ele>
        <time>2015-02-16T18:44:53Z</time>
      </trkpt>
      <trkpt lat="37.414863" lon="-122.170825">
        <ele>56.9</ele>
        <time>2015-02-16T18:44:56Z</time>
      </trkpt>
      <trkpt lat="37.414835" lon="-122.170786">
        <ele>56.9</ele>
        <time>2015-02-16T18:44:57Z</time>
      </trkpt>
      <trkpt lat="37.414804" lon="-122.170741">
        <ele>57</ele>
        <time>2015-02-16T18:44:59Z</time>
      </trkpt>
      <trkpt lat="37.414784" lon="-122.170714">
        <ele>57</ele>
        <time>2015-02-16T18:45:00Z</time>
      </trkpt>
      <trkpt lat="37.414753" lon="-122.170642">
        <ele>57.1</ele>
        <time>2015-02-16T18:45:03Z</time>
      </trkpt>
      <trkpt lat="37.414745" lon="-122.170615">
        <ele>57.1</ele>
        <time>2015-02-16T18:45:05Z</time>
      </trkpt>
      <trkpt lat="37.414725" lon="-122.170569">
        <ele>57.1</ele>
        <time>2015-02-16T18:45:07Z</time>
      </trkpt>
      <trkpt lat="37.4147" lon="-122.170525">
        <ele>57.1</ele>
        <time>2015-02-16T18:45:08Z</time>
      </trkpt>
      <trkpt lat="37.414687" lon="-122.170487">
        <ele>57.1</ele>
        <time>2015-02-16T18:45:11Z</time>
      </trkpt>
      <trkpt lat="37.41467" lon="-122.170448">
        <ele>57.2</ele>
        <time>2015-02-16T18:45:12Z</time>
      </trkpt>
      <trkpt lat="37.414653" lon="-122.170407">
        <ele>57.3</ele>
        <time>2015-02-16T18:45:14Z</time>
      </trkpt>
      <trkpt lat="37.414623" lon="-122.170344">
        <ele>57.3</ele>
        <time>2015-02-16T18:45:18Z</time>
      </trkpt>
      <trkpt lat="37.414608" lon="-122.170326">
        <ele>57.4</ele>
        <time>2015-02-16T18:45:19Z</time>
      </trkpt>
      <trkpt lat="37.414565" lon="-122.170271">
        <ele>58.3</ele>
        <time>2015-02-16T18:45:22Z</time>
      </trkpt>
      <trkpt lat="37.414551" lon="-122.170257">
        <ele>58.5</ele>
        <time>2015-02-16T18:45:23Z</time>
      </trkpt>
      <trkpt lat="37.414523" lon="-122.17023">
        <ele>58.7</ele>
        <time>2015-02-16T18:45:25Z</time>
      </trkpt>
      <trkpt lat="37.414492" lon="-122.170204">
        <ele>58.9</ele>
        <time>2015-02-16T18:45:27Z</time>
      </trkpt>
      <trkpt lat="37.414458" lon="-122.170175">
        <ele>59.1</ele>
        <time>2015-02-16T18:45:30Z</time>
      </trkpt>
      <trkpt lat="37.41443" lon="-122.170142">
        <ele>59.3</ele>
        <time>2015-02-16T18:45:31Z</time>
      </trkpt>
      <trkpt lat="37.414411" lon="-122.170107">
        <ele>59.6</ele>
        <time>2015-02-16T18:45:33Z</time>
      </trkpt>
      <trkpt lat="37.414386" lon="-122.170068">
        <ele>59.9</ele>
        <time>2015-02-16T18:45:35Z</time>
      </trkpt>
      <trkpt lat="37.414357" lon="-122.170018">
        <ele>60.1</ele>
        <time>2015-02-16T18:45:38Z</time>
      </trkpt>
      <trkpt lat="37.414333" lon="-122.169971">
        <ele>60.3</ele>
        <time>2015-02-16T18:45:39Z</time>
      </trkpt>
      <trkpt lat="37.414316" lon="-122.169928">
        <ele>60.7</ele>
        <time>2015-02-16T18:45:41Z</time>
      </trkpt>
      <trkpt lat="37.414299" lon="-122.169882">
        <ele>61.1</ele>
        <time>2015-02-16T18:45:44Z</time>
      </trkpt>
      <trkpt lat="37.414269" lon="-122.169852">
        <ele>61.4</ele>
        <time>2015-02-16T18:45:45Z</time>
      </trkpt>
      <trkpt lat="37.414235" lon="-122.16982">
        <ele>61.8</ele>
        <time>2015-02-16T18:45:48Z</time>
      </trkpt>
      <trkpt lat="37.414197" lon="-122.169771">
        <ele>62.3</ele>
        <time>2015-02-16T18:45:49Z</time>
      </trkpt>
      <trkpt lat="37.414181" lon="-122.169746">
        <ele>62.6</ele>
        <time>2015-02-16T18:45:50Z</time>
      </trkpt>
      <trkpt lat="37.414153" lon="-122.169706">
        <ele>63.2</ele>
        <time>2015-02-16T18:45:53Z</time>
      </trkpt>
      <trkpt lat="37.414119" lon="-122.169656">
        <ele>63.7</ele>
        <time>2015-02-16T18:45:54Z</time>
      </trkpt>
      <trkpt lat="37.41411" lon="-122.169641">
        <ele>63.7</ele>
        <time>2015-02-16T18:45:56Z</time>
      </trkpt>
      <trkpt lat="37.414091" lon="-122.169594">
        <ele>64</ele>
        <time>2015-02-16T18:45:58Z</time>
      </trkpt>
      <trkpt lat="37.414086" lon="-122.169578">
        <ele>64.2</ele>
        <time>2015-02-16T18:46:00Z</time>
      </trkpt>
      <trkpt lat="37.414068" lon="-122.169537">
        <ele>64.4</ele>
        <time>2015-02-16T18:46:02Z</time>
      </trkpt>
      <trkpt lat="37.414028" lon="-122.16945">
        <ele>65.2</ele>
        <time>2015-02-16T18:46:04Z</time>
      </trkpt>
      <trkpt lat="37.414016" lon="-122.16943">
        <ele>65.1</ele>
        <time>2015-02-16T18:46:05Z</time>
      </trkpt>
      <trkpt lat="37.413992" lon="-122.169401">
        <ele>65.2</ele>
        <time>2015-02-16T18:46:07Z</time>
      </trkpt>
      <trkpt lat="37.413959" lon="-122.16938">
        <ele>65</ele>
        <time>2015-02-16T18:46:09Z</time>
      </trkpt>
      <trkpt lat="37.413931" lon="-122.169348">
        <ele>64.8</ele>
        <time>2015-02-16T18:46:11Z</time>
      </trkpt>
      <trkpt lat="37.4139" lon="-122.169306">
        <ele>64.8</ele>
        <time>2015-02-16T18:46:13Z</time>
      </trkpt>
      <trkpt lat="37.413869" lon="-122.169267">
        <ele>64.7</ele>
        <time>2015-02-16T18:46:15Z</time>
      </trkpt>
      <trkpt lat="37.413853" lon="-122.169234">
        <ele>64.7</ele>
        <time>2015-02-16T18:46:16Z</time>
      </trkpt>
      <trkpt lat="37.413836" lon="-122.169203">
        <ele>64.6</ele>
        <time>2015-02-16T18:46:17Z</time>
      </trkpt>
      <trkpt lat="37.413806" lon="-122.169152">
        <ele>64.5</ele>
        <time>2015-02-16T18:46:19Z</time>
      </trkpt>
      <trkpt lat="37.413789" lon="-122.169124">
        <ele>64.4</ele>
        <time>2015-02-16T18:46:20Z</time>
      </trkpt>
      <trkpt lat="37.413772" lon="-122.169094">
        <ele>64.2</ele>
        <time>2015-02-16T18:46:21Z</time>
      </trkpt>
      <trkpt lat="37.413751" lon="-122.169052">
        <ele>63.9</ele>
        <time>2015-02-16T18:46:23Z</time>
      </trkpt>
      <trkpt lat="37.413732" lon="-122.169012">
        <ele>63.8</ele>
        <time>2015-02-16T18:46:25Z</time>
      </trkpt>
      <trkpt lat="37.413706" lon="-122.168969">
        <ele>63.7</ele>
        <time>2015-02-16T18:46:28Z</time>
      </trkpt>
      <trkpt lat="37.413669" lon="-122.168911">
        <ele>63.5</ele>
        <time>2015-02-16T18:46:30Z</time>
      </trkpt>
      <trkpt lat="37.413657" lon="-122.168886">
        <ele>63.4</ele>
        <time>2015-02-16T18:46:31Z</time>
      </trkpt>
      <trkpt lat="37.413632" lon="-122.168828">
        <ele>63.3</ele>
        <time>2015-02-16T18:46:34Z</time>
      </trkpt>
      <trkpt lat="37.41361" lon="-122.168773">
        <ele>62.7</ele>
        <time>2015-02-16T18:46:35Z</time>
      </trkpt>
      <trkpt lat="37.413578" lon="-122.168688">
        <ele>62</ele>
        <time>2015-02-16T18:46:39Z</time>
      </trkpt>
      <trkpt lat="37.413547" lon="-122.168643">
        <ele>61.6</ele>
        <time>2015-02-16T18:46:40Z</time>
      </trkpt>
      <trkpt lat="37.413527" lon="-122.168619">
        <ele>61.6</ele>
        <time>2015-02-16T18:46:41Z</time>
      </trkpt>
      <trkpt lat="37.413508" lon="-122.168595">
        <ele>61.5</ele>
        <time>2015-02-16T18:46:43Z</time>
      </trkpt>
      <trkpt lat="37.413476" lon="-122.168551">
        <ele>61.4</ele>
        <time>2015-02-16T18:46:44Z</time>
      </trkpt>
      <trkpt lat="37.413462" lon="-122.168514">
        <ele>61.3</ele>
        <time>2015-02-16T18:46:47Z</time>
      </trkpt>
      <trkpt lat="37.413457" lon="-122.168478">
        <ele>61.1</ele>
        <time>2015-02-16T18:46:48Z</time>
      </trkpt>
      <trkpt lat="37.413452" lon="-122.168434">
        <ele>61</ele>
        <time>2015-02-16T18:46:50Z</time>
      </trkpt>
      <trkpt lat="37.413441" lon="-122.168389">
        <ele>60.7</ele>
        <time>2015-02-16T18:46:52Z</time>
      </trkpt>
      <trkpt lat="37.413444" lon="-122.168336">
        <ele>60.5</ele>
        <time>2015-02-16T18:46:54Z</time>
      </trkpt>
      <trkpt lat="37.413436" lon="-122.168275">
        <ele>60.1</ele>
        <time>2015-02-16T18:46:56Z</time>
      </trkpt>
      <trkpt lat="37.413422" lon="-122.168233">
        <ele>60</ele>
        <time>2015-02-16T18:46:58Z</time>
      </trkpt>
      <trkpt lat="37.413401" lon="-122.168204">
        <ele>59.9</ele>
        <time>2015-02-16T18:46:59Z</time>
      </trkpt>
      <trkpt lat="37.413376" lon="-122.168177">
        <ele>59.7</ele>
        <time>2015-02-16T18:47:00Z</time>
      </trkpt>
      <trkpt lat="37.41335" lon="-122.168143">
        <ele>59.9</ele>
        <time>2015-02-16T18:47:02Z</time>
      </trkpt>
      <trkpt lat="37.413346" lon="-122.168087">
        <ele>59.6</ele>
        <time>2015-02-16T18:47:05Z</time>
      </trkpt>
      <trkpt lat="37.413342" lon="-122.168045">
        <ele>59.5</ele>
        <time>2015-02-16T18:47:07Z</time>
      </trkpt>
      <trkpt lat="37.413332" lon="-122.167999">
        <ele>59.3</ele>
        <time>2015-02-16T18:47:09Z</time>
      </trkpt>
      <trkpt lat="37.413315" lon="-122.167947">
        <ele>59.1</ele>
        <time>2015-02-16T18:47:11Z</time>
      </trkpt>
      <trkpt lat="37.413292" lon="-122.167887">
        <ele>59.1</ele>
        <time>2015-02-16T18:47:13Z</time>
      </trkpt>
      <trkpt lat="37.413279" lon="-122.167855">
        <ele>59</ele>
        <time>2015-02-16T18:47:14Z</time>
      </trkpt>
      <trkpt lat="37.413256" lon="-122.167797">
        <ele>59</ele>
        <time>2015-02-16T18:47:16Z</time>
      </trkpt>
      <trkpt lat="37.413243" lon="-122.167767">
        <ele>59</ele>
        <time>2015-02-16T18:47:17Z</time>
      </trkpt>
      <trkpt lat="37.413226" lon="-122.167721">
        <ele>59</ele>
        <time>2015-02-16T18:47:19Z</time>
      </trkpt>
      <trkpt lat="37.413209" lon="-122.167669">
        <ele>58.8</ele>
        <time>2015-02-16T18:47:21Z</time>
      </trkpt>
      <trkpt lat="37.413196" lon="-122.167609">
        <ele>58.8</ele>
        <time>2015-02-16T18:47:23Z</time>
      </trkpt>
      <trkpt lat="37.413185" lon="-122.167548">
        <ele>58.6</ele>
        <time>2015-02-16T18:47:25Z</time>
      </trkpt>
      <trkpt lat="37.413177" lon="-122.16749">
        <ele>58.2</ele>
        <time>2015-02-16T18:47:27Z</time>
      </trkpt>
      <trkpt lat="37.413168" lon="-122.167435">
        <ele>58</ele>
        <time>2015-02-16T18:47:29Z</time>
      </trkpt>
      <trkpt lat="37.413158" lon="-122.167395">
        <ele>57.9</ele>
        <time>2015-02-16T18:47:31Z</time>
      </trkpt>
      <trkpt lat="37.413144" lon="-122.167341">
        <ele>58</ele>
        <time>2015-02-16T18:47:33Z</time>
      </trkpt>
      <trkpt lat="37.413128" lon="-122.167308">
        <ele>58.1</ele>
        <time>2015-02-16T18:47:34Z</time>
      </trkpt>
      <trkpt lat="37.413107" lon="-122.167259">
        <ele>58.1</ele>
        <time>2015-02-16T18:47:36Z</time>
      </trkpt>
      <trkpt lat="37.413099" lon="-122.167219">
        <ele>58.1</ele>
        <time>2015-02-16T18:47:38Z</time>
      </trkpt>
      <trkpt lat="37.413089" lon="-122.167175">
        <ele>58.1</ele>
        <time>2015-02-16T18:47:40Z</time>
      </trkpt>
      <trkpt lat="37.413078" lon="-122.167128">
        <ele>58.1</ele>
        <time>2015-02-16T18:47:42Z</time>
      </trkpt>
      <trkpt lat="37.413077" lon="-122.167076">
        <ele>57.9</ele>
        <time>2015-02-16T18:47:44Z</time>
      </trkpt>
      <trkpt lat="37.413061" lon="-122.167027">
        <ele>58</ele>
        <time>2015-02-16T18:47:46Z</time>
      </trkpt>
      <trkpt lat="37.413056" lon="-122.166988">
        <ele>57.8</ele>
        <time>2015-02-16T18:47:49Z</time>
      </trkpt>
      <trkpt lat="37.41305" lon="-122.166943">
        <ele>57.7</ele>
        <time>2015-02-16T18:47:51Z</time>
      </trkpt>
      <trkpt lat="37.413044" lon="-122.1669">
        <ele>57.8</ele>
        <time>2015-02-16T18:47:53Z</time>
      </trkpt>
      <trkpt lat="37.413037" lon="-122.166854">
        <ele>57.7</ele>
        <time>2015-02-16T18:47:55Z</time>
      </trkpt>
      <trkpt lat="37.413025" lon="-122.166797">
        <ele>57.6</ele>
        <time>2015-02-16T18:47:57Z</time>
      </trkpt>
      <trkpt lat="37.41302" lon="-122.166735">
        <ele>57.4</ele>
        <time>2015-02-16T18:48:00Z</time>
      </trkpt>
      <trkpt lat="37.413021" lon="-122.166693">
        <ele>57.3</ele>
        <time>2015-02-16T18:48:01Z</time>
      </trkpt>
      <trkpt lat="37.413021" lon="-122.166653">
        <ele>57.3</ele>
        <time>2015-02-16T18:48:02Z</time>
      </trkpt>
      <trkpt lat="37.41301" lon="-122.166592">
        <ele>57.2</ele>
        <time>2015-02-16T18:48:04Z</time>
      </trkpt>
      <trkpt lat="37.412986" lon="-122.166535">
        <ele>57.5</ele>
        <time>2015-02-16T18:48:05Z</time>
      </trkpt>
      <trkpt lat="37.412973" lon="-122.166485">
        <ele>57.4</ele>
        <time>2015-02-16T18:48:07Z</time>
      </trkpt>
      <trkpt lat="37.412967" lon="-122.166437">
        <ele>57.3</ele>
        <time>2015-02-16T18:48:09Z</time>
      </trkpt>
      <trkpt lat="37.412954" lon="-122.166378">
        <ele>57.4</ele>
        <time>2015-02-16T18:48:12Z</time>
      </trkpt>
      <trkpt lat="37.412946" lon="-122.16633">
        <ele>57.4</ele>
        <time>2015-02-16T18:48:13Z</time>
      </trkpt>
      <trkpt lat="37.412929" lon="-122.166245">
        <ele>57.4</ele>
        <time>2015-02-16T18:48:15Z</time>
      </trkpt>
      <trkpt lat="37.412922" lon="-122.166202">
        <ele>57.4</ele>
        <time>2015-02-16T18:48:17Z</time>
      </trkpt>
      <trkpt lat="37.412914" lon="-122.166158">
        <ele>57.4</ele>
        <time>2015-02-16T18:48:20Z</time>
      </trkpt>
      <trkpt lat="37.412906" lon="-122.166115">
        <ele>57.4</ele>
        <time>2015-02-16T18:48:21Z</time>
      </trkpt>
      <trkpt lat="37.412899" lon="-122.16608">
        <ele>57.4</ele>
        <time>2015-02-16T18:48:22Z</time>
      </trkpt>
      <trkpt lat="37.41289" lon="-122.166046">
        <ele>57.2</ele>
        <time>2015-02-16T18:48:23Z</time>
      </trkpt>
      <trkpt lat="37.412881" lon="-122.166014">
        <ele>57.1</ele>
        <time>2015-02-16T18:48:24Z</time>
      </trkpt>
      <trkpt lat="37.412864" lon="-122.165955">
        <ele>57.1</ele>
        <time>2015-02-16T18:48:26Z</time>
      </trkpt>
      <trkpt lat="37.412846" lon="-122.16589">
        <ele>57</ele>
        <time>2015-02-16T18:48:28Z</time>
      </trkpt>
      <trkpt lat="37.412832" lon="-122.165827">
        <ele>56.9</ele>
        <time>2015-02-16T18:48:31Z</time>
      </trkpt>
      <trkpt lat="37.412812" lon="-122.165745">
        <ele>56.8</ele>
        <time>2015-02-16T18:48:33Z</time>
      </trkpt>
      <trkpt lat="37.412808" lon="-122.165727">
        <ele>56.8</ele>
        <time>2015-02-16T18:48:34Z</time>
      </trkpt>
      <trkpt lat="37.412801" lon="-122.165695">
        <ele>56.8</ele>
        <time>2015-02-16T18:48:37Z</time>
      </trkpt>
      <trkpt lat="37.412787" lon="-122.165639">
        <ele>56.8</ele>
        <time>2015-02-16T18:48:39Z</time>
      </trkpt>
      <trkpt lat="37.412778" lon="-122.165615">
        <ele>56.8</ele>
        <time>2015-02-16T18:48:41Z</time>
      </trkpt>
      <trkpt lat="37.412765" lon="-122.165571">
        <ele>56.6</ele>
        <time>2015-02-16T18:48:43Z</time>
      </trkpt>
      <trkpt lat="37.412757" lon="-122.165522">
        <ele>56.5</ele>
        <time>2015-02-16T18:48:44Z</time>
      </trkpt>
      <trkpt lat="37.412731" lon="-122.165434">
        <ele>56.5</ele>
        <time>2015-02-16T18:48:47Z</time>
      </trkpt>
      <trkpt lat="37.41272" lon="-122.165403">
        <ele>56.3</ele>
        <time>2015-02-16T18:48:48Z</time>
      </trkpt>
      <trkpt lat="37.412706" lon="-122.165373">
        <ele>56.3</ele>
        <time>2015-02-16T18:48:49Z</time>
      </trkpt>
      <trkpt lat="37.412685" lon="-122.165323">
        <ele>56.5</ele>
        <time>2015-02-16T18:48:51Z</time>
      </trkpt>
      <trkpt lat="37.412672" lon="-122.165272">
        <ele>56.4</ele>
        <time>2015-02-16T18:48:53Z</time>
      </trkpt>
      <trkpt lat="37.412658" lon="-122.165214">
        <ele>56.1</ele>
        <time>2015-02-16T18:48:55Z</time>
      </trkpt>
      <trkpt lat="37.412643" lon="-122.16517">
        <ele>56.1</ele>
        <time>2015-02-16T18:48:57Z</time>
      </trkpt>
      <trkpt lat="37.412633" lon="-122.165121">
        <ele>56</ele>
        <time>2015-02-16T18:48:59Z</time>
      </trkpt>
      <trkpt lat="37.41263" lon="-122.165074">
        <ele>55.9</ele>
        <time>2015-02-16T18:49:01Z</time>
      </trkpt>
      <trkpt lat="37.412618" lon="-122.165018">
        <ele>55.8</ele>
        <time>2015-02-16T18:49:03Z</time>
      </trkpt>
      <trkpt lat="37.412601" lon="-122.164973">
        <ele>55.5</ele>
        <time>2015-02-16T18:49:05Z</time>
      </trkpt>
      <trkpt lat="37.412584" lon="-122.164927">
        <ele>55.4</ele>
        <time>2015-02-16T18:49:07Z</time>
      </trkpt>
      <trkpt lat="37.412559" lon="-122.164852">
        <ele>55.1</ele>
        <time>2015-02-16T18:49:10Z</time>
      </trkpt>
      <trkpt lat="37.412554" lon="-122.164833">
        <ele>55</ele>
        <time>2015-02-16T18:49:11Z</time>
      </trkpt>
      <trkpt lat="37.412547" lon="-122.164782">
        <ele>54.9</ele>
        <time>2015-02-16T18:49:13Z</time>
      </trkpt>
      <trkpt lat="37.412532" lon="-122.164724">
        <ele>54.8</ele>
        <time>2015-02-16T18:49:14Z</time>
      </trkpt>
      <trkpt lat="37.412511" lon="-122.164658">
        <ele>54.9</ele>
        <time>2015-02-16T18:49:17Z</time>
      </trkpt>
      <trkpt lat="37.412504" lon="-122.164633">
        <ele>54.9</ele>
        <time>2015-02-16T18:49:18Z</time>
      </trkpt>
      <trkpt lat="37.412494" lon="-122.164588">
        <ele>54.8</ele>
        <time>2015-02-16T18:49:20Z</time>
      </trkpt>
      <trkpt lat="37.412474" lon="-122.164535">
        <ele>54.9</ele>
        <time>2015-02-16T18:49:22Z</time>
      </trkpt>
      <trkpt lat="37.41245" lon="-122.164484">
        <ele>55</ele>
        <time>2015-02-16T18:49:24Z</time>
      </trkpt>
      <trkpt lat="37.412426" lon="-122.164432">
        <ele>54.8</ele>
        <time>2015-02-16T18:49:26Z</time>
      </trkpt>
      <trkpt lat="37.412405" lon="-122.164383">
        <ele>54.9</ele>
        <time>2015-02-16T18:49:29Z</time>
      </trkpt>
      <trkpt lat="37.412372" lon="-122.164307">
        <ele>54.9</ele>
        <time>2015-02-16T18:49:31Z</time>
      </trkpt>
      <trkpt lat="37.412361" lon="-122.164277">
        <ele>54.8</ele>
        <time>2015-02-16T18:49:33Z</time>
      </trkpt>
      <trkpt lat="37.412341" lon="-122.164222">
        <ele>54.8</ele>
        <time>2015-02-16T18:49:35Z</time>
      </trkpt>
      <trkpt lat="37.412319" lon="-122.164183">
        <ele>54.8</ele>
        <time>2015-02-16T18:49:37Z</time>
      </trkpt>
      <trkpt lat="37.412302" lon="-122.164146">
        <ele>54.9</ele>
        <time>2015-02-16T18:49:38Z</time>
      </trkpt>
      <trkpt lat="37.412283" lon="-122.164095">
        <ele>54.8</ele>
        <time>2015-02-16T18:49:40Z</time>
      </trkpt>
      <trkpt lat="37.412262" lon="-122.164043">
        <ele>54.7</ele>
        <time>2015-02-16T18:49:43Z</time>
      </trkpt>
      <trkpt lat="37.412244" lon="-122.163995">
        <ele>54.6</ele>
        <time>2015-02-16T18:49:45Z</time>
      </trkpt>
      <trkpt lat="37.412204" lon="-122.163915">
        <ele>54.3</ele>
        <time>2015-02-16T18:49:47Z</time>
      </trkpt>
      <trkpt lat="37.41219" lon="-122.163883">
        <ele>54.3</ele>
        <time>2015-02-16T18:49:49Z</time>
      </trkpt>
      <trkpt lat="37.412177" lon="-122.163852">
        <ele>54.3</ele>
        <time>2015-02-16T18:49:50Z</time>
      </trkpt>
      <trkpt lat="37.412155" lon="-122.163801">
        <ele>54.3</ele>
        <time>2015-02-16T18:49:52Z</time>
      </trkpt>
      <trkpt lat="37.412132" lon="-122.163756">
        <ele>54.3</ele>
        <time>2015-02-16T18:49:54Z</time>
      </trkpt>
      <trkpt lat="37.412112" lon="-122.163718">
        <ele>54.3</ele>
        <time>2015-02-16T18:49:56Z</time>
      </trkpt>
      <trkpt lat="37.412102" lon="-122.163681">
        <ele>54.1</ele>
        <time>2015-02-16T18:49:58Z</time>
      </trkpt>
      <trkpt lat="37.412084" lon="-122.163641">
        <ele>53.9</ele>
        <time>2015-02-16T18:50:00Z</time>
      </trkpt>
      <trkpt lat="37.412062" lon="-122.163603">
        <ele>54</ele>
        <time>2015-02-16T18:50:02Z</time>
      </trkpt>
      <trkpt lat="37.412038" lon="-122.163563">
        <ele>53.8</ele>
        <time>2015-02-16T18:50:04Z</time>
      </trkpt>
      <trkpt lat="37.412009" lon="-122.163509">
        <ele>53.9</ele>
        <time>2015-02-16T18:50:06Z</time>
      </trkpt>
      <trkpt lat="37.411983" lon="-122.163471">
        <ele>53.9</ele>
        <time>2015-02-16T18:50:08Z</time>
      </trkpt>
      <trkpt lat="37.411946" lon="-122.163434">
        <ele>54</ele>
        <time>2015-02-16T18:50:10Z</time>
      </trkpt>
      <trkpt lat="37.411918" lon="-122.163402">
        <ele>54</ele>
        <time>2015-02-16T18:50:12Z</time>
      </trkpt>
      <trkpt lat="37.411897" lon="-122.163365">
        <ele>54</ele>
        <time>2015-02-16T18:50:14Z</time>
      </trkpt>
      <trkpt lat="37.411873" lon="-122.163323">
        <ele>54</ele>
        <time>2015-02-16T18:50:16Z</time>
      </trkpt>
      <trkpt lat="37.411849" lon="-122.163282">
        <ele>53.9</ele>
        <time>2015-02-16T18:50:18Z</time>
      </trkpt>
      <trkpt lat="37.411825" lon="-122.163241">
        <ele>53.9</ele>
        <time>2015-02-16T18:50:20Z</time>
      </trkpt>
      <trkpt lat="37.411801" lon="-122.163197">
        <ele>53.9</ele>
        <time>2015-02-16T18:50:22Z</time>
      </trkpt>
      <trkpt lat="37.411786" lon="-122.163157">
        <ele>53.8</ele>
        <time>2015-02-16T18:50:24Z</time>
      </trkpt>
      <trkpt lat="37.411771" lon="-122.163119">
        <ele>53.8</ele>
        <time>2015-02-16T18:50:26Z</time>
      </trkpt>
      <trkpt lat="37.411751" lon="-122.163068">
        <ele>53.5</ele>
        <time>2015-02-16T18:50:28Z</time>
      </trkpt>
      <trkpt lat="37.411731" lon="-122.163026">
        <ele>53.3</ele>
        <time>2015-02-16T18:50:30Z</time>
      </trkpt>
      <trkpt lat="37.411707" lon="-122.162984">
        <ele>53.4</ele>
        <time>2015-02-16T18:50:32Z</time>
      </trkpt>
      <trkpt lat="37.411686" lon="-122.162944">
        <ele>53.2</ele>
        <time>2015-02-16T18:50:35Z</time>
      </trkpt>
      <trkpt lat="37.411664" lon="-122.1629">
        <ele>53.1</ele>
        <time>2015-02-16T18:50:37Z</time>
      </trkpt>
      <trkpt lat="37.411635" lon="-122.162851">
        <ele>53.2</ele>
        <time>2015-02-16T18:50:39Z</time>
      </trkpt>
      <trkpt lat="37.411602" lon="-122.162819">
        <ele>53.4</ele>
        <time>2015-02-16T18:50:42Z</time>
      </trkpt>
      <trkpt lat="37.411555" lon="-122.162773">
        <ele>53.6</ele>
        <time>2015-02-16T18:50:44Z</time>
      </trkpt>
      <trkpt lat="37.411536" lon="-122.162756">
        <ele>53.7</ele>
        <time>2015-02-16T18:50:45Z</time>
      </trkpt>
      <trkpt lat="37.4115" lon="-122.162725">
        <ele>53.7</ele>
        <time>2015-02-16T18:50:47Z</time>
      </trkpt>
      <trkpt lat="37.411461" lon="-122.162695">
        <ele>53.6</ele>
        <time>2015-02-16T18:50:49Z</time>
      </trkpt>
      <trkpt lat="37.411437" lon="-122.162648">
        <ele>53.6</ele>
        <time>2015-02-16T18:50:52Z</time>
      </trkpt>
      <trkpt lat="37.411416" lon="-122.162611">
        <ele>53.6</ele>
        <time>2015-02-16T18:50:53Z</time>
      </trkpt>
      <trkpt lat="37.411386" lon="-122.162563">
        <ele>53.5</ele>
        <time>2015-02-16T18:50:55Z</time>
      </trkpt>
      <trkpt lat="37.411361" lon="-122.16253">
        <ele>53.5</ele>
        <time>2015-02-16T18:50:57Z</time>
      </trkpt>
      <trkpt lat="37.411327" lon="-122.162487">
        <ele>53.5</ele>
        <time>2015-02-16T18:50:59Z</time>
      </trkpt>
      <trkpt lat="37.411313" lon="-122.162466">
        <ele>53.5</ele>
        <time>2015-02-16T18:51:00Z</time>
      </trkpt>
      <trkpt lat="37.411284" lon="-122.162427">
        <ele>53.4</ele>
        <time>2015-02-16T18:51:02Z</time>
      </trkpt>
      <trkpt lat="37.411255" lon="-122.162382">
        <ele>53.4</ele>
        <time>2015-02-16T18:51:04Z</time>
      </trkpt>
      <trkpt lat="37.41123" lon="-122.162325">
        <ele>53.4</ele>
        <time>2015-02-16T18:51:06Z</time>
      </trkpt>
      <trkpt lat="37.411211" lon="-122.162275">
        <ele>53.2</ele>
        <time>2015-02-16T18:51:08Z</time>
      </trkpt>
      <trkpt lat="37.411182" lon="-122.162223">
        <ele>53.1</ele>
        <time>2015-02-16T18:51:10Z</time>
      </trkpt>
      <trkpt lat="37.411147" lon="-122.16219">
        <ele>53.2</ele>
        <time>2015-02-16T18:51:12Z</time>
      </trkpt>
      <trkpt lat="37.411115" lon="-122.162151">
        <ele>53.2</ele>
        <time>2015-02-16T18:51:14Z</time>
      </trkpt>
      <trkpt lat="37.411094" lon="-122.162128">
        <ele>53.3</ele>
        <time>2015-02-16T18:51:15Z</time>
      </trkpt>
      <trkpt lat="37.411073" lon="-122.162105">
        <ele>53.3</ele>
        <time>2015-02-16T18:51:16Z</time>
      </trkpt>
      <trkpt lat="37.411053" lon="-122.16208">
        <ele>53.4</ele>
        <time>2015-02-16T18:51:18Z</time>
      </trkpt>
      <trkpt lat="37.411018" lon="-122.162036">
        <ele>53.3</ele>
        <time>2015-02-16T18:51:19Z</time>
      </trkpt>
      <trkpt lat="37.410998" lon="-122.16201">
        <ele>53.3</ele>
        <time>2015-02-16T18:51:20Z</time>
      </trkpt>
      <trkpt lat="37.410976" lon="-122.161977">
        <ele>53.3</ele>
        <time>2015-02-16T18:51:23Z</time>
      </trkpt>
      <trkpt lat="37.41095" lon="-122.161941">
        <ele>53.2</ele>
        <time>2015-02-16T18:51:25Z</time>
      </trkpt>
      <trkpt lat="37.410898" lon="-122.161893">
        <ele>53.3</ele>
        <time>2015-02-16T18:51:27Z</time>
      </trkpt>
      <trkpt lat="37.410879" lon="-122.161874">
        <ele>53.3</ele>
        <time>2015-02-16T18:51:29Z</time>
      </trkpt>
      <trkpt lat="37.410857" lon="-122.161841">
        <ele>53.3</ele>
        <time>2015-02-16T18:51:31Z</time>
      </trkpt>
      <trkpt lat="37.410841" lon="-122.16181">
        <ele>53.3</ele>
        <time>2015-02-16T18:51:32Z</time>
      </trkpt>
      <trkpt lat="37.410796" lon="-122.161741">
        <ele>53.3</ele>
        <time>2015-02-16T18:51:34Z</time>
      </trkpt>
      <trkpt lat="37.410784" lon="-122.161726">
        <ele>53.2</ele>
        <time>2015-02-16T18:51:35Z</time>
      </trkpt>
      <trkpt lat="37.410763" lon="-122.161701">
        <ele>53.2</ele>
        <time>2015-02-16T18:51:36Z</time>
      </trkpt>
      <trkpt lat="37.410723" lon="-122.16166">
        <ele>53.3</ele>
        <time>2015-02-16T18:51:38Z</time>
      </trkpt>
      <trkpt lat="37.410698" lon="-122.161639">
        <ele>53.3</ele>
        <time>2015-02-16T18:51:39Z</time>
      </trkpt>
      <trkpt lat="37.410651" lon="-122.161591">
        <ele>53.3</ele>
        <time>2015-02-16T18:51:40Z</time>
      </trkpt>
      <trkpt lat="37.410622" lon="-122.161541">
        <ele>53.2</ele>
        <time>2015-02-16T18:51:43Z</time>
      </trkpt>
      <trkpt lat="37.410603" lon="-122.161494">
        <ele>53.2</ele>
        <time>2015-02-16T18:51:44Z</time>
      </trkpt>
      <trkpt lat="37.410584" lon="-122.161472">
        <ele>53.2</ele>
        <time>2015-02-16T18:51:46Z</time>
      </trkpt>
      <trkpt lat="37.410554" lon="-122.161442">
        <ele>53.2</ele>
        <time>2015-02-16T18:51:48Z</time>
      </trkpt>
      <trkpt lat="37.410525" lon="-122.161408">
        <ele>53.2</ele>
        <time>2015-02-16T18:51:50Z</time>
      </trkpt>
      <trkpt lat="37.410492" lon="-122.161368">
        <ele>53.2</ele>
        <time>2015-02-16T18:51:52Z</time>
      </trkpt>
      <trkpt lat="37.410463" lon="-122.161324">
        <ele>53.2</ele>
        <time>2015-02-16T18:51:54Z</time>
      </trkpt>
      <trkpt lat="37.410437" lon="-122.161287">
        <ele>53.2</ele>
        <time>2015-02-16T18:51:56Z</time>
      </trkpt>
      <trkpt lat="37.410408" lon="-122.161253">
        <ele>53.2</ele>
        <time>2015-02-16T18:51:58Z</time>
      </trkpt>
      <trkpt lat="37.410386" lon="-122.161217">
        <ele>53.4</ele>
        <time>2015-02-16T18:52:00Z</time>
      </trkpt>
      <trkpt lat="37.410363" lon="-122.161177">
        <ele>53.3</ele>
        <time>2015-02-16T18:52:02Z</time>
      </trkpt>
      <trkpt lat="37.410349" lon="-122.161142">
        <ele>53.3</ele>
        <time>2015-02-16T18:52:04Z</time>
      </trkpt>
      <trkpt lat="37.410345" lon="-122.161106">
        <ele>53.1</ele>
        <time>2015-02-16T18:52:06Z</time>
      </trkpt>
      <trkpt lat="37.41035" lon="-122.16103">
        <ele>52.8</ele>
        <time>2015-02-16T18:52:09Z</time>
      </trkpt>
      <trkpt lat="37.410355" lon="-122.161007">
        <ele>52.7</ele>
        <time>2015-02-16T18:52:10Z</time>
      </trkpt>
      <trkpt lat="37.41037" lon="-122.160966">
        <ele>52.5</ele>
        <time>2015-02-16T18:52:12Z</time>
      </trkpt>
      <trkpt lat="37.410388" lon="-122.16091">
        <ele>52.3</ele>
        <time>2015-02-16T18:52:14Z</time>
      </trkpt>
      <trkpt lat="37.410395" lon="-122.160875">
        <ele>52.3</ele>
        <time>2015-02-16T18:52:15Z</time>
      </trkpt>
      <trkpt lat="37.4104" lon="-122.160839">
        <ele>52.2</ele>
        <time>2015-02-16T18:52:16Z</time>
      </trkpt>
      <trkpt lat="37.410407" lon="-122.160802">
        <ele>52.2</ele>
        <time>2015-02-16T18:52:17Z</time>
      </trkpt>
      <trkpt lat="37.410414" lon="-122.160767">
        <ele>52.1</ele>
        <time>2015-02-16T18:52:18Z</time>
      </trkpt>
      <trkpt lat="37.410423" lon="-122.160732">
        <ele>51.9</ele>
        <time>2015-02-16T18:52:19Z</time>
      </trkpt>
      <trkpt lat="37.410443" lon="-122.160694">
        <ele>51.7</ele>
        <time>2015-02-16T18:52:21Z</time>
      </trkpt>
      <trkpt lat="37.410475" lon="-122.160663">
        <ele>51.5</ele>
        <time>2015-02-16T18:52:23Z</time>
      </trkpt>
      <trkpt lat="37.410497" lon="-122.160643">
        <ele>51.3</ele>
        <time>2015-02-16T18:52:25Z</time>
      </trkpt>
      <trkpt lat="37.410519" lon="-122.160615">
        <ele>51.2</ele>
        <time>2015-02-16T18:52:29Z</time>
      </trkpt>
      <trkpt lat="37.410545" lon="-122.160571">
        <ele>50.9</ele>
        <time>2015-02-16T18:52:30Z</time>
      </trkpt>
      <trkpt lat="37.410565" lon="-122.16053">
        <ele>50.8</ele>
        <time>2015-02-16T18:52:32Z</time>
      </trkpt>
      <trkpt lat="37.410613" lon="-122.160484">
        <ele>50.5</ele>
        <time>2015-02-16T18:52:34Z</time>
      </trkpt>
      <trkpt lat="37.41064" lon="-122.160466">
        <ele>50.4</ele>
        <time>2015-02-16T18:52:35Z</time>
      </trkpt>
      <trkpt lat="37.410668" lon="-122.160446">
        <ele>50.2</ele>
        <time>2015-02-16T18:52:36Z</time>
      </trkpt>
      <trkpt lat="37.410704" lon="-122.160416">
        <ele>50.1</ele>
        <time>2015-02-16T18:52:38Z</time>
      </trkpt>
      <trkpt lat="37.41073" lon="-122.160393">
        <ele>50.1</ele>
        <time>2015-02-16T18:52:40Z</time>
      </trkpt>
      <trkpt lat="37.410767" lon="-122.160362">
        <ele>49.9</ele>
        <time>2015-02-16T18:52:41Z</time>
      </trkpt>
      <trkpt lat="37.410798" lon="-122.16032">
        <ele>49.7</ele>
        <time>2015-02-16T18:52:43Z</time>
      </trkpt>
      <trkpt lat="37.41083" lon="-122.160285">
        <ele>49.6</ele>
        <time>2015-02-16T18:52:45Z</time>
      </trkpt>
      <trkpt lat="37.410856" lon="-122.160256">
        <ele>49.5</ele>
        <time>2015-02-16T18:52:47Z</time>
      </trkpt>
      <trkpt lat="37.410893" lon="-122.160217">
        <ele>49.4</ele>
        <time>2015-02-16T18:52:49Z</time>
      </trkpt>
      <trkpt lat="37.410932" lon="-122.16018">
        <ele>49.3</ele>
        <time>2015-02-16T18:52:51Z</time>
      </trkpt>
      <trkpt lat="37.410957" lon="-122.160164">
        <ele>49.2</ele>
        <time>2015-02-16T18:52:52Z</time>
      </trkpt>
      <trkpt lat="37.410995" lon="-122.16014">
        <ele>49.1</ele>
        <time>2015-02-16T18:52:54Z</time>
      </trkpt>
      <trkpt lat="37.41104" lon="-122.160115">
        <ele>48.9</ele>
        <time>2015-02-16T18:52:56Z</time>
      </trkpt>
      <trkpt lat="37.41107" lon="-122.160089">
        <ele>48.8</ele>
        <time>2015-02-16T18:52:59Z</time>
      </trkpt>
      <trkpt lat="37.411092" lon="-122.160051">
        <ele>48.9</ele>
        <time>2015-02-16T18:53:02Z</time>
      </trkpt>
      <trkpt lat="37.411115" lon="-122.160028">
        <ele>48.9</ele>
        <time>2015-02-16T18:53:04Z</time>
      </trkpt>
      <trkpt lat="37.411144" lon="-122.160006">
        <ele>48.7</ele>
        <time>2015-02-16T18:53:06Z</time>
      </trkpt>
      <trkpt lat="37.411175" lon="-122.159979">
        <ele>48.6</ele>
        <time>2015-02-16T18:53:08Z</time>
      </trkpt>
      <trkpt lat="37.411217" lon="-122.159942">
        <ele>48.4</ele>
        <time>2015-02-16T18:53:10Z</time>
      </trkpt>
      <trkpt lat="37.411248" lon="-122.159922">
        <ele>48.3</ele>
        <time>2015-02-16T18:53:12Z</time>
      </trkpt>
      <trkpt lat="37.411276" lon="-122.15991">
        <ele>48.2</ele>
        <time>2015-02-16T18:53:14Z</time>
      </trkpt>
      <trkpt lat="37.411304" lon="-122.159887">
        <ele>48.1</ele>
        <time>2015-02-16T18:53:16Z</time>
      </trkpt>
      <trkpt lat="37.411331" lon="-122.159863">
        <ele>48</ele>
        <time>2015-02-16T18:53:18Z</time>
      </trkpt>
      <trkpt lat="37.411359" lon="-122.15986">
        <ele>47.9</ele>
        <time>2015-02-16T18:53:20Z</time>
      </trkpt>
      <trkpt lat="37.411388" lon="-122.159846">
        <ele>47.7</ele>
        <time>2015-02-16T18:53:22Z</time>
      </trkpt>
      <trkpt lat="37.411434" lon="-122.159822">
        <ele>47.6</ele>
        <time>2015-02-16T18:53:24Z</time>
      </trkpt>
      <trkpt lat="37.411468" lon="-122.159787">
        <ele>47.5</ele>
        <time>2015-02-16T18:53:26Z</time>
      </trkpt>
      <trkpt lat="37.411486" lon="-122.159738">
        <ele>47.5</ele>
        <time>2015-02-16T18:53:28Z</time>
      </trkpt>
      <trkpt lat="37.411519" lon="-122.159696">
        <ele>47.6</ele>
        <time>2015-02-16T18:53:30Z</time>
      </trkpt>
      <trkpt lat="37.411556" lon="-122.159677">
        <ele>47.5</ele>
        <time>2015-02-16T18:53:31Z</time>
      </trkpt>
      <trkpt lat="37.411614" lon="-122.159629">
        <ele>47.2</ele>
        <time>2015-02-16T18:53:32Z</time>
      </trkpt>
      <trkpt lat="37.411672" lon="-122.159575">
        <ele>47.2</ele>
        <time>2015-02-16T18:53:33Z</time>
      </trkpt>
      <trkpt lat="37.411712" lon="-122.159544">
        <ele>47.1</ele>
        <time>2015-02-16T18:53:34Z</time>
      </trkpt>
      <trkpt lat="37.411752" lon="-122.159511">
        <ele>46.9</ele>
        <time>2015-02-16T18:53:36Z</time>
      </trkpt>
      <trkpt lat="37.411802" lon="-122.159487">
        <ele>46.5</ele>
        <time>2015-02-16T18:53:38Z</time>
      </trkpt>
      <trkpt lat="37.411829" lon="-122.159488">
        <ele>46.3</ele>
        <time>2015-02-16T18:53:40Z</time>
      </trkpt>
      <trkpt lat="37.411863" lon="-122.159482">
        <ele>46.1</ele>
        <time>2015-02-16T18:53:45Z</time>
      </trkpt>
      <trkpt lat="37.411895" lon="-122.159474">
        <ele>46</ele>
        <time>2015-02-16T18:53:46Z</time>
      </trkpt>
      <trkpt lat="37.411928" lon="-122.159466">
        <ele>46</ele>
        <time>2015-02-16T18:53:47Z</time>
      </trkpt>
      <trkpt lat="37.411956" lon="-122.159456">
        <ele>45.9</ele>
        <time>2015-02-16T18:53:48Z</time>
      </trkpt>
      <trkpt lat="37.411983" lon="-122.159444">
        <ele>45.9</ele>
        <time>2015-02-16T18:53:49Z</time>
      </trkpt>
      <trkpt lat="37.412014" lon="-122.159425">
        <ele>45.8</ele>
        <time>2015-02-16T18:53:50Z</time>
      </trkpt>
      <trkpt lat="37.412041" lon="-122.159407">
        <ele>45.7</ele>
        <time>2015-02-16T18:53:52Z</time>
      </trkpt>
      <trkpt lat="37.412083" lon="-122.159384">
        <ele>45.6</ele>
        <time>2015-02-16T18:53:53Z</time>
      </trkpt>
      <trkpt lat="37.412118" lon="-122.159332">
        <ele>45.4</ele>
        <time>2015-02-16T18:53:55Z</time>
      </trkpt>
      <trkpt lat="37.412146" lon="-122.159301">
        <ele>45.3</ele>
        <time>2015-02-16T18:53:57Z</time>
      </trkpt>
      <trkpt lat="37.412203" lon="-122.15927">
        <ele>45.1</ele>
        <time>2015-02-16T18:53:58Z</time>
      </trkpt>
      <trkpt lat="37.412229" lon="-122.159261">
        <ele>45.1</ele>
        <time>2015-02-16T18:53:59Z</time>
      </trkpt>
      <trkpt lat="37.412293" lon="-122.159226">
        <ele>44.9</ele>
        <time>2015-02-16T18:54:02Z</time>
      </trkpt>
      <trkpt lat="37.412315" lon="-122.159207">
        <ele>44.8</ele>
        <time>2015-02-16T18:54:03Z</time>
      </trkpt>
      <trkpt lat="37.412338" lon="-122.15916">
        <ele>44.6</ele>
        <time>2015-02-16T18:54:05Z</time>
      </trkpt>
      <trkpt lat="37.412367" lon="-122.159107">
        <ele>44.4</ele>
        <time>2015-02-16T18:54:07Z</time>
      </trkpt>
      <trkpt lat="37.412388" lon="-122.159083">
        <ele>44.2</ele>
        <time>2015-02-16T18:54:08Z</time>
      </trkpt>
      <trkpt lat="37.412418" lon="-122.159042">
        <ele>44.1</ele>
        <time>2015-02-16T18:54:10Z</time>
      </trkpt>
      <trkpt lat="37.412429" lon="-122.159006">
        <ele>43.9</ele>
        <time>2015-02-16T18:54:12Z</time>
      </trkpt>
      <trkpt lat="37.412415" lon="-122.158949">
        <ele>43.7</ele>
        <time>2015-02-16T18:54:14Z</time>
      </trkpt>
      <trkpt lat="37.412399" lon="-122.15892">
        <ele>43.9</ele>
        <time>2015-02-16T18:54:15Z</time>
      </trkpt>
      <trkpt lat="37.412386" lon="-122.158874">
        <ele>44.1</ele>
        <time>2015-02-16T18:54:17Z</time>
      </trkpt>
      <trkpt lat="37.412401" lon="-122.158833">
        <ele>44.2</ele>
        <time>2015-02-16T18:54:19Z</time>
      </trkpt>
      <trkpt lat="37.412426" lon="-122.1588">
        <ele>44.2</ele>
        <time>2015-02-16T18:54:21Z</time>
      </trkpt>
      <trkpt lat="37.41245" lon="-122.158784">
        <ele>44.1</ele>
        <time>2015-02-16T18:54:23Z</time>
      </trkpt>
      <trkpt lat="37.412481" lon="-122.158735">
        <ele>44</ele>
        <time>2015-02-16T18:54:26Z</time>
      </trkpt>
      <trkpt lat="37.412481" lon="-122.158717">
        <ele>44</ele>
        <time>2015-02-16T18:54:29Z</time>
      </trkpt>
      <trkpt lat="37.412513" lon="-122.158721">
        <ele>43.9</ele>
        <time>2015-02-16T18:54:30Z</time>
      </trkpt>
      <trkpt lat="37.412565" lon="-122.158703">
        <ele>43.4</ele>
        <time>2015-02-16T18:54:33Z</time>
      </trkpt>
      <trkpt lat="37.412615" lon="-122.158657">
        <ele>43.4</ele>
        <time>2015-02-16T18:54:34Z</time>
      </trkpt>
      <trkpt lat="37.412651" lon="-122.158615">
        <ele>43.7</ele>
        <time>2015-02-16T18:54:36Z</time>
      </trkpt>
      <trkpt lat="37.412671" lon="-122.15859">
        <ele>44</ele>
        <time>2015-02-16T18:54:37Z</time>
      </trkpt>
      <trkpt lat="37.412717" lon="-122.158536">
        <ele>44.1</ele>
        <time>2015-02-16T18:54:39Z</time>
      </trkpt>
      <trkpt lat="37.41274" lon="-122.158508">
        <ele>44.2</ele>
        <time>2015-02-16T18:54:40Z</time>
      </trkpt>
      <trkpt lat="37.412764" lon="-122.158473">
        <ele>44.4</ele>
        <time>2015-02-16T18:54:41Z</time>
      </trkpt>
      <trkpt lat="37.412783" lon="-122.158444">
        <ele>44.4</ele>
        <time>2015-02-16T18:54:42Z</time>
      </trkpt>
      <trkpt lat="37.412813" lon="-122.158405">
        <ele>44.3</ele>
        <time>2015-02-16T18:54:44Z</time>
      </trkpt>
      <trkpt lat="37.412828" lon="-122.158366">
        <ele>44.3</ele>
        <time>2015-02-16T18:54:46Z</time>
      </trkpt>
      <trkpt lat="37.412853" lon="-122.158334">
        <ele>44.2</ele>
        <time>2015-02-16T18:54:48Z</time>
      </trkpt>
      <trkpt lat="37.412887" lon="-122.158289">
        <ele>44.1</ele>
        <time>2015-02-16T18:54:50Z</time>
      </trkpt>
      <trkpt lat="37.412911" lon="-122.158265">
        <ele>43.8</ele>
        <time>2015-02-16T18:54:51Z</time>
      </trkpt>
      <trkpt lat="37.412938" lon="-122.158241">
        <ele>43.6</ele>
        <time>2015-02-16T18:54:52Z</time>
      </trkpt>
      <trkpt lat="37.412967" lon="-122.158217">
        <ele>43.5</ele>
        <time>2015-02-16T18:54:53Z</time>
      </trkpt>
      <trkpt lat="37.412997" lon="-122.158191">
        <ele>43.4</ele>
        <time>2015-02-16T18:54:54Z</time>
      </trkpt>
      <trkpt lat="37.413027" lon="-122.158171">
        <ele>43.2</ele>
        <time>2015-02-16T18:54:55Z</time>
      </trkpt>
      <trkpt lat="37.413083" lon="-122.158138">
        <ele>42.3</ele>
        <time>2015-02-16T18:54:57Z</time>
      </trkpt>
      <trkpt lat="37.41311" lon="-122.158123">
        <ele>41.7</ele>
        <time>2015-02-16T18:54:58Z</time>
      </trkpt>
      <trkpt lat="37.413154" lon="-122.158089">
        <ele>41.3</ele>
        <time>2015-02-16T18:55:01Z</time>
      </trkpt>
      <trkpt lat="37.41318" lon="-122.15806">
        <ele>41.2</ele>
        <time>2015-02-16T18:55:02Z</time>
      </trkpt>
      <trkpt lat="37.413213" lon="-122.158019">
        <ele>40.9</ele>
        <time>2015-02-16T18:55:05Z</time>
      </trkpt>
      <trkpt lat="37.413243" lon="-122.157951">
        <ele>40.8</ele>
        <time>2015-02-16T18:55:07Z</time>
      </trkpt>
      <trkpt lat="37.413255" lon="-122.157931">
        <ele>40.8</ele>
        <time>2015-02-16T18:55:09Z</time>
      </trkpt>
      <trkpt lat="37.413293" lon="-122.157892">
        <ele>41.1</ele>
        <time>2015-02-16T18:55:11Z</time>
      </trkpt>
      <trkpt lat="37.413335" lon="-122.157839">
        <ele>40.9</ele>
        <time>2015-02-16T18:55:12Z</time>
      </trkpt>
      <trkpt lat="37.41337" lon="-122.157793">
        <ele>41</ele>
        <time>2015-02-16T18:55:15Z</time>
      </trkpt>
      <trkpt lat="37.413401" lon="-122.157751">
        <ele>41</ele>
        <time>2015-02-16T18:55:16Z</time>
      </trkpt>
      <trkpt lat="37.413434" lon="-122.157717">
        <ele>40.8</ele>
        <time>2015-02-16T18:55:18Z</time>
      </trkpt>
      <trkpt lat="37.413493" lon="-122.15768">
        <ele>40.1</ele>
        <time>2015-02-16T18:55:21Z</time>
      </trkpt>
      <trkpt lat="37.413513" lon="-122.157669">
        <ele>39.9</ele>
        <time>2015-02-16T18:55:22Z</time>
      </trkpt>
      <trkpt lat="37.413538" lon="-122.157651">
        <ele>39.7</ele>
        <time>2015-02-16T18:55:24Z</time>
      </trkpt>
      <trkpt lat="37.413556" lon="-122.157625">
        <ele>39.7</ele>
        <time>2015-02-16T18:55:28Z</time>
      </trkpt>
    </trkseg>
  </trk>
</gpx>